MYDAX CHILLER For M1 mirror 
            

Key: (Temperatures in Centigrade) 
A) System is ON or OFF
B) Actual Tank Temperature as sensed by the Output RTD                   
C) Set point Temperature 
D) Calculated temperature of the refrigerant line at the suction pressure transducer
E) Pressure in PSIg of the refrigerant line at the suction pressure transducer
F & G) Temperature in the refrigerant line at the Superheat and Condenser RTDs
H) Temperature in the refrigerant line at the Discharge RTD (2-stage design only)
I) Temperature in the refrigerant line at the Subcooler RTD (inactive)
J) Valve drives of evaporator 

----------- DATE ----------: A    B     C     D     E    F    G    H   I J

 last update: Sun Jul 23 07:33:52 PDT 2017
Sun Jul 23 07:33:36 PDT 2017 ON: 19.99 +20.0 20.04 -15.1 28.0 16.3 32.1 7 9 Alarm State:  0
Sun Jul 23 07:32:34 PDT 2017 ON: 20.00 +20.0 20.06 -15.5 27.5 16.6 32.0 7 9 Alarm State:  0
Sun Jul 23 07:31:33 PDT 2017 ON: 20.01 +20.0 20.07 -15.0 28.2 16.1 32.1 7 9 Alarm State:  0
Sun Jul 23 07:30:31 PDT 2017 ON: 19.99 +20.0 20.06 -15.3 27.8 16.4 32.1 7 10 Alarm State:  0
Sun Jul 23 07:29:30 PDT 2017 ON: 19.99 +20.0 20.05 -15.1 28.1 16.2 32.2 7 10 Alarm State:  0
Sun Jul 23 07:28:28 PDT 2017 ON: 19.99 +20.0 20.05 -15.3 27.7 16.5 32.0 7 9 Alarm State:  0
Sun Jul 23 07:27:27 PDT 2017 ON: 20.00 +20.0 20.06 -15.1 28.0 16.3 32.0 7 9 Alarm State:  0
Sun Jul 23 07:26:25 PDT 2017 ON: 19.99 +20.0 20.06 -15.5 27.5 16.6 32.0 8 9 Alarm State:  0
Sun Jul 23 07:25:24 PDT 2017 ON: 20.00 +20.0 20.05 -15.2 27.9 16.3 32.1 7 9 Alarm State:  0
Sun Jul 23 07:24:22 PDT 2017 ON: 20.00 +20.0 20.06 -15.5 27.5 16.6 31.7 7 9 Alarm State:  0
Sun Jul 23 07:23:21 PDT 2017 ON: 20.00 +20.0 20.06 -15.1 28.1 16.2 32.0 7 9 Alarm State:  0
Sun Jul 23 07:22:19 PDT 2017 ON: 20.00 +20.0 20.05 -15.5 27.5 16.6 32.0 7 10 Alarm State:  0
Sun Jul 23 07:21:18 PDT 2017 ON: 19.99 +20.0 20.05 -15.3 27.8 16.4 32.0 7 9 Alarm State:  0
Sun Jul 23 07:20:16 PDT 2017 ON: 20.00 +20.0 20.05 -15.4 27.6 16.5 32.0 7 9 Alarm State:  0
Sun Jul 23 07:19:15 PDT 2017 ON: 20.00 +20.0 20.07 -15.5 27.4 16.7 31.9 7 8 Alarm State:  0
Sun Jul 23 07:18:13 PDT 2017 ON: 19.99 +20.0 20.07 -15.6 27.3 16.8 31.8 8 9 Alarm State:  0
Sun Jul 23 07:17:12 PDT 2017 ON: 19.99 +20.0 20.05 -15.1 28.1 16.2 32.2 7 10 Alarm State:  0
Sun Jul 23 07:16:10 PDT 2017 ON: 19.99 +20.0 20.05 -15.4 27.6 16.5 32.0 7 9 Alarm State:  0
Sun Jul 23 07:15:09 PDT 2017 ON: 20.00 +20.0 20.06 -15.4 27.6 16.5 32.0 7 9 Alarm State:  0
Sun Jul 23 07:14:07 PDT 2017 ON: 20.00 +20.0 20.06 -15.2 27.9 16.3 32.1 7 9 Alarm State:  0
Sun Jul 23 07:13:06 PDT 2017 ON: 19.99 +20.0 20.04 -15.4 27.6 16.5 32.0 7 10 Alarm State:  0
Sun Jul 23 07:12:04 PDT 2017 ON: 20.00 +20.0 20.05 -15.1 28.0 16.3 32.1 7 9 Alarm State:  0
Sun Jul 23 07:11:03 PDT 2017 ON: 20.00 +20.0 20.06 -15.5 27.4 16.7 31.7 7 9 Alarm State:  0
Sun Jul 23 07:10:01 PDT 2017 ON: 19.99 +20.0 20.07 -15.5 27.4 16.7 31.9 8 9 Alarm State:  0
Sun Jul 23 07:09:00 PDT 2017 ON: 19.99 +20.0 20.06 -15.3 27.8 16.4 32.1 7 9 Alarm State:  0
Sun Jul 23 07:07:58 PDT 2017 ON: 20.00 +20.0 20.05 -15.5 27.5 16.6 32.0 7 9 Alarm State:  0
Sun Jul 23 07:06:57 PDT 2017 ON: 20.00 +20.0 20.05 -15.3 27.7 16.5 32.0 7 10 Alarm State:  0
Sun Jul 23 07:05:55 PDT 2017 ON: 19.99 +20.0 20.06 -15.2 27.9 16.3 32.1 7 10 Alarm State:  0
Sun Jul 23 07:04:54 PDT 2017 ON: 19.98 +20.0 20.05 -15.1 28.0 16.3 32.1 7 9 Alarm State:  0
Sun Jul 23 07:03:52 PDT 2017 ON: 20.00 +20.0 20.05 -15.5 27.5 16.6 31.9 7 9 Alarm State:  0
Sun Jul 23 07:02:51 PDT 2017 ON: 20.00 +20.0 20.06 -15.5 27.5 16.6 32.0 7 9 Alarm State:  0
Sun Jul 23 07:01:49 PDT 2017 ON: 20.00 +20.0 20.05 -15.0 28.2 16.1 32.2 7 9 Alarm State:  0
Sun Jul 23 07:00:48 PDT 2017 ON: 19.99 +20.0 20.04 -15.1 28.0 16.3 32.0 7 10 Alarm State:  0
Sun Jul 23 06:59:46 PDT 2017 ON: 19.99 +20.0 20.06 -15.3 27.8 16.4 32.0 7 9 Alarm State:  0
Sun Jul 23 06:58:45 PDT 2017 ON: 20.00 +20.0 20.05 -15.3 27.8 16.4 32.0 7 9 Alarm State:  0
Sun Jul 23 06:57:44 PDT 2017 ON: 20.01 +20.0 20.06 -15.6 27.3 16.8 31.9 7 9 Alarm State:  0
Sun Jul 23 06:56:42 PDT 2017 ON: 19.99 +20.0 20.06 -15.4 27.6 16.5 31.8 7 10 Alarm State:  0
Sun Jul 23 06:55:41 PDT 2017 ON: 19.99 +20.0 20.04 -15.1 28.1 16.2 32.1 7 10 Alarm State:  0
Sun Jul 23 06:54:39 PDT 2017 ON: 20.00 +20.0 20.05 -15.5 27.4 16.7 32.0 7 9 Alarm State:  0
Sun Jul 23 06:53:38 PDT 2017 ON: 20.00 +20.0 20.06 -15.5 27.4 16.7 31.8 8 9 Alarm State:  0
Sun Jul 23 06:52:36 PDT 2017 ON: 19.99 +20.0 20.05 -15.4 27.6 16.5 31.9 7 10 Alarm State:  0
Sun Jul 23 06:51:35 PDT 2017 ON: 19.99 +20.0 20.04 -14.9 28.3 16.1 32.1 7 10 Alarm State:  0
Sun Jul 23 06:50:33 PDT 2017 ON: 20.00 +20.0 20.06 -15.5 27.5 16.6 31.9 7 9 Alarm State:  0
Sun Jul 23 06:49:32 PDT 2017 ON: 19.99 +20.0 20.05 -15.3 27.8 16.4 32.0 7 10 Alarm State:  0
Sun Jul 23 06:48:30 PDT 2017 ON: 19.99 +20.0 20.05 -15.4 27.6 16.5 31.9 7 10 Alarm State:  0
Sun Jul 23 06:47:29 PDT 2017 ON: 19.99 +20.0 20.04 -15.5 27.5 16.6 31.7 7 9 Alarm State:  0
Sun Jul 23 06:46:27 PDT 2017 ON: 20.00 +20.0 20.06 -15.4 27.6 16.5 31.9 7 9 Alarm State:  0
Sun Jul 23 06:45:26 PDT 2017 ON: 20.00 +20.0 20.07 -15.5 27.5 16.6 31.9 8 9 Alarm State:  0
Sun Jul 23 06:44:24 PDT 2017 ON: 19.99 +20.0 20.04 -15.3 27.8 16.4 32.0 7 10 Alarm State:  0
Sun Jul 23 06:43:23 PDT 2017 ON: 19.99 +20.0 20.04 -15.3 27.8 16.4 32.0 7 9 Alarm State:  0
Sun Jul 23 06:42:21 PDT 2017 ON: 20.00 +20.0 20.06 -15.5 27.5 16.6 31.7 7 9 Alarm State:  0
Sun Jul 23 06:41:20 PDT 2017 ON: 20.00 +20.0 20.07 -15.3 27.8 16.4 32.0 7 9 Alarm State:  0
Sun Jul 23 06:40:18 PDT 2017 ON: 19.98 +20.0 20.04 -14.9 28.3 16.1 32.2 7 10 Alarm State:  0
Sun Jul 23 06:39:17 PDT 2017 ON: 19.99 +20.0 20.04 -15.3 27.8 16.4 32.0 7 9 Alarm State:  0
Sun Jul 23 06:38:15 PDT 2017 ON: 20.01 +20.0 20.06 -15.2 27.9 16.3 32.0 7 9 Alarm State:  0
Sun Jul 23 06:37:14 PDT 2017 ON: 20.00 +20.0 20.07 -15.5 27.4 16.7 31.7 7 9 Alarm State:  0
Sun Jul 23 06:36:12 PDT 2017 ON: 19.99 +20.0 20.06 -15.5 27.5 16.6 31.9 7 9 Alarm State:  0
Sun Jul 23 06:35:11 PDT 2017 ON: 19.99 +20.0 20.04 -15.4 27.6 16.5 32.0 7 9 Alarm State:  0
Sun Jul 23 06:34:09 PDT 2017 ON: 20.00 +20.0 20.05 -15.3 27.7 16.5 31.9 7 9 Alarm State:  0
Sun Jul 23 06:33:08 PDT 2017 ON: 19.99 +20.0 20.05 -15.3 27.7 16.5 32.0 7 10 Alarm State:  0
Sun Jul 23 06:32:06 PDT 2017 ON: 20.00 +20.0 20.05 -15.3 27.8 16.4 32.0 7 10 Alarm State:  0
Sun Jul 23 06:31:05 PDT 2017 ON: 20.00 +20.0 20.05 -15.3 27.7 16.5 32.0 7 9 Alarm State:  0
Sun Jul 23 06:30:03 PDT 2017 ON: 19.99 +20.0 20.05 -15.4 27.6 16.5 31.8 7 9 Alarm State:  0
Sun Jul 23 06:29:02 PDT 2017 ON: 20.00 +20.0 20.06 -15.1 28.0 16.3 32.1 7 9 Alarm State:  0
Sun Jul 23 06:28:00 PDT 2017 ON: 19.99 +20.0 20.05 -15.1 28.0 16.3 32.0 7 10 Alarm State:  0
Sun Jul 23 06:26:59 PDT 2017 ON: 19.99 +20.0 20.03 -14.9 28.3 16.1 32.2 7 10 Alarm State:  0
Sun Jul 23 06:25:57 PDT 2017 ON: 20.00 +20.0 20.05 -15.5 27.5 16.6 31.9 7 9 Alarm State:  0
Sun Jul 23 06:24:56 PDT 2017 ON: 19.99 +20.0 20.05 -15.5 27.5 16.6 31.9 7 10 Alarm State:  0
Sun Jul 23 06:23:54 PDT 2017 ON: 19.99 +20.0 20.05 -15.1 28.0 16.3 32.1 7 10 Alarm State:  0
Sun Jul 23 06:22:53 PDT 2017 ON: 20.00 +20.0 20.05 -15.5 27.5 16.6 31.9 8 9 Alarm State:  0
Sun Jul 23 06:21:51 PDT 2017 ON: 19.99 +20.0 20.05 -15.4 27.6 16.5 31.9 7 10 Alarm State:  0
Sun Jul 23 06:20:50 PDT 2017 ON: 20.00 +20.0 20.04 -15.2 27.9 16.3 31.9 7 10 Alarm State:  0
Sun Jul 23 06:19:48 PDT 2017 ON: 20.00 +20.0 20.07 -15.3 27.8 16.4 32.0 7 8 Alarm State:  0
Sun Jul 23 06:18:47 PDT 2017 ON: 20.00 +20.0 20.07 -15.3 27.8 16.4 31.8 7 9 Alarm State:  0
Sun Jul 23 06:17:45 PDT 2017 ON: 19.99 +20.0 20.06 -15.4 27.6 16.5 31.9 7 9 Alarm State:  0
Sun Jul 23 06:16:44 PDT 2017 ON: 19.99 +20.0 20.04 -15.0 28.2 16.1 32.1 7 10 Alarm State:  0
Sun Jul 23 06:15:42 PDT 2017 ON: 20.01 +20.0 20.05 -15.4 27.6 16.5 32.0 7 9 Alarm State:  0
Sun Jul 23 06:14:41 PDT 2017 ON: 20.01 +20.0 20.06 -15.5 27.4 16.7 31.6 7 10 Alarm State:  0
Sun Jul 23 06:13:39 PDT 2017 ON: 19.99 +20.0 20.05 -15.1 28.1 16.2 32.2 7 10 Alarm State:  0
Sun Jul 23 06:12:38 PDT 2017 ON: 19.99 +20.0 20.05 -15.0 28.2 16.1 32.1 7 9 Alarm State:  0
Sun Jul 23 06:11:36 PDT 2017 ON: 20.00 +20.0 20.05 -15.0 28.2 16.1 32.1 7 9 Alarm State:  0
Sun Jul 23 06:10:35 PDT 2017 ON: 20.00 +20.0 20.06 -15.3 27.8 16.4 32.0 7 9 Alarm State:  0
Sun Jul 23 06:09:33 PDT 2017 ON: 19.99 +20.0 20.06 -15.3 27.7 16.5 32.0 7 9 Alarm State:  0
Sun Jul 23 06:08:32 PDT 2017 ON: 19.99 +20.0 20.05 -15.3 27.7 16.5 31.9 7 9 Alarm State:  0
Sun Jul 23 06:07:30 PDT 2017 ON: 20.00 +20.0 20.06 -15.3 27.7 16.5 32.0 7 9 Alarm State:  0
Sun Jul 23 06:06:29 PDT 2017 ON: 19.98 +20.0 20.04 -14.9 28.3 16.1 32.2 7 10 Alarm State:  0
Sun Jul 23 06:05:28 PDT 2017 ON: 19.99 +20.0 20.04 -15.4 27.6 16.5 32.0 7 9 Alarm State:  0
Sun Jul 23 06:04:26 PDT 2017 ON: 20.01 +20.0 20.06 -15.4 27.6 16.5 31.8 7 9 Alarm State:  0
Sun Jul 23 06:03:25 PDT 2017 ON: 20.00 +20.0 20.06 -15.3 27.7 16.5 31.9 7 10 Alarm State:  0
Sun Jul 23 06:02:23 PDT 2017 ON: 19.99 +20.0 20.06 -14.9 28.4 16.0 32.2 7 10 Alarm State:  0
Sun Jul 23 06:01:22 PDT 2017 ON: 19.99 +20.0 20.05 -15.5 27.5 16.6 32.0 8 10 Alarm State:  0
Sun Jul 23 06:00:20 PDT 2017 ON: 19.99 +20.0 20.04 -15.3 27.8 16.4 32.0 7 9 Alarm State:  0
Sun Jul 23 05:59:19 PDT 2017 ON: 20.00 +20.0 20.06 -15.3 27.7 16.5 32.0 7 9 Alarm State:  0
Sun Jul 23 05:58:17 PDT 2017 ON: 20.00 +20.0 20.07 -15.3 27.8 16.4 32.0 7 9 Alarm State:  0
Sun Jul 23 05:57:16 PDT 2017 ON: 19.99 +20.0 20.05 -15.1 28.1 16.2 32.1 7 10 Alarm State:  0
Sun Jul 23 05:56:14 PDT 2017 ON: 19.99 +20.0 20.06 -15.3 27.8 16.4 32.0 7 9 Alarm State:  0
Sun Jul 23 05:55:13 PDT 2017 ON: 20.00 +20.0 20.06 -15.5 27.5 16.6 31.8 7 9 Alarm State:  0
Sun Jul 23 05:54:11 PDT 2017 ON: 19.99 +20.0 20.05 -14.9 28.4 16.0 32.2 7 10 Alarm State:  0
Sun Jul 23 05:53:10 PDT 2017 ON: 20.00 +20.0 20.04 -15.1 28.0 16.3 31.9 7 10 Alarm State:  0
Sun Jul 23 05:52:08 PDT 2017 ON: 19.99 +20.0 20.05 -15.2 27.9 16.3 32.0 7 10 Alarm State:  0
Sun Jul 23 05:51:07 PDT 2017 ON: 20.00 +20.0 20.06 -15.3 27.7 16.5 31.9 7 9 Alarm State:  0
Sun Jul 23 05:50:05 PDT 2017 ON: 20.00 +20.0 20.07 -15.3 27.8 16.4 32.0 7 9 Alarm State:  0
Sun Jul 23 05:49:04 PDT 2017 ON: 19.98 +20.0 20.04 -14.8 28.5 16.0 32.2 7 10 Alarm State:  0
Sun Jul 23 05:48:02 PDT 2017 ON: 19.99 +20.0 20.05 -15.1 28.0 16.3 32.1 7 9 Alarm State:  0
Sun Jul 23 05:47:01 PDT 2017 ON: 20.00 +20.0 20.05 -15.5 27.4 16.7 31.9 7 9 Alarm State:  0
Sun Jul 23 05:45:59 PDT 2017 ON: 20.00 +20.0 20.05 -15.2 27.9 16.3 32.0 7 10 Alarm State:  0
Sun Jul 23 05:44:58 PDT 2017 ON: 19.99 +20.0 20.04 -15.1 28.0 16.3 32.0 7 10 Alarm State:  0
Sun Jul 23 05:43:56 PDT 2017 ON: 20.00 +20.0 20.06 -15.5 27.5 16.6 31.9 7 9 Alarm State:  0
Sun Jul 23 05:42:55 PDT 2017 ON: 19.99 +20.0 20.05 -15.5 27.5 16.6 31.9 7 9 Alarm State:  0
Sun Jul 23 05:41:53 PDT 2017 ON: 20.00 +20.0 20.06 -15.2 27.9 16.3 32.1 7 9 Alarm State:  0
Sun Jul 23 05:40:52 PDT 2017 ON: 20.01 +20.0 20.07 -15.9 26.9 17.0 31.5 8 9 Alarm State:  0
Sun Jul 23 05:39:50 PDT 2017 ON: 19.99 +20.0 20.05 -15.1 28.1 16.2 32.2 7 10 Alarm State:  0
Sun Jul 23 05:38:49 PDT 2017 ON: 20.00 +20.0 20.05 -15.3 27.8 16.4 32.1 7 9 Alarm State:  0
Sun Jul 23 05:37:47 PDT 2017 ON: 20.00 +20.0 20.07 -15.4 27.6 16.5 32.1 7 9 Alarm State:  0
Sun Jul 23 05:36:46 PDT 2017 ON: 20.00 +20.0 20.06 -15.2 27.9 16.3 32.1 7 10 Alarm State:  0
Sun Jul 23 05:35:44 PDT 2017 ON: 19.99 +20.0 20.06 -15.3 27.8 16.4 32.1 7 9 Alarm State:  0
Sun Jul 23 05:34:43 PDT 2017 ON: 19.99 +20.0 20.05 -15.3 27.8 16.4 32.0 7 9 Alarm State:  0
Sun Jul 23 05:33:41 PDT 2017 ON: 20.00 +20.0 20.06 -15.2 27.9 16.3 32.1 7 9 Alarm State:  0
Sun Jul 23 05:32:40 PDT 2017 ON: 19.99 +20.0 20.05 -15.3 27.7 16.5 32.0 7 10 Alarm State:  0
Sun Jul 23 05:31:38 PDT 2017 ON: 19.99 +20.0 20.04 -14.9 28.4 16.0 32.2 7 10 Alarm State:  0
Sun Jul 23 05:30:37 PDT 2017 ON: 20.00 +20.0 20.06 -15.3 27.8 16.4 32.0 7 9 Alarm State:  0
Sun Jul 23 05:29:35 PDT 2017 ON: 20.00 +20.0 20.06 -15.3 27.8 16.4 32.1 7 10 Alarm State:  0
Sun Jul 23 05:28:34 PDT 2017 ON: 19.99 +20.0 20.05 -15.3 27.7 16.5 32.0 7 10 Alarm State:  0
Sun Jul 23 05:27:32 PDT 2017 ON: 19.99 +20.0 20.03 -14.9 28.3 16.1 32.1 7 10 Alarm State:  0
Sun Jul 23 05:26:31 PDT 2017 ON: 20.00 +20.0 20.06 -15.2 27.9 16.3 32.1 7 9 Alarm State:  0
Sun Jul 23 05:25:29 PDT 2017 ON: 20.00 +20.0 20.06 -15.1 28.0 16.3 32.1 7 10 Alarm State:  0
Sun Jul 23 05:24:28 PDT 2017 ON: 19.99 +20.0 20.06 -15.1 28.1 16.2 32.0 7 9 Alarm State:  0
Sun Jul 23 05:23:26 PDT 2017 ON: 19.99 +20.0 20.05 -15.5 27.4 16.7 31.7 7 9 Alarm State:  0
Sun Jul 23 05:22:25 PDT 2017 ON: 20.00 +20.0 20.05 -15.4 27.6 16.5 31.9 7 9 Alarm State:  0
Sun Jul 23 05:21:23 PDT 2017 ON: 20.00 +20.0 20.08 -15.5 27.4 16.7 31.9 7 9 Alarm State:  0
Sun Jul 23 05:20:22 PDT 2017 ON: 19.99 +20.0 20.06 -15.5 27.4 16.7 31.9 7 9 Alarm State:  0
Sun Jul 23 05:19:20 PDT 2017 ON: 19.99 +20.0 20.05 -15.3 27.8 16.4 32.0 7 9 Alarm State:  0
Sun Jul 23 05:18:19 PDT 2017 ON: 20.00 +20.0 20.06 -15.5 27.4 16.7 31.6 7 9 Alarm State:  0
Sun Jul 23 05:17:17 PDT 2017 ON: 19.99 +20.0 20.06 -15.4 27.6 16.5 32.0 8 9 Alarm State:  0
Sun Jul 23 05:16:16 PDT 2017 ON: 19.99 +20.0 20.05 -15.3 27.7 16.5 32.0 7 10 Alarm State:  0
Sun Jul 23 05:15:14 PDT 2017 ON: 19.99 +20.0 20.06 -15.1 28.0 16.3 32.1 7 9 Alarm State:  0
Sun Jul 23 05:14:13 PDT 2017 ON: 19.99 +20.0 20.05 -15.3 27.7 16.5 32.1 7 9 Alarm State:  0
Sun Jul 23 05:13:11 PDT 2017 ON: 20.00 +20.0 20.05 -15.5 27.5 16.6 32.0 7 9 Alarm State:  0
Sun Jul 23 05:12:10 PDT 2017 ON: 20.00 +20.0 20.06 -15.2 27.9 16.3 32.1 7 9 Alarm State:  0
Sun Jul 23 05:11:08 PDT 2017 ON: 19.99 +20.0 20.04 -14.7 28.6 15.9 32.2 7 10 Alarm State:  0
Sun Jul 23 05:10:07 PDT 2017 ON: 19.99 +20.0 20.03 -15.1 28.1 16.2 32.0 7 10 Alarm State:  0
Sun Jul 23 05:09:05 PDT 2017 ON: 19.99 +20.0 20.05 -15.3 27.8 16.4 31.9 7 10 Alarm State:  0
Sun Jul 23 05:08:04 PDT 2017 ON: 19.99 +20.0 20.04 -15.3 27.7 16.5 31.8 7 10 Alarm State:  0
Sun Jul 23 05:07:02 PDT 2017 ON: 20.00 +20.0 20.05 -15.5 27.5 16.6 31.6 7 9 Alarm State:  0
Sun Jul 23 05:06:01 PDT 2017 ON: 20.00 +20.0 20.07 -15.2 27.9 16.3 32.0 7 9 Alarm State:  0
Sun Jul 23 05:04:59 PDT 2017 ON: 19.99 +20.0 20.05 -15.3 27.8 16.4 32.0 7 10 Alarm State:  0
Sun Jul 23 05:03:58 PDT 2017 ON: 19.98 +20.0 20.04 -15.1 28.0 16.3 32.0 7 10 Alarm State:  0
Sun Jul 23 05:02:56 PDT 2017 ON: 20.00 +20.0 20.06 -15.5 27.5 16.6 31.9 7 8 Alarm State:  0
Sun Jul 23 05:01:55 PDT 2017 ON: 20.00 +20.0 20.05 -15.3 27.8 16.4 32.0 7 10 Alarm State:  0
Sun Jul 23 05:00:53 PDT 2017 ON: 20.00 +20.0 20.05 -15.4 27.6 16.5 32.0 7 9 Alarm State:  0
Sun Jul 23 04:59:52 PDT 2017 ON: 20.00 +20.0 20.05 -15.5 27.4 16.7 31.7 7 10 Alarm State:  0
Sun Jul 23 04:58:51 PDT 2017 ON: 19.99 +20.0 20.05 -15.3 27.8 16.4 32.0 7 9 Alarm State:  0
Sun Jul 23 04:57:49 PDT 2017 ON: 19.99 +20.0 20.06 -15.2 27.9 16.3 32.1 7 9 Alarm State:  0
Sun Jul 23 04:56:48 PDT 2017 ON: 20.00 +20.0 20.06 -15.5 27.5 16.6 31.9 7 9 Alarm State:  0
Sun Jul 23 04:55:46 PDT 2017 ON: 19.99 +20.0 20.06 -15.6 27.3 16.8 31.9 7 9 Alarm State:  0
Sun Jul 23 04:54:45 PDT 2017 ON: 19.99 +20.0 20.04 -15.1 28.0 16.3 32.2 7 10 Alarm State:  0
Sun Jul 23 04:53:43 PDT 2017 ON: 20.00 +20.0 20.05 -15.3 27.7 16.5 32.1 7 9 Alarm State:  0
Sun Jul 23 04:52:42 PDT 2017 ON: 19.99 +20.0 20.05 -15.3 27.7 16.5 32.1 7 10 Alarm State:  0
Sun Jul 23 04:51:40 PDT 2017 ON: 20.00 +20.0 20.06 -15.3 27.8 16.4 32.1 7 9 Alarm State:  0
Sun Jul 23 04:50:39 PDT 2017 ON: 19.99 +20.0 20.06 -15.3 27.8 16.4 32.0 7 10 Alarm State:  0
Sun Jul 23 04:49:37 PDT 2017 ON: 19.99 +20.0 20.04 -14.9 28.3 16.1 32.1 7 10 Alarm State:  0
Sun Jul 23 04:48:36 PDT 2017 ON: 19.99 +20.0 20.06 -15.5 27.5 16.6 31.9 7 9 Alarm State:  0
Sun Jul 23 04:47:34 PDT 2017 ON: 20.00 +20.0 20.06 -15.5 27.5 16.6 31.9 7 9 Alarm State:  0
Sun Jul 23 04:46:33 PDT 2017 ON: 20.00 +20.0 20.07 -15.5 27.5 16.6 31.9 8 8 Alarm State:  0
Sun Jul 23 04:45:31 PDT 2017 ON: 20.00 +20.0 20.07 -15.7 27.1 16.9 31.5 7 9 Alarm State:  0
Sun Jul 23 04:44:30 PDT 2017 ON: 19.99 +20.0 20.05 -15.3 27.8 16.4 32.0 7 9 Alarm State:  0
Sun Jul 23 04:43:28 PDT 2017 ON: 20.00 +20.0 20.05 -14.9 28.4 16.0 32.1 7 10 Alarm State:  0
Sun Jul 23 04:42:27 PDT 2017 ON: 19.99 +20.0 20.06 -15.3 27.8 16.4 31.9 7 10 Alarm State:  0
Sun Jul 23 04:41:25 PDT 2017 ON: 19.99 +20.0 20.05 -15.5 27.4 16.7 31.8 8 10 Alarm State:  0
Sun Jul 23 04:40:24 PDT 2017 ON: 19.99 +20.0 20.05 -15.3 27.7 16.5 31.7 7 9 Alarm State:  0
Sun Jul 23 04:39:22 PDT 2017 ON: 20.00 +20.0 20.05 -15.3 27.7 16.5 32.0 7 9 Alarm State:  0
Sun Jul 23 04:38:21 PDT 2017 ON: 20.00 +20.0 20.05 -15.0 28.2 16.1 32.1 7 10 Alarm State:  0
Sun Jul 23 04:37:19 PDT 2017 ON: 19.99 +20.0 20.06 -15.1 28.0 16.3 32.1 7 9 Alarm State:  0
Sun Jul 23 04:36:18 PDT 2017 ON: 19.99 +20.0 20.06 -15.4 27.6 16.5 32.0 7 9 Alarm State:  0
Sun Jul 23 04:35:16 PDT 2017 ON: 20.00 +20.0 20.03 -15.2 27.9 16.3 32.0 7 10 Alarm State:  0
Sun Jul 23 04:34:15 PDT 2017 ON: 19.99 +20.0 20.05 -15.4 27.6 16.5 32.0 7 9 Alarm State:  0
Sun Jul 23 04:33:13 PDT 2017 ON: 20.00 +20.0 20.06 -15.7 27.2 16.8 31.6 8 9 Alarm State:  0
Sun Jul 23 04:32:12 PDT 2017 ON: 19.99 +20.0 20.05 -14.9 28.3 16.1 32.2 7 10 Alarm State:  0
Sun Jul 23 04:31:10 PDT 2017 ON: 19.99 +20.0 20.04 -15.1 28.0 16.3 32.0 7 10 Alarm State:  0
Sun Jul 23 04:30:09 PDT 2017 ON: 19.99 +20.0 20.05 -15.4 27.6 16.5 32.0 8 10 Alarm State:  0
Sun Jul 23 04:29:07 PDT 2017 ON: 19.99 +20.0 20.04 -15.1 28.0 16.3 32.1 7 10 Alarm State:  0
Sun Jul 23 04:28:06 PDT 2017 ON: 19.99 +20.0 20.06 -15.5 27.5 16.6 32.0 7 9 Alarm State:  0
Sun Jul 23 04:27:04 PDT 2017 ON: 20.00 +20.0 20.05 -15.3 27.8 16.4 32.0 7 9 Alarm State:  0
Sun Jul 23 04:26:02 PDT 2017 ON: 20.00 +20.0 20.05 -15.0 28.2 16.1 32.1 7 10 Alarm State:  0
Sun Jul 23 04:25:01 PDT 2017 ON: 20.00 +20.0 20.05 -15.0 28.2 16.1 32.2 7 9 Alarm State:  0
Sun Jul 23 04:23:59 PDT 2017 ON: 20.00 +20.0 20.05 -14.9 28.4 16.0 32.2 7 10 Alarm State:  0
Sun Jul 23 04:22:58 PDT 2017 ON: 19.99 +20.0 20.06 -15.3 27.8 16.4 32.1 7 9 Alarm State:  0
Sun Jul 23 04:21:57 PDT 2017 ON: 19.99 +20.0 20.05 -15.3 27.7 16.5 32.0 7 9 Alarm State:  0
Sun Jul 23 04:20:55 PDT 2017 ON: 19.99 +20.0 20.05 -15.4 27.6 16.5 32.1 7 10 Alarm State:  0
Sun Jul 23 04:19:54 PDT 2017 ON: 19.99 +20.0 20.04 -15.3 27.8 16.4 32.0 7 10 Alarm State:  0
Sun Jul 23 04:18:52 PDT 2017 ON: 19.99 +20.0 20.04 -15.2 27.9 16.3 32.1 7 10 Alarm State:  0
Sun Jul 23 04:17:51 PDT 2017 ON: 20.00 +20.0 20.06 -15.5 27.4 16.7 31.9 7 9 Alarm State:  0
Sun Jul 23 04:16:49 PDT 2017 ON: 19.99 +20.0 20.06 -15.3 27.8 16.4 32.0 7 9 Alarm State:  0
Sun Jul 23 04:15:48 PDT 2017 ON: 19.99 +20.0 20.07 -15.5 27.5 16.6 31.7 7 9 Alarm State:  0
Sun Jul 23 04:14:46 PDT 2017 ON: 20.00 +20.0 20.06 -15.3 27.8 16.4 31.9 7 9 Alarm State:  0
Sun Jul 23 04:13:45 PDT 2017 ON: 19.99 +20.0 20.07 -15.5 27.5 16.6 31.7 7 9 Alarm State:  0
Sun Jul 23 04:12:43 PDT 2017 ON: 19.99 +20.0 20.05 -15.3 27.7 16.5 31.7 7 9 Alarm State:  0
Sun Jul 23 04:11:42 PDT 2017 ON: 20.00 +20.0 20.05 -15.3 27.7 16.5 31.7 7 9 Alarm State:  0
Sun Jul 23 04:10:40 PDT 2017 ON: 20.00 +20.0 20.07 -15.5 27.4 16.7 31.6 7 8 Alarm State:  0
Sun Jul 23 04:09:39 PDT 2017 ON: 19.99 +20.0 20.07 -15.6 27.3 16.8 31.7 7 9 Alarm State:  0
Sun Jul 23 04:08:37 PDT 2017 ON: 19.99 +20.0 20.05 -15.3 27.7 16.5 31.8 7 9 Alarm State:  0
Sun Jul 23 04:07:36 PDT 2017 ON: 19.99 +20.0 20.05 -15.4 27.6 16.5 32.0 7 9 Alarm State:  0
Sun Jul 23 04:06:34 PDT 2017 ON: 20.00 +20.0 20.07 -15.7 27.2 16.8 31.7 7 8 Alarm State:  0
Sun Jul 23 04:05:33 PDT 2017 ON: 19.99 +20.0 20.07 -15.4 27.6 16.5 32.2 7 8 Alarm State:  0
Sun Jul 23 04:04:31 PDT 2017 ON: 20.00 +20.0 20.05 -15.3 27.8 16.4 32.0 7 10 Alarm State:  0
Sun Jul 23 04:03:30 PDT 2017 ON: 19.99 +20.0 20.05 -15.2 27.9 16.3 32.2 7 9 Alarm State:  0
Sun Jul 23 04:02:28 PDT 2017 ON: 20.00 +20.0 20.05 -15.3 27.8 16.4 32.1 7 10 Alarm State:  0
Sun Jul 23 04:01:27 PDT 2017 ON: 19.99 +20.0 20.06 -15.1 28.0 16.3 32.1 7 10 Alarm State:  0
Sun Jul 23 04:00:25 PDT 2017 ON: 19.99 +20.0 20.05 -15.2 27.9 16.3 32.1 7 9 Alarm State:  0
Sun Jul 23 03:59:24 PDT 2017 ON: 20.00 +20.0 20.06 -15.4 27.6 16.5 32.0 7 9 Alarm State:  0
Sun Jul 23 03:58:22 PDT 2017 ON: 20.00 +20.0 20.05 -15.1 28.0 16.3 32.1 7 10 Alarm State:  0
Sun Jul 23 03:57:21 PDT 2017 ON: 20.00 +20.0 20.06 -15.3 27.8 16.4 32.0 7 9 Alarm State:  0
Sun Jul 23 03:56:19 PDT 2017 ON: 19.99 +20.0 20.05 -15.3 27.8 16.4 32.1 7 10 Alarm State:  0
Sun Jul 23 03:55:18 PDT 2017 ON: 20.00 +20.0 20.06 -15.5 27.5 16.6 32.0 7 9 Alarm State:  0
Sun Jul 23 03:54:16 PDT 2017 ON: 19.99 +20.0 20.04 -15.1 28.0 16.3 32.1 7 10 Alarm State:  0
Sun Jul 23 03:53:15 PDT 2017 ON: 20.00 +20.0 20.06 -15.5 27.4 16.7 32.0 7 9 Alarm State:  0
Sun Jul 23 03:52:13 PDT 2017 ON: 19.99 +20.0 20.06 -15.3 27.7 16.5 32.1 7 10 Alarm State:  0
Sun Jul 23 03:51:12 PDT 2017 ON: 19.99 +20.0 20.06 -15.4 27.6 16.5 32.0 7 9 Alarm State:  0
Sun Jul 23 03:50:10 PDT 2017 ON: 20.00 +20.0 20.06 -15.5 27.4 16.7 31.9 7 9 Alarm State:  0
Sun Jul 23 03:49:09 PDT 2017 ON: 20.00 +20.0 20.06 -15.5 27.5 16.6 31.9 8 9 Alarm State:  0
Sun Jul 23 03:48:07 PDT 2017 ON: 19.99 +20.0 20.06 -15.4 27.6 16.5 31.9 7 9 Alarm State:  0
Sun Jul 23 03:47:06 PDT 2017 ON: 19.99 +20.0 20.05 -15.5 27.5 16.6 31.8 7 9 Alarm State:  0
Sun Jul 23 03:46:04 PDT 2017 ON: 20.00 +20.0 20.06 -15.3 27.7 16.5 31.9 7 9 Alarm State:  0
Sun Jul 23 03:45:03 PDT 2017 ON: 20.00 +20.0 20.05 -15.3 27.7 16.5 32.0 7 10 Alarm State:  0
Sun Jul 23 03:44:01 PDT 2017 ON: 19.99 +20.0 20.05 -15.2 27.9 16.3 32.0 7 9 Alarm State:  0
Sun Jul 23 03:43:00 PDT 2017 ON: 20.00 +20.0 20.06 -15.5 27.4 16.7 31.8 7 9 Alarm State:  0
Sun Jul 23 03:41:58 PDT 2017 ON: 19.99 +20.0 20.05 -15.1 28.0 16.3 32.0 7 10 Alarm State:  0
Sun Jul 23 03:40:57 PDT 2017 ON: 20.00 +20.0 20.05 -15.5 27.5 16.6 31.7 7 9 Alarm State:  0
Sun Jul 23 03:39:55 PDT 2017 ON: 19.99 +20.0 20.04 -15.2 27.9 16.3 32.1 7 9 Alarm State:  0
Sun Jul 23 03:38:54 PDT 2017 ON: 20.00 +20.0 20.05 -15.7 27.1 16.9 31.6 7 10 Alarm State:  0
Sun Jul 23 03:37:52 PDT 2017 ON: 19.99 +20.0 20.06 -15.1 28.1 16.2 32.1 7 10 Alarm State:  0
Sun Jul 23 03:36:51 PDT 2017 ON: 19.99 +20.0 20.05 -15.0 28.2 16.1 32.2 7 10 Alarm State:  0
Sun Jul 23 03:35:49 PDT 2017 ON: 19.99 +20.0 20.04 -15.5 27.4 16.7 31.7 7 9 Alarm State:  0
Sun Jul 23 03:34:48 PDT 2017 ON: 20.00 +20.0 20.05 -15.5 27.5 16.6 31.7 7 9 Alarm State:  0
Sun Jul 23 03:33:46 PDT 2017 ON: 19.99 +20.0 20.04 -15.2 27.9 16.3 32.1 7 10 Alarm State:  0
Sun Jul 23 03:32:45 PDT 2017 ON: 19.99 +20.0 20.05 -15.3 27.8 16.4 32.0 7 9 Alarm State:  0
Sun Jul 23 03:31:43 PDT 2017 ON: 19.99 +20.0 20.04 -15.3 27.8 16.4 32.1 7 10 Alarm State:  0
Sun Jul 23 03:30:42 PDT 2017 ON: 20.00 +20.0 20.05 -15.3 27.7 16.5 32.0 7 10 Alarm State:  0
Sun Jul 23 03:29:40 PDT 2017 ON: 19.99 +20.0 20.07 -15.3 27.7 16.5 32.0 7 9 Alarm State:  0
Sun Jul 23 03:28:39 PDT 2017 ON: 19.98 +20.0 20.05 -14.9 28.3 16.1 32.2 7 9 Alarm State:  0
Sun Jul 23 03:27:37 PDT 2017 ON: 20.00 +20.0 20.06 -15.5 27.4 16.7 31.9 7 8 Alarm State:  0
Sun Jul 23 03:26:36 PDT 2017 ON: 20.00 +20.0 20.05 -15.3 27.7 16.5 31.9 7 10 Alarm State:  0
Sun Jul 23 03:25:34 PDT 2017 ON: 19.99 +20.0 20.05 -15.1 28.0 16.3 32.1 7 9 Alarm State:  0
Sun Jul 23 03:24:33 PDT 2017 ON: 20.00 +20.0 20.07 -15.5 27.4 16.7 31.9 8 8 Alarm State:  0
Sun Jul 23 03:23:31 PDT 2017 ON: 19.99 +20.0 20.07 -15.4 27.6 16.5 32.0 7 9 Alarm State:  0
Sun Jul 23 03:22:30 PDT 2017 ON: 19.99 +20.0 20.04 -15.3 27.7 16.5 32.0 7 10 Alarm State:  0
Sun Jul 23 03:21:28 PDT 2017 ON: 20.00 +20.0 20.05 -15.4 27.6 16.5 31.8 7 9 Alarm State:  0
Sun Jul 23 03:20:27 PDT 2017 ON: 19.99 +20.0 20.06 -15.3 27.7 16.5 32.0 7 9 Alarm State:  0
Sun Jul 23 03:19:25 PDT 2017 ON: 19.99 +20.0 20.05 -15.3 27.7 16.5 32.0 8 9 Alarm State:  0
Sun Jul 23 03:18:24 PDT 2017 ON: 20.00 +20.0 20.07 -15.4 27.6 16.5 31.8 7 9 Alarm State:  0
Sun Jul 23 03:17:22 PDT 2017 ON: 19.99 +20.0 20.05 -15.3 27.8 16.4 32.0 7 10 Alarm State:  0
Sun Jul 23 03:16:21 PDT 2017 ON: 19.99 +20.0 20.05 -15.3 27.8 16.4 32.0 7 9 Alarm State:  0
Sun Jul 23 03:15:19 PDT 2017 ON: 20.00 +20.0 20.06 -15.4 27.6 16.5 32.0 7 9 Alarm State:  0
Sun Jul 23 03:14:17 PDT 2017 ON: 19.99 +20.0 20.06 -15.5 27.5 16.6 31.9 7 9 Alarm State:  0
Sun Jul 23 03:13:16 PDT 2017 ON: 20.00 +20.0 20.06 -15.3 27.7 16.5 32.0 7 9 Alarm State:  0
Sun Jul 23 03:12:14 PDT 2017 ON: 20.00 +20.0 20.05 -15.3 27.7 16.5 32.1 7 9 Alarm State:  0
Sun Jul 23 03:11:13 PDT 2017 ON: 20.00 +20.0 20.05 -15.1 28.0 16.3 32.1 7 10 Alarm State:  0
Sun Jul 23 03:10:11 PDT 2017 ON: 19.99 +20.0 20.06 -15.3 27.8 16.4 32.1 7 9 Alarm State:  0
Sun Jul 23 03:09:10 PDT 2017 ON: 20.00 +20.0 20.04 -15.4 27.6 16.5 32.0 7 9 Alarm State:  0
Sun Jul 23 03:08:08 PDT 2017 ON: 20.00 +20.0 20.06 -15.5 27.5 16.6 32.0 7 9 Alarm State:  0
Sun Jul 23 03:07:07 PDT 2017 ON: 20.00 +20.0 20.06 -15.3 27.7 16.5 32.1 7 10 Alarm State:  0
Sun Jul 23 03:06:05 PDT 2017 ON: 19.99 +20.0 20.04 -14.9 28.4 16.0 32.2 7 10 Alarm State:  0
Sun Jul 23 03:05:04 PDT 2017 ON: 20.00 +20.0 20.04 -15.1 28.0 16.3 32.0 7 9 Alarm State:  0
Sun Jul 23 03:04:02 PDT 2017 ON: 20.00 +20.0 20.05 -15.3 27.7 16.5 32.1 7 10 Alarm State:  0
Sun Jul 23 03:03:01 PDT 2017 ON: 20.00 +20.0 20.07 -15.2 27.9 16.3 32.1 7 9 Alarm State:  0
Sun Jul 23 03:01:59 PDT 2017 ON: 19.99 +20.0 20.06 -14.9 28.3 16.1 32.2 7 9 Alarm State:  0
Sun Jul 23 03:00:58 PDT 2017 ON: 19.99 +20.0 20.04 -15.2 27.9 16.3 32.1 7 10 Alarm State:  0
Sun Jul 23 02:59:56 PDT 2017 ON: 20.00 +20.0 20.06 -15.4 27.6 16.5 32.0 7 9 Alarm State:  0
Sun Jul 23 02:58:55 PDT 2017 ON: 19.99 +20.0 20.05 -15.1 28.0 16.3 32.0 7 10 Alarm State:  0
Sun Jul 23 02:57:53 PDT 2017 ON: 19.99 +20.0 20.05 -15.1 28.0 16.3 31.9 7 9 Alarm State:  0
Sun Jul 23 02:56:52 PDT 2017 ON: 20.00 +20.0 20.06 -15.1 28.0 16.3 32.0 7 9 Alarm State:  0
Sun Jul 23 02:55:50 PDT 2017 ON: 20.00 +20.0 20.06 -15.3 27.7 16.5 31.7 7 10 Alarm State:  0
Sun Jul 23 02:54:49 PDT 2017 ON: 19.99 +20.0 20.06 -15.1 28.0 16.3 31.8 7 9 Alarm State:  0
Sun Jul 23 02:53:47 PDT 2017 ON: 19.99 +20.0 20.04 -15.2 27.9 16.3 31.7 7 10 Alarm State:  0
Sun Jul 23 02:52:46 PDT 2017 ON: 20.00 +20.0 20.07 -15.6 27.3 16.8 31.6 7 9 Alarm State:  0
Sun Jul 23 02:51:44 PDT 2017 ON: 19.99 +20.0 20.05 -15.3 27.7 16.5 31.6 7 10 Alarm State:  0
Sun Jul 23 02:50:43 PDT 2017 ON: 19.99 +20.0 20.05 -15.4 27.6 16.5 31.6 7 9 Alarm State:  0
Sun Jul 23 02:49:41 PDT 2017 ON: 20.00 +20.0 20.06 -15.3 27.7 16.5 31.7 7 9 Alarm State:  0
Sun Jul 23 02:48:40 PDT 2017 ON: 20.00 +20.0 20.06 -15.1 28.1 16.2 31.8 7 10 Alarm State:  0
Sun Jul 23 02:47:39 PDT 2017 ON: 19.99 +20.0 20.05 -15.1 28.1 16.2 31.9 7 10 Alarm State:  0
Sun Jul 23 02:46:37 PDT 2017 ON: 19.99 +20.0 20.04 -15.2 27.9 16.3 31.9 7 10 Alarm State:  0
Sun Jul 23 02:45:36 PDT 2017 ON: 20.00 +20.0 20.05 -15.5 27.5 16.6 31.6 7 9 Alarm State:  0
Sun Jul 23 02:44:34 PDT 2017 ON: 20.00 +20.0 20.04 -15.4 27.6 16.5 31.6 7 10 Alarm State:  0
Sun Jul 23 02:43:33 PDT 2017 ON: 19.99 +20.0 20.07 -15.6 27.3 16.8 31.6 8 9 Alarm State:  0
Sun Jul 23 02:42:31 PDT 2017 ON: 19.99 +20.0 20.05 -15.2 27.9 16.3 32.0 7 10 Alarm State:  0
Sun Jul 23 02:41:30 PDT 2017 ON: 20.00 +20.0 20.05 -15.3 27.8 16.4 31.9 7 9 Alarm State:  0
Sun Jul 23 02:40:28 PDT 2017 ON: 20.00 +20.0 20.05 -15.5 27.4 16.7 31.6 7 9 Alarm State:  0
Sun Jul 23 02:39:27 PDT 2017 ON: 20.00 +20.0 20.06 -15.3 27.8 16.4 32.0 7 9 Alarm State:  0
Sun Jul 23 02:38:25 PDT 2017 ON: 19.99 +20.0 20.05 -15.2 27.9 16.3 31.9 7 10 Alarm State:  0
Sun Jul 23 02:37:24 PDT 2017 ON: 20.00 +20.0 20.06 -15.3 27.8 16.4 31.7 7 9 Alarm State:  0
Sun Jul 23 02:36:22 PDT 2017 ON: 20.00 +20.0 20.05 -15.1 28.0 16.3 32.0 7 10 Alarm State:  0
Sun Jul 23 02:35:21 PDT 2017 ON: 19.99 +20.0 20.05 -15.4 27.6 16.5 31.9 7 9 Alarm State:  0
Sun Jul 23 02:34:19 PDT 2017 ON: 20.00 +20.0 20.07 -15.5 27.4 16.7 31.8 7 8 Alarm State:  0
Sun Jul 23 02:33:18 PDT 2017 ON: 20.00 +20.0 20.06 -15.3 27.7 16.5 31.9 7 10 Alarm State:  0
Sun Jul 23 02:32:16 PDT 2017 ON: 19.99 +20.0 20.05 -15.2 27.9 16.3 32.1 7 10 Alarm State:  0
Sun Jul 23 02:31:15 PDT 2017 ON: 20.00 +20.0 20.05 -15.3 27.8 16.4 32.1 7 9 Alarm State:  0
Sun Jul 23 02:30:13 PDT 2017 ON: 19.99 +20.0 20.06 -15.5 27.5 16.6 32.0 7 9 Alarm State:  0
Sun Jul 23 02:29:12 PDT 2017 ON: 20.00 +20.0 20.06 -15.3 27.8 16.4 32.1 7 9 Alarm State:  0
Sun Jul 23 02:28:10 PDT 2017 ON: 19.99 +20.0 20.05 -15.3 27.7 16.5 32.1 7 10 Alarm State:  0
Sun Jul 23 02:27:09 PDT 2017 ON: 20.00 +20.0 20.06 -15.2 27.9 16.3 32.2 7 9 Alarm State:  0
Sun Jul 23 02:26:07 PDT 2017 ON: 19.99 +20.0 20.05 -15.3 27.8 16.4 32.1 7 9 Alarm State:  0
Sun Jul 23 02:25:06 PDT 2017 ON: 20.00 +20.0 20.05 -15.1 28.0 16.3 32.1 7 9 Alarm State:  0
Sun Jul 23 02:24:04 PDT 2017 ON: 20.00 +20.0 20.05 -15.2 27.9 16.3 32.1 7 10 Alarm State:  0
Sun Jul 23 02:23:03 PDT 2017 ON: 19.99 +20.0 20.05 -15.2 27.9 16.3 32.1 7 10 Alarm State:  0
Sun Jul 23 02:22:01 PDT 2017 ON: 20.00 +20.0 20.04 -15.4 27.6 16.5 32.0 7 9 Alarm State:  0
Sun Jul 23 02:21:00 PDT 2017 ON: 20.00 +20.0 20.05 -15.2 27.9 16.3 32.1 7 10 Alarm State:  0
Sun Jul 23 02:19:58 PDT 2017 ON: 19.99 +20.0 20.06 -15.3 27.8 16.4 32.1 7 10 Alarm State:  0
Sun Jul 23 02:18:57 PDT 2017 ON: 19.99 +20.0 20.05 -15.3 27.7 16.5 32.0 7 9 Alarm State:  0
Sun Jul 23 02:17:55 PDT 2017 ON: 20.00 +20.0 20.04 -15.3 27.7 16.5 32.0 7 10 Alarm State:  0
Sun Jul 23 02:16:54 PDT 2017 ON: 20.00 +20.0 20.05 -15.5 27.5 16.6 31.9 7 10 Alarm State:  0
Sun Jul 23 02:15:52 PDT 2017 ON: 19.99 +20.0 20.05 -15.1 28.0 16.3 32.0 7 9 Alarm State:  0
Sun Jul 23 02:14:51 PDT 2017 ON: 20.00 +20.0 20.05 -15.2 27.9 16.3 32.0 7 10 Alarm State:  0
Sun Jul 23 02:13:49 PDT 2017 ON: 20.00 +20.0 20.06 -15.2 27.9 16.3 32.0 7 9 Alarm State:  0
Sun Jul 23 02:12:48 PDT 2017 ON: 19.99 +20.0 20.06 -15.5 27.5 16.6 31.8 7 9 Alarm State:  0
Sun Jul 23 02:11:46 PDT 2017 ON: 19.99 +20.0 20.05 -15.3 27.8 16.4 32.1 7 9 Alarm State:  0
Sun Jul 23 02:10:45 PDT 2017 ON: 20.00 +20.0 20.05 -15.5 27.4 16.7 31.8 8 9 Alarm State:  0
Sun Jul 23 02:09:43 PDT 2017 ON: 20.01 +20.0 20.06 -15.4 27.6 16.5 31.7 7 9 Alarm State:  0
Sun Jul 23 02:08:42 PDT 2017 ON: 19.99 +20.0 20.05 -14.8 28.5 16.0 32.2 7 10 Alarm State:  0
Sun Jul 23 02:07:40 PDT 2017 ON: 19.99 +20.0 20.05 -15.3 27.8 16.4 32.0 7 10 Alarm State:  0
Sun Jul 23 02:06:39 PDT 2017 ON: 20.00 +20.0 20.05 -15.3 27.8 16.4 32.0 7 9 Alarm State:  0
Sun Jul 23 02:05:37 PDT 2017 ON: 20.00 +20.0 20.05 -15.3 27.7 16.5 31.8 7 10 Alarm State:  0
Sun Jul 23 02:04:36 PDT 2017 ON: 19.99 +20.0 20.05 -15.2 27.9 16.3 32.0 7 9 Alarm State:  0
Sun Jul 23 02:03:34 PDT 2017 ON: 20.00 +20.0 20.06 -15.3 27.8 16.4 31.9 7 9 Alarm State:  0
Sun Jul 23 02:02:33 PDT 2017 ON: 20.00 +20.0 20.05 -15.3 27.8 16.4 32.0 7 9 Alarm State:  0
Sun Jul 23 02:01:31 PDT 2017 ON: 20.00 +20.0 20.06 -15.3 27.7 16.5 32.0 7 9 Alarm State:  0
Sun Jul 23 02:00:30 PDT 2017 ON: 19.99 +20.0 20.05 -15.5 27.4 16.7 32.0 7 9 Alarm State:  0
Sun Jul 23 01:59:28 PDT 2017 ON: 20.00 +20.0 20.07 -15.5 27.5 16.6 32.1 8 8 Alarm State:  0
Sun Jul 23 01:58:27 PDT 2017 ON: 19.99 +20.0 20.05 -15.1 28.1 16.2 32.2 7 10 Alarm State:  0
Sun Jul 23 01:57:25 PDT 2017 ON: 20.00 +20.0 20.04 -15.1 28.1 16.2 32.2 7 10 Alarm State:  0
Sun Jul 23 01:56:24 PDT 2017 ON: 20.00 +20.0 20.05 -15.2 27.9 16.3 32.2 7 10 Alarm State:  0
Sun Jul 23 01:55:22 PDT 2017 ON: 19.99 +20.0 20.06 -15.4 27.6 16.5 32.1 7 9 Alarm State:  0
Sun Jul 23 01:54:21 PDT 2017 ON: 20.00 +20.0 20.06 -15.5 27.5 16.6 32.1 8 9 Alarm State:  0
Sun Jul 23 01:53:19 PDT 2017 ON: 19.99 +20.0 20.06 -15.1 28.0 16.3 32.2 7 9 Alarm State:  0
Sun Jul 23 01:52:18 PDT 2017 ON: 19.99 +20.0 20.06 -15.5 27.5 16.6 32.0 7 9 Alarm State:  0
Sun Jul 23 01:51:16 PDT 2017 ON: 19.98 +20.0 20.05 -15.2 27.9 16.3 32.1 7 9 Alarm State:  0
Sun Jul 23 01:50:15 PDT 2017 ON: 20.00 +20.0 20.05 -15.4 27.6 16.5 32.1 7 9 Alarm State:  0
Sun Jul 23 01:49:13 PDT 2017 ON: 20.00 +20.0 20.05 -15.3 27.8 16.4 32.1 7 10 Alarm State:  0
Sun Jul 23 01:48:12 PDT 2017 ON: 19.99 +20.0 20.05 -15.3 27.7 16.5 32.0 7 10 Alarm State:  0
Sun Jul 23 01:47:10 PDT 2017 ON: 19.99 +20.0 20.04 -15.1 28.0 16.3 32.0 7 10 Alarm State:  0
Sun Jul 23 01:46:09 PDT 2017 ON: 20.00 +20.0 20.05 -15.3 27.7 16.5 31.9 7 9 Alarm State:  0
Sun Jul 23 01:45:07 PDT 2017 ON: 20.00 +20.0 20.07 -15.5 27.5 16.6 31.9 7 9 Alarm State:  0
Sun Jul 23 01:44:06 PDT 2017 ON: 20.00 +20.0 20.06 -15.3 27.8 16.4 32.0 7 9 Alarm State:  0
Sun Jul 23 01:43:04 PDT 2017 ON: 19.99 +20.0 20.06 -15.5 27.5 16.6 31.9 8 9 Alarm State:  0
Sun Jul 23 01:42:03 PDT 2017 ON: 20.00 +20.0 20.05 -15.4 27.6 16.5 32.1 7 9 Alarm State:  0
Sun Jul 23 01:41:01 PDT 2017 ON: 20.00 +20.0 20.06 -15.8 27.0 16.9 31.7 7 9 Alarm State:  0
Sun Jul 23 01:40:00 PDT 2017 ON: 20.00 +20.0 20.06 -15.0 28.2 16.1 32.1 7 10 Alarm State:  0
Sun Jul 23 01:38:58 PDT 2017 ON: 19.99 +20.0 20.05 -15.1 28.1 16.2 32.1 7 10 Alarm State:  0
Sun Jul 23 01:37:57 PDT 2017 ON: 20.00 +20.0 20.05 -15.2 27.9 16.3 32.0 7 9 Alarm State:  0
Sun Jul 23 01:36:55 PDT 2017 ON: 20.00 +20.0 20.06 -15.3 27.7 16.5 31.9 7 9 Alarm State:  0
Sun Jul 23 01:35:54 PDT 2017 ON: 20.00 +20.0 20.07 -15.3 27.7 16.5 31.9 7 9 Alarm State:  0
Sun Jul 23 01:34:52 PDT 2017 ON: 19.99 +20.0 20.05 -15.3 27.7 16.5 32.0 7 9 Alarm State:  0
Sun Jul 23 01:33:51 PDT 2017 ON: 20.00 +20.0 20.03 -15.1 28.0 16.3 32.0 7 10 Alarm State:  0
Sun Jul 23 01:32:49 PDT 2017 ON: 20.01 +20.0 20.06 -15.4 27.6 16.5 31.8 7 9 Alarm State:  0
Sun Jul 23 01:31:48 PDT 2017 ON: 19.99 +20.0 20.04 -15.0 28.2 16.1 32.1 7 10 Alarm State:  0
Sun Jul 23 01:30:47 PDT 2017 ON: 20.00 +20.0 20.05 -15.1 28.1 16.2 32.0 7 10 Alarm State:  0
Sun Jul 23 01:29:45 PDT 2017 ON: 19.99 +20.0 20.05 -15.3 27.8 16.4 31.9 7 10 Alarm State:  0
Sun Jul 23 01:28:44 PDT 2017 ON: 19.99 +20.0 20.05 -15.4 27.6 16.5 31.7 7 9 Alarm State:  0
Sun Jul 23 01:27:42 PDT 2017 ON: 20.00 +20.0 20.06 -15.5 27.5 16.6 31.7 7 9 Alarm State:  0
Sun Jul 23 01:26:41 PDT 2017 ON: 20.00 +20.0 20.07 -15.5 27.4 16.7 31.7 8 9 Alarm State:  0
Sun Jul 23 01:25:39 PDT 2017 ON: 19.99 +20.0 20.06 -15.2 27.9 16.3 32.1 7 10 Alarm State:  0
Sun Jul 23 01:24:38 PDT 2017 ON: 19.99 +20.0 20.04 -15.3 27.8 16.4 32.0 7 10 Alarm State:  0
Sun Jul 23 01:23:36 PDT 2017 ON: 20.00 +20.0 20.04 -15.5 27.5 16.6 31.8 7 9 Alarm State:  0
Sun Jul 23 01:22:35 PDT 2017 ON: 20.00 +20.0 20.06 -15.1 28.1 16.2 32.2 7 9 Alarm State:  0
Sun Jul 23 01:21:33 PDT 2017 ON: 19.99 +20.0 20.05 -15.5 27.5 16.6 32.0 8 10 Alarm State:  0
Sun Jul 23 01:20:31 PDT 2017 ON: 19.99 +20.0 20.04 -14.9 28.4 16.0 32.2 7 10 Alarm State:  0
Sun Jul 23 01:19:30 PDT 2017 ON: 20.00 +20.0 20.05 -14.9 28.3 16.1 32.2 7 10 Alarm State:  0
Sun Jul 23 01:18:28 PDT 2017 ON: 19.99 +20.0 20.06 -15.2 27.9 16.3 32.0 7 10 Alarm State:  0
Sun Jul 23 01:17:27 PDT 2017 ON: 19.99 +20.0 20.05 -15.1 28.1 16.2 32.1 7 9 Alarm State:  0
Sun Jul 23 01:16:25 PDT 2017 ON: 20.00 +20.0 20.05 -15.5 27.5 16.6 31.9 7 9 Alarm State:  0
Sun Jul 23 01:15:24 PDT 2017 ON: 20.00 +20.0 20.06 -15.3 27.8 16.4 32.1 7 9 Alarm State:  0
Sun Jul 23 01:14:23 PDT 2017 ON: 19.99 +20.0 20.06 -15.2 27.9 16.3 32.1 7 10 Alarm State:  0
Sun Jul 23 01:13:21 PDT 2017 ON: 19.99 +20.0 20.06 -15.5 27.5 16.6 31.9 8 9 Alarm State:  0
Sun Jul 23 01:12:20 PDT 2017 ON: 19.99 +20.0 20.06 -15.4 27.6 16.5 31.9 7 9 Alarm State:  0
Sun Jul 23 01:11:18 PDT 2017 ON: 20.00 +20.0 20.04 -15.3 27.7 16.5 31.8 7 10 Alarm State:  0
Sun Jul 23 01:10:17 PDT 2017 ON: 19.99 +20.0 20.04 -15.1 28.0 16.3 32.0 7 10 Alarm State:  0
Sun Jul 23 01:09:15 PDT 2017 ON: 20.00 +20.0 20.06 -15.3 27.8 16.4 31.9 7 9 Alarm State:  0
Sun Jul 23 01:08:14 PDT 2017 ON: 19.99 +20.0 20.06 -15.3 27.7 16.5 31.8 7 10 Alarm State:  0
Sun Jul 23 01:07:12 PDT 2017 ON: 19.99 +20.0 20.05 -15.3 27.7 16.5 32.0 7 10 Alarm State:  0
Sun Jul 23 01:06:10 PDT 2017 ON: 20.00 +20.0 20.05 -15.3 27.7 16.5 32.0 7 9 Alarm State:  0
Sun Jul 23 01:05:09 PDT 2017 ON: 20.00 +20.0 20.06 -15.3 27.7 16.5 32.0 7 9 Alarm State:  0
Sun Jul 23 01:04:08 PDT 2017 ON: 19.99 +20.0 20.05 -15.2 27.9 16.3 32.0 7 10 Alarm State:  0
Sun Jul 23 01:03:06 PDT 2017 ON: 19.99 +20.0 20.03 -14.7 28.7 15.8 32.2 7 10 Alarm State:  0
Sun Jul 23 01:02:05 PDT 2017 ON: 20.00 +20.0 20.06 -15.5 27.5 16.6 31.9 8 9 Alarm State:  0
Sun Jul 23 01:01:03 PDT 2017 ON: 19.99 +20.0 20.07 -15.7 27.2 16.8 31.6 7 9 Alarm State:  0
Sun Jul 23 01:00:02 PDT 2017 ON: 19.99 +20.0 20.05 -15.1 28.1 16.2 32.1 7 10 Alarm State:  0
Sun Jul 23 00:59:00 PDT 2017 ON: 19.99 +20.0 20.05 -15.2 27.9 16.3 32.0 7 10 Alarm State:  0
Sun Jul 23 00:57:59 PDT 2017 ON: 19.99 +20.0 20.04 -15.4 27.6 16.5 32.0 7 11 Alarm State:  0
Sun Jul 23 00:56:57 PDT 2017 ON: 19.99 +20.0 20.05 -15.3 27.7 16.5 31.9 7 9 Alarm State:  0
Sun Jul 23 00:55:55 PDT 2017 ON: 20.00 +20.0 20.04 -15.1 28.0 16.3 32.0 7 10 Alarm State:  0
Sun Jul 23 00:54:54 PDT 2017 ON: 20.00 +20.0 20.06 -15.2 27.9 16.3 32.0 7 10 Alarm State:  0
Sun Jul 23 00:53:52 PDT 2017 ON: 19.99 +20.0 20.06 -15.5 27.5 16.6 31.7 7 9 Alarm State:  0
Sun Jul 23 00:52:51 PDT 2017 ON: 19.99 +20.0 20.04 -15.2 27.9 16.3 32.0 7 10 Alarm State:  0
Sun Jul 23 00:51:50 PDT 2017 ON: 20.00 +20.0 20.05 -15.5 27.5 16.6 31.8 7 9 Alarm State:  0
Sun Jul 23 00:50:48 PDT 2017 ON: 20.00 +20.0 20.05 -15.1 28.0 16.3 32.0 7 10 Alarm State:  0
Sun Jul 23 00:49:47 PDT 2017 ON: 19.99 +20.0 20.06 -15.5 27.4 16.7 31.7 7 10 Alarm State:  0
Sun Jul 23 00:48:45 PDT 2017 ON: 19.99 +20.0 20.05 -15.3 27.7 16.5 32.0 7 9 Alarm State:  0
Sun Jul 23 00:47:44 PDT 2017 ON: 20.00 +20.0 20.05 -15.3 27.8 16.4 31.9 7 9 Alarm State:  0
Sun Jul 23 00:46:42 PDT 2017 ON: 19.99 +20.0 20.05 -15.3 27.7 16.5 32.0 7 10 Alarm State:  0
Sun Jul 23 00:45:41 PDT 2017 ON: 20.00 +20.0 20.06 -15.3 27.8 16.4 32.1 7 9 Alarm State:  0
Sun Jul 23 00:44:39 PDT 2017 ON: 19.99 +20.0 20.05 -15.1 28.0 16.3 32.1 7 9 Alarm State:  0
Sun Jul 23 00:43:38 PDT 2017 ON: 20.00 +20.0 20.05 -15.3 27.8 16.4 32.0 7 10 Alarm State:  0
Sun Jul 23 00:42:36 PDT 2017 ON: 19.99 +20.0 20.05 -15.3 27.8 16.4 32.0 7 10 Alarm State:  0
Sun Jul 23 00:41:35 PDT 2017 ON: 19.99 +20.0 20.04 -15.3 27.7 16.5 32.0 7 10 Alarm State:  0
Sun Jul 23 00:40:33 PDT 2017 ON: 20.00 +20.0 20.06 -15.3 27.8 16.4 32.1 7 9 Alarm State:  0
Sun Jul 23 00:39:32 PDT 2017 ON: 20.01 +20.0 20.06 -15.3 27.7 16.5 32.0 7 9 Alarm State:  0
Sun Jul 23 00:38:30 PDT 2017 ON: 19.99 +20.0 20.04 -15.1 28.1 16.2 32.1 7 11 Alarm State:  0
Sun Jul 23 00:37:29 PDT 2017 ON: 19.99 +20.0 20.03 -15.1 28.0 16.3 32.0 7 10 Alarm State:  0
Sun Jul 23 00:36:27 PDT 2017 ON: 20.00 +20.0 20.06 -15.5 27.5 16.6 31.7 7 9 Alarm State:  0
Sun Jul 23 00:35:26 PDT 2017 ON: 19.99 +20.0 20.05 -15.3 27.8 16.4 31.9 7 10 Alarm State:  0
Sun Jul 23 00:34:24 PDT 2017 ON: 19.99 +20.0 20.06 -15.2 27.9 16.3 32.0 8 9 Alarm State:  0
Sun Jul 23 00:33:23 PDT 2017 ON: 20.00 +20.0 20.05 -15.4 27.6 16.5 32.0 7 9 Alarm State:  0
Sun Jul 23 00:32:21 PDT 2017 ON: 20.01 +20.0 20.06 -15.4 27.6 16.5 31.7 7 9 Alarm State:  0
Sun Jul 23 00:31:20 PDT 2017 ON: 19.99 +20.0 20.06 -15.3 27.7 16.5 32.0 7 9 Alarm State:  0
Sun Jul 23 00:30:18 PDT 2017 ON: 19.99 +20.0 20.05 -15.3 27.8 16.4 32.0 7 9 Alarm State:  0
Sun Jul 23 00:29:17 PDT 2017 ON: 20.00 +20.0 20.06 -15.4 27.6 16.5 31.9 8 9 Alarm State:  0
Sun Jul 23 00:28:15 PDT 2017 ON: 19.99 +20.0 20.06 -15.2 27.9 16.3 32.1 7 10 Alarm State:  0
Sun Jul 23 00:27:14 PDT 2017 ON: 19.99 +20.0 20.04 -14.9 28.3 16.1 32.2 7 10 Alarm State:  0
Sun Jul 23 00:26:12 PDT 2017 ON: 20.00 +20.0 20.06 -15.1 28.0 16.3 32.1 7 9 Alarm State:  0
Sun Jul 23 00:25:11 PDT 2017 ON: 20.00 +20.0 20.07 -15.4 27.6 16.5 32.0 7 9 Alarm State:  0
Sun Jul 23 00:24:09 PDT 2017 ON: 19.99 +20.0 20.05 -15.1 28.0 16.3 32.1 7 10 Alarm State:  0
Sun Jul 23 00:23:08 PDT 2017 ON: 19.99 +20.0 20.05 -15.3 27.7 16.5 32.0 7 9 Alarm State:  0
Sun Jul 23 00:22:06 PDT 2017 ON: 20.00 +20.0 20.06 -15.3 27.7 16.5 32.0 7 9 Alarm State:  0
Sun Jul 23 00:21:05 PDT 2017 ON: 20.00 +20.0 20.08 -15.4 27.6 16.5 32.0 7 9 Alarm State:  0
Sun Jul 23 00:20:03 PDT 2017 ON: 19.98 +20.0 20.05 -15.3 27.8 16.4 32.0 7 10 Alarm State:  0
Sun Jul 23 00:19:02 PDT 2017 ON: 19.99 +20.0 20.04 -15.2 27.9 16.3 32.0 7 10 Alarm State:  0
Sun Jul 23 00:18:00 PDT 2017 ON: 20.00 +20.0 20.07 -15.6 27.3 16.8 31.7 8 8 Alarm State:  0
Sun Jul 23 00:16:59 PDT 2017 ON: 19.99 +20.0 20.06 -15.1 28.0 16.3 31.9 7 10 Alarm State:  0
Sun Jul 23 00:15:57 PDT 2017 ON: 19.99 +20.0 20.03 -15.1 28.1 16.2 32.0 7 10 Alarm State:  0
Sun Jul 23 00:14:56 PDT 2017 ON: 20.00 +20.0 20.06 -15.1 28.0 16.3 32.0 7 9 Alarm State:  0
Sun Jul 23 00:13:54 PDT 2017 ON: 19.99 +20.0 20.04 -14.9 28.3 16.1 32.1 7 11 Alarm State:  0
Sun Jul 23 00:12:53 PDT 2017 ON: 19.99 +20.0 20.06 -15.5 27.4 16.7 31.8 8 9 Alarm State:  0
Sun Jul 23 00:11:51 PDT 2017 ON: 20.00 +20.0 20.05 -15.3 27.7 16.5 31.8 7 9 Alarm State:  0
Sun Jul 23 00:10:50 PDT 2017 ON: 20.00 +20.0 20.05 -15.1 28.0 16.3 32.1 7 10 Alarm State:  0
Sun Jul 23 00:09:48 PDT 2017 ON: 19.99 +20.0 20.06 -15.2 27.9 16.3 32.1 8 9 Alarm State:  0
Sun Jul 23 00:08:47 PDT 2017 ON: 19.99 +20.0 20.05 -15.3 27.7 16.5 32.0 7 9 Alarm State:  0
Sun Jul 23 00:07:45 PDT 2017 ON: 20.00 +20.0 20.05 -15.4 27.6 16.5 31.9 7 9 Alarm State:  0
Sun Jul 23 00:06:44 PDT 2017 ON: 20.00 +20.0 20.05 -15.1 28.1 16.2 32.1 7 10 Alarm State:  0
Sun Jul 23 00:05:42 PDT 2017 ON: 20.00 +20.0 20.06 -15.3 27.8 16.4 32.0 7 10 Alarm State:  0
Sun Jul 23 00:04:41 PDT 2017 ON: 19.99 +20.0 20.05 -15.1 28.1 16.2 32.1 7 10 Alarm State:  0
Sun Jul 23 00:03:39 PDT 2017 ON: 20.00 +20.0 20.05 -15.4 27.6 16.5 32.0 7 9 Alarm State:  0
Sun Jul 23 00:02:38 PDT 2017 ON: 20.01 +20.0 20.06 -15.5 27.4 16.7 31.8 7 9 Alarm State:  0
Sun Jul 23 00:01:36 PDT 2017 ON: 20.01 +20.0 20.06 -15.3 27.7 16.5 32.0 7 10 Alarm State:  0
Sun Jul 23 00:00:35 PDT 2017 ON: 19.99 +20.0 20.05 -14.7 28.6 15.9 32.2 7 10 Alarm State:  0
Sat Jul 22 23:59:33 PDT 2017 ON: 19.99 +20.0 20.04 -15.2 27.9 16.3 32.0 7 10 Alarm State:  0
Sat Jul 22 23:58:32 PDT 2017 ON: 20.00 +20.0 20.05 -15.4 27.6 16.5 32.0 7 9 Alarm State:  0
Sat Jul 22 23:57:30 PDT 2017 ON: 20.00 +20.0 20.07 -15.5 27.5 16.6 31.9 7 9 Alarm State:  0
Sat Jul 22 23:56:29 PDT 2017 ON: 19.99 +20.0 20.04 -14.9 28.4 16.0 32.2 7 11 Alarm State:  0
Sat Jul 22 23:55:27 PDT 2017 ON: 19.99 +20.0 20.04 -14.9 28.4 16.0 32.2 7 10 Alarm State:  0
Sat Jul 22 23:54:26 PDT 2017 ON: 20.00 +20.0 20.06 -15.6 27.3 16.8 31.7 7 9 Alarm State:  0
Sat Jul 22 23:53:24 PDT 2017 ON: 20.00 +20.0 20.05 -15.3 27.7 16.5 31.8 7 10 Alarm State:  0
Sat Jul 22 23:52:23 PDT 2017 ON: 19.99 +20.0 20.06 -15.1 28.0 16.3 32.1 7 9 Alarm State:  0
Sat Jul 22 23:51:22 PDT 2017 ON: 20.00 +20.0 20.06 -15.5 27.5 16.6 31.9 7 9 Alarm State:  0
Sat Jul 22 23:50:20 PDT 2017 ON: 20.00 +20.0 20.05 -15.3 27.7 16.5 31.9 7 10 Alarm State:  0
Sat Jul 22 23:49:19 PDT 2017 ON: 19.99 +20.0 20.05 -15.2 27.9 16.3 32.0 7 10 Alarm State:  0
Sat Jul 22 23:48:17 PDT 2017 ON: 19.99 +20.0 20.05 -15.1 28.1 16.2 32.1 7 10 Alarm State:  0
Sat Jul 22 23:47:16 PDT 2017 ON: 20.00 +20.0 20.04 -15.1 28.1 16.2 32.1 7 10 Alarm State:  0
Sat Jul 22 23:46:14 PDT 2017 ON: 20.00 +20.0 20.06 -15.4 27.6 16.5 31.9 7 9 Alarm State:  0
Sat Jul 22 23:45:13 PDT 2017 ON: 19.99 +20.0 20.04 -15.3 27.7 16.5 32.0 7 10 Alarm State:  0
Sat Jul 22 23:44:11 PDT 2017 ON: 20.00 +20.0 20.05 -15.3 27.8 16.4 32.0 7 9 Alarm State:  0
Sat Jul 22 23:43:10 PDT 2017 ON: 20.00 +20.0 20.07 -15.4 27.6 16.5 31.8 7 9 Alarm State:  0
Sat Jul 22 23:42:08 PDT 2017 ON: 19.99 +20.0 20.06 -15.2 27.9 16.3 32.1 7 10 Alarm State:  0
Sat Jul 22 23:41:07 PDT 2017 ON: 19.99 +20.0 20.05 -14.9 28.4 16.0 32.2 7 9 Alarm State:  0
Sat Jul 22 23:40:05 PDT 2017 ON: 20.00 +20.0 20.05 -15.3 27.8 16.4 32.0 7 10 Alarm State:  0
Sat Jul 22 23:39:04 PDT 2017 ON: 20.00 +20.0 20.06 -15.3 27.8 16.4 32.0 7 10 Alarm State:  0
Sat Jul 22 23:38:02 PDT 2017 ON: 19.99 +20.0 20.04 -14.9 28.3 16.1 32.1 7 10 Alarm State:  0
Sat Jul 22 23:37:01 PDT 2017 ON: 19.99 +20.0 20.04 -15.0 28.2 16.1 32.1 7 9 Alarm State:  0
Sat Jul 22 23:35:59 PDT 2017 ON: 20.00 +20.0 20.05 -15.3 27.7 16.5 32.0 7 9 Alarm State:  0
Sat Jul 22 23:34:58 PDT 2017 ON: 20.00 +20.0 20.06 -15.5 27.5 16.6 31.7 7 10 Alarm State:  0
Sat Jul 22 23:33:56 PDT 2017 ON: 19.99 +20.0 20.06 -15.1 28.0 16.3 32.1 7 9 Alarm State:  0
Sat Jul 22 23:32:55 PDT 2017 ON: 19.99 +20.0 20.05 -15.3 27.7 16.5 32.0 7 9 Alarm State:  0
Sat Jul 22 23:31:53 PDT 2017 ON: 20.00 +20.0 20.04 -15.3 27.7 16.5 32.0 7 10 Alarm State:  0
Sat Jul 22 23:30:52 PDT 2017 ON: 19.99 +20.0 20.05 -15.3 27.8 16.4 32.0 7 10 Alarm State:  0
Sat Jul 22 23:29:50 PDT 2017 ON: 19.99 +20.0 20.04 -14.9 28.3 16.1 32.1 7 10 Alarm State:  0
Sat Jul 22 23:28:49 PDT 2017 ON: 20.00 +20.0 20.06 -15.2 27.9 16.3 32.1 7 9 Alarm State:  0
Sat Jul 22 23:27:47 PDT 2017 ON: 19.99 +20.0 20.05 -14.9 28.3 16.1 32.2 7 10 Alarm State:  0
Sat Jul 22 23:26:46 PDT 2017 ON: 19.99 +20.0 20.05 -15.2 27.9 16.3 31.9 7 10 Alarm State:  0
Sat Jul 22 23:25:44 PDT 2017 ON: 19.99 +20.0 20.06 -15.5 27.4 16.7 31.9 8 9 Alarm State:  0
Sat Jul 22 23:24:43 PDT 2017 ON: 19.99 +20.0 20.06 -15.4 27.6 16.5 31.9 7 9 Alarm State:  0
Sat Jul 22 23:23:41 PDT 2017 ON: 19.99 +20.0 20.05 -14.9 28.3 16.1 32.1 7 10 Alarm State:  0
Sat Jul 22 23:22:40 PDT 2017 ON: 20.00 +20.0 20.06 -15.1 28.0 16.3 32.0 7 9 Alarm State:  0
Sat Jul 22 23:21:38 PDT 2017 ON: 19.99 +20.0 20.05 -15.3 27.7 16.5 32.0 7 10 Alarm State:  0
Sat Jul 22 23:20:37 PDT 2017 ON: 19.99 +20.0 20.05 -15.1 28.0 16.3 32.0 7 9 Alarm State:  0
Sat Jul 22 23:19:35 PDT 2017 ON: 19.99 +20.0 20.06 -15.3 27.8 16.4 32.0 7 9 Alarm State:  0
Sat Jul 22 23:18:34 PDT 2017 ON: 19.99 +20.0 20.04 -15.2 27.9 16.3 31.9 7 10 Alarm State:  0
Sat Jul 22 23:17:32 PDT 2017 ON: 20.00 +20.0 20.04 -15.1 28.0 16.3 32.0 8 10 Alarm State:  0
Sat Jul 22 23:16:31 PDT 2017 ON: 19.99 +20.0 20.06 -15.5 27.5 16.6 31.9 7 10 Alarm State:  0
Sat Jul 22 23:15:29 PDT 2017 ON: 19.99 +20.0 20.05 -15.0 28.2 16.1 32.1 7 9 Alarm State:  0
Sat Jul 22 23:14:28 PDT 2017 ON: 20.01 +20.0 20.05 -15.5 27.4 16.7 31.7 7 10 Alarm State:  0
Sat Jul 22 23:13:26 PDT 2017 ON: 19.99 +20.0 20.06 -15.4 27.6 16.5 32.0 7 10 Alarm State:  0
Sat Jul 22 23:12:25 PDT 2017 ON: 19.99 +20.0 20.05 -15.2 27.9 16.3 32.0 7 9 Alarm State:  0
Sat Jul 22 23:11:23 PDT 2017 ON: 20.00 +20.0 20.05 -15.2 27.9 16.3 32.0 7 9 Alarm State:  0
Sat Jul 22 23:10:22 PDT 2017 ON: 20.00 +20.0 20.05 -15.3 27.8 16.4 32.0 7 10 Alarm State:  0
Sat Jul 22 23:09:20 PDT 2017 ON: 19.99 +20.0 20.05 -15.2 27.9 16.3 32.1 7 10 Alarm State:  0
Sat Jul 22 23:08:19 PDT 2017 ON: 20.00 +20.0 20.04 -15.0 28.2 16.1 32.1 7 10 Alarm State:  0
Sat Jul 22 23:07:17 PDT 2017 ON: 20.00 +20.0 20.06 -15.4 27.6 16.5 31.9 7 9 Alarm State:  0
Sat Jul 22 23:06:16 PDT 2017 ON: 19.99 +20.0 20.05 -15.4 27.6 16.5 32.0 7 10 Alarm State:  0
Sat Jul 22 23:05:14 PDT 2017 ON: 20.00 +20.0 20.04 -15.2 27.9 16.3 32.1 7 9 Alarm State:  0
Sat Jul 22 23:04:13 PDT 2017 ON: 20.00 +20.0 20.06 -15.7 27.2 16.8 31.9 7 9 Alarm State:  0
Sat Jul 22 23:03:11 PDT 2017 ON: 20.00 +20.0 20.07 -15.3 27.8 16.4 32.0 7 9 Alarm State:  0
Sat Jul 22 23:02:10 PDT 2017 ON: 19.99 +20.0 20.05 -15.1 28.1 16.2 32.1 7 10 Alarm State:  0
Sat Jul 22 23:01:09 PDT 2017 ON: 19.99 +20.0 20.05 -15.3 27.8 16.4 32.1 7 9 Alarm State:  0
Sat Jul 22 23:00:07 PDT 2017 ON: 20.00 +20.0 20.05 -15.5 27.4 16.7 31.7 7 9 Alarm State:  0
Sat Jul 22 22:59:06 PDT 2017 ON: 20.00 +20.0 20.05 -15.3 27.8 16.4 32.0 7 10 Alarm State:  0
Sat Jul 22 22:58:04 PDT 2017 ON: 19.99 +20.0 20.05 -15.0 28.2 16.1 32.2 7 10 Alarm State:  0
Sat Jul 22 22:57:03 PDT 2017 ON: 19.99 +20.0 20.05 -15.2 27.9 16.3 32.0 7 10 Alarm State:  0
Sat Jul 22 22:56:01 PDT 2017 ON: 19.99 +20.0 20.04 -15.3 27.7 16.5 31.9 7 10 Alarm State:  0
Sat Jul 22 22:55:00 PDT 2017 ON: 20.00 +20.0 20.05 -15.5 27.5 16.6 31.8 7 9 Alarm State:  0
Sat Jul 22 22:53:58 PDT 2017 ON: 19.99 +20.0 20.06 -15.4 27.6 16.5 31.7 7 9 Alarm State:  0
Sat Jul 22 22:52:57 PDT 2017 ON: 20.00 +20.0 20.06 -15.5 27.4 16.7 31.8 8 9 Alarm State:  0
Sat Jul 22 22:51:55 PDT 2017 ON: 19.99 +20.0 20.06 -15.3 27.7 16.5 31.9 7 10 Alarm State:  0
Sat Jul 22 22:50:54 PDT 2017 ON: 19.99 +20.0 20.06 -15.4 27.6 16.5 31.9 7 9 Alarm State:  0
Sat Jul 22 22:49:52 PDT 2017 ON: 19.99 +20.0 20.04 -15.3 27.7 16.5 32.0 7 10 Alarm State:  0
Sat Jul 22 22:48:51 PDT 2017 ON: 20.00 +20.0 20.06 -15.6 27.3 16.8 31.6 7 9 Alarm State:  0
Sat Jul 22 22:47:49 PDT 2017 ON: 20.00 +20.0 20.06 -15.3 27.8 16.4 31.8 7 9 Alarm State:  0
Sat Jul 22 22:46:48 PDT 2017 ON: 19.99 +20.0 20.04 -15.2 27.9 16.3 31.9 7 10 Alarm State:  0
Sat Jul 22 22:45:46 PDT 2017 ON: 20.00 +20.0 20.06 -15.3 27.7 16.5 32.0 7 9 Alarm State:  0
Sat Jul 22 22:44:45 PDT 2017 ON: 19.99 +20.0 20.07 -15.6 27.3 16.8 31.6 7 9 Alarm State:  0
Sat Jul 22 22:43:43 PDT 2017 ON: 19.99 +20.0 20.04 -15.2 27.9 16.3 32.1 7 10 Alarm State:  0
Sat Jul 22 22:42:42 PDT 2017 ON: 19.99 +20.0 20.05 -15.4 27.6 16.5 31.9 7 10 Alarm State:  0
Sat Jul 22 22:41:40 PDT 2017 ON: 20.00 +20.0 20.07 -15.5 27.5 16.6 32.0 7 9 Alarm State:  0
Sat Jul 22 22:40:39 PDT 2017 ON: 19.99 +20.0 20.06 -15.4 27.6 16.5 32.1 7 9 Alarm State:  0
Sat Jul 22 22:39:37 PDT 2017 ON: 20.00 +20.0 20.05 -15.3 27.7 16.5 32.1 7 10 Alarm State:  0
Sat Jul 22 22:38:36 PDT 2017 ON: 20.00 +20.0 20.05 -15.3 27.8 16.4 32.1 7 10 Alarm State:  0
Sat Jul 22 22:37:34 PDT 2017 ON: 19.99 +20.0 20.05 -15.3 27.8 16.4 32.1 7 9 Alarm State:  0
Sat Jul 22 22:36:33 PDT 2017 ON: 20.00 +20.0 20.05 -15.5 27.5 16.6 32.0 8 9 Alarm State:  0
Sat Jul 22 22:35:31 PDT 2017 ON: 20.00 +20.0 20.04 -15.1 28.1 16.2 32.2 7 10 Alarm State:  0
Sat Jul 22 22:34:30 PDT 2017 ON: 19.99 +20.0 20.05 -15.0 28.2 16.1 32.2 7 10 Alarm State:  0
Sat Jul 22 22:33:28 PDT 2017 ON: 19.99 +20.0 20.06 -15.5 27.4 16.7 32.0 8 9 Alarm State:  0
Sat Jul 22 22:32:27 PDT 2017 ON: 19.99 +20.0 20.05 -15.3 27.7 16.5 32.1 7 9 Alarm State:  0
Sat Jul 22 22:31:25 PDT 2017 ON: 20.00 +20.0 20.05 -15.3 27.8 16.4 32.0 7 9 Alarm State:  0
Sat Jul 22 22:30:24 PDT 2017 ON: 20.00 +20.0 20.07 -15.4 27.6 16.5 32.0 7 9 Alarm State:  0
Sat Jul 22 22:29:22 PDT 2017 ON: 19.99 +20.0 20.07 -15.4 27.6 16.5 32.0 7 9 Alarm State:  0
Sat Jul 22 22:28:21 PDT 2017 ON: 19.99 +20.0 20.05 -15.1 28.0 16.3 32.1 7 9 Alarm State:  0
Sat Jul 22 22:27:19 PDT 2017 ON: 20.00 +20.0 20.05 -15.5 27.5 16.6 31.8 7 9 Alarm State:  0
Sat Jul 22 22:26:18 PDT 2017 ON: 20.00 +20.0 20.05 -15.3 27.8 16.4 31.6 7 10 Alarm State:  0
Sat Jul 22 22:25:16 PDT 2017 ON: 19.99 +20.0 20.05 -15.2 27.9 16.3 32.0 8 10 Alarm State:  0
Sat Jul 22 22:24:15 PDT 2017 ON: 19.99 +20.0 20.05 -15.3 27.7 16.5 31.7 7 9 Alarm State:  0
Sat Jul 22 22:23:13 PDT 2017 ON: 20.00 +20.0 20.06 -15.5 27.5 16.6 31.6 7 9 Alarm State:  0
Sat Jul 22 22:22:12 PDT 2017 ON: 20.00 +20.0 20.07 -15.3 27.7 16.5 31.7 7 9 Alarm State:  0
Sat Jul 22 22:21:10 PDT 2017 ON: 20.00 +20.0 20.05 -15.3 27.8 16.4 31.7 7 9 Alarm State:  0
Sat Jul 22 22:20:09 PDT 2017 ON: 20.00 +20.0 20.06 -15.4 27.6 16.5 31.6 7 9 Alarm State:  0
Sat Jul 22 22:19:07 PDT 2017 ON: 19.99 +20.0 20.06 -15.5 27.5 16.6 31.7 7 9 Alarm State:  0
Sat Jul 22 22:18:06 PDT 2017 ON: 19.99 +20.0 20.05 -15.5 27.5 16.6 31.6 7 9 Alarm State:  0
Sat Jul 22 22:17:05 PDT 2017 ON: 19.99 +20.0 20.06 -15.5 27.5 16.6 31.9 7 9 Alarm State:  0
Sat Jul 22 22:16:03 PDT 2017 ON: 19.99 +20.0 20.05 -15.3 27.8 16.4 31.8 7 9 Alarm State:  0
Sat Jul 22 22:15:02 PDT 2017 ON: 20.00 +20.0 20.04 -15.4 27.6 16.5 32.0 7 9 Alarm State:  0
Sat Jul 22 22:14:00 PDT 2017 ON: 20.00 +20.0 20.05 -15.2 27.9 16.3 32.1 7 9 Alarm State:  0
Sat Jul 22 22:12:59 PDT 2017 ON: 20.00 +20.0 20.07 -15.7 27.2 16.8 31.9 7 9 Alarm State:  0
Sat Jul 22 22:11:57 PDT 2017 ON: 19.99 +20.0 20.05 -15.1 28.1 16.2 32.2 7 10 Alarm State:  0
Sat Jul 22 22:10:56 PDT 2017 ON: 20.00 +20.0 20.04 -15.0 28.2 16.1 32.2 7 10 Alarm State:  0
Sat Jul 22 22:09:54 PDT 2017 ON: 20.00 +20.0 20.06 -15.5 27.5 16.6 32.1 7 9 Alarm State:  0
Sat Jul 22 22:08:53 PDT 2017 ON: 20.00 +20.0 20.05 -15.1 28.1 16.2 32.3 7 9 Alarm State:  0
Sat Jul 22 22:07:51 PDT 2017 ON: 20.00 +20.0 20.06 -15.3 27.7 16.5 32.0 7 9 Alarm State:  0
Sat Jul 22 22:06:50 PDT 2017 ON: 19.99 +20.0 20.04 -14.9 28.3 16.1 32.3 7 10 Alarm State:  0
Sat Jul 22 22:05:48 PDT 2017 ON: 20.00 +20.0 20.04 -15.1 28.0 16.3 32.1 7 10 Alarm State:  0
Sat Jul 22 22:04:47 PDT 2017 ON: 20.00 +20.0 20.05 -15.3 27.7 16.5 32.0 7 10 Alarm State:  0
Sat Jul 22 22:03:45 PDT 2017 ON: 19.99 +20.0 20.06 -15.3 27.8 16.4 32.0 7 10 Alarm State:  0
Sat Jul 22 22:02:44 PDT 2017 ON: 19.99 +20.0 20.03 -15.1 28.0 16.3 32.1 7 11 Alarm State:  0
Sat Jul 22 22:01:42 PDT 2017 ON: 20.00 +20.0 20.06 -15.4 27.6 16.5 31.9 7 9 Alarm State:  0
Sat Jul 22 22:00:41 PDT 2017 ON: 20.00 +20.0 20.08 -15.5 27.4 16.7 31.8 7 8 Alarm State:  0
Sat Jul 22 21:59:39 PDT 2017 ON: 19.99 +20.0 20.06 -15.1 28.1 16.2 32.1 7 10 Alarm State:  0
Sat Jul 22 21:58:38 PDT 2017 ON: 19.99 +20.0 20.04 -15.0 28.2 16.1 32.1 7 10 Alarm State:  0
Sat Jul 22 21:57:36 PDT 2017 ON: 20.00 +20.0 20.06 -15.3 27.7 16.5 32.0 7 9 Alarm State:  0
Sat Jul 22 21:56:35 PDT 2017 ON: 19.99 +20.0 20.04 -15.2 27.9 16.3 31.9 7 10 Alarm State:  0
Sat Jul 22 21:55:33 PDT 2017 ON: 20.00 +20.0 20.05 -15.1 28.0 16.3 32.1 7 9 Alarm State:  0
Sat Jul 22 21:54:32 PDT 2017 ON: 20.00 +20.0 20.05 -15.1 28.1 16.2 32.1 7 10 Alarm State:  0
Sat Jul 22 21:53:30 PDT 2017 ON: 19.99 +20.0 20.06 -15.3 27.7 16.5 31.9 7 9 Alarm State:  0
Sat Jul 22 21:52:29 PDT 2017 ON: 19.99 +20.0 20.06 -15.5 27.5 16.6 31.9 8 9 Alarm State:  0
Sat Jul 22 21:51:27 PDT 2017 ON: 20.00 +20.0 20.04 -15.1 28.0 16.3 32.0 7 10 Alarm State:  0
Sat Jul 22 21:50:26 PDT 2017 ON: 20.00 +20.0 20.06 -15.3 27.7 16.5 31.9 7 9 Alarm State:  0
Sat Jul 22 21:49:24 PDT 2017 ON: 19.99 +20.0 20.07 -14.9 28.3 16.1 32.2 7 9 Alarm State:  0
Sat Jul 22 21:48:23 PDT 2017 ON: 19.99 +20.0 20.05 -15.1 28.0 16.3 32.1 7 10 Alarm State:  0
Sat Jul 22 21:47:21 PDT 2017 ON: 20.00 +20.0 20.05 -15.2 27.9 16.3 32.1 7 9 Alarm State:  0
Sat Jul 22 21:46:20 PDT 2017 ON: 19.99 +20.0 20.07 -15.5 27.4 16.7 31.8 7 9 Alarm State:  0
Sat Jul 22 21:45:18 PDT 2017 ON: 19.99 +20.0 20.04 -14.9 28.3 16.1 32.2 7 10 Alarm State:  0
Sat Jul 22 21:44:17 PDT 2017 ON: 20.00 +20.0 20.07 -15.3 27.7 16.5 32.0 8 9 Alarm State:  0
Sat Jul 22 21:43:15 PDT 2017 ON: 19.99 +20.0 20.05 -15.0 28.2 16.1 32.2 7 10 Alarm State:  0
Sat Jul 22 21:42:14 PDT 2017 ON: 20.00 +20.0 20.04 -15.3 27.8 16.4 31.9 7 10 Alarm State:  0
Sat Jul 22 21:41:12 PDT 2017 ON: 19.99 +20.0 20.05 -15.3 27.7 16.5 31.9 7 9 Alarm State:  0
Sat Jul 22 21:40:11 PDT 2017 ON: 20.00 +20.0 20.07 -15.5 27.5 16.6 31.9 7 9 Alarm State:  0
Sat Jul 22 21:39:09 PDT 2017 ON: 19.99 +20.0 20.04 -15.2 27.9 16.3 32.0 7 10 Alarm State:  0
Sat Jul 22 21:38:08 PDT 2017 ON: 19.99 +20.0 20.05 -15.3 27.7 16.5 32.0 7 9 Alarm State:  0
Sat Jul 22 21:37:06 PDT 2017 ON: 20.00 +20.0 20.05 -15.3 27.7 16.5 32.0 7 9 Alarm State:  0
Sat Jul 22 21:36:05 PDT 2017 ON: 20.00 +20.0 20.06 -15.1 28.0 16.3 32.0 7 10 Alarm State:  0
Sat Jul 22 21:35:03 PDT 2017 ON: 19.99 +20.0 20.06 -15.0 28.2 16.1 32.1 7 10 Alarm State:  0
Sat Jul 22 21:34:02 PDT 2017 ON: 19.99 +20.0 20.05 -15.1 28.1 16.2 32.1 7 10 Alarm State:  0
Sat Jul 22 21:33:00 PDT 2017 ON: 20.00 +20.0 20.05 -15.4 27.6 16.5 32.0 7 9 Alarm State:  0
Sat Jul 22 21:31:59 PDT 2017 ON: 20.00 +20.0 20.07 -15.4 27.6 16.5 32.0 7 9 Alarm State:  0
Sat Jul 22 21:30:57 PDT 2017 ON: 19.99 +20.0 20.04 -14.8 28.5 16.0 32.2 7 11 Alarm State:  0
Sat Jul 22 21:29:56 PDT 2017 ON: 19.99 +20.0 20.05 -15.3 27.8 16.4 32.0 7 10 Alarm State:  0
Sat Jul 22 21:28:54 PDT 2017 ON: 19.99 +20.0 20.07 -15.5 27.4 16.7 31.8 7 9 Alarm State:  0
Sat Jul 22 21:27:53 PDT 2017 ON: 19.99 +20.0 20.05 -15.5 27.4 16.7 31.8 8 10 Alarm State:  0
Sat Jul 22 21:26:51 PDT 2017 ON: 20.00 +20.0 20.05 -15.3 27.7 16.5 31.9 7 9 Alarm State:  0
Sat Jul 22 21:25:50 PDT 2017 ON: 20.00 +20.0 20.05 -15.3 27.8 16.4 32.0 7 10 Alarm State:  0
Sat Jul 22 21:24:48 PDT 2017 ON: 19.99 +20.0 20.07 -15.4 27.6 16.5 31.9 7 9 Alarm State:  0
Sat Jul 22 21:23:47 PDT 2017 ON: 19.99 +20.0 20.05 -15.3 27.8 16.4 32.0 7 9 Alarm State:  0
Sat Jul 22 21:22:45 PDT 2017 ON: 20.00 +20.0 20.06 -15.3 27.7 16.5 32.0 7 9 Alarm State:  0
Sat Jul 22 21:21:44 PDT 2017 ON: 20.01 +20.0 20.06 -15.3 27.7 16.5 32.0 7 9 Alarm State:  0
Sat Jul 22 21:20:42 PDT 2017 ON: 19.99 +20.0 20.06 -15.3 27.8 16.4 32.1 7 10 Alarm State:  0
Sat Jul 22 21:19:41 PDT 2017 ON: 19.99 +20.0 20.05 -15.1 28.1 16.2 32.1 7 10 Alarm State:  0
Sat Jul 22 21:18:39 PDT 2017 ON: 19.99 +20.0 20.07 -15.5 27.5 16.6 31.9 7 9 Alarm State:  0
Sat Jul 22 21:17:38 PDT 2017 ON: 19.99 +20.0 20.05 -15.3 27.8 16.4 32.0 7 10 Alarm State:  0
Sat Jul 22 21:16:36 PDT 2017 ON: 20.00 +20.0 20.06 -15.4 27.6 16.5 32.0 7 9 Alarm State:  0
Sat Jul 22 21:15:35 PDT 2017 ON: 19.99 +20.0 20.04 -15.0 28.2 16.1 32.1 7 11 Alarm State:  0
Sat Jul 22 21:14:33 PDT 2017 ON: 19.99 +20.0 20.04 -15.1 28.0 16.3 32.1 7 10 Alarm State:  0
Sat Jul 22 21:13:32 PDT 2017 ON: 19.99 +20.0 20.05 -15.4 27.6 16.5 31.9 7 10 Alarm State:  0
Sat Jul 22 21:12:30 PDT 2017 ON: 19.99 +20.0 20.05 -15.4 27.6 16.5 31.9 7 9 Alarm State:  0
Sat Jul 22 21:11:29 PDT 2017 ON: 20.00 +20.0 20.04 -15.1 28.0 16.3 32.0 7 10 Alarm State:  0
Sat Jul 22 21:10:27 PDT 2017 ON: 20.00 +20.0 20.07 -15.4 27.6 16.5 31.9 7 9 Alarm State:  0
Sat Jul 22 21:09:26 PDT 2017 ON: 20.00 +20.0 20.06 -15.1 28.0 16.3 32.1 7 10 Alarm State:  0
Sat Jul 22 21:08:24 PDT 2017 ON: 19.99 +20.0 20.05 -15.1 28.1 16.2 32.1 7 10 Alarm State:  0
Sat Jul 22 21:07:23 PDT 2017 ON: 20.00 +20.0 20.04 -15.3 27.8 16.4 32.0 7 9 Alarm State:  0
Sat Jul 22 21:06:21 PDT 2017 ON: 20.00 +20.0 20.05 -15.3 27.7 16.5 32.0 7 10 Alarm State:  0
Sat Jul 22 21:05:20 PDT 2017 ON: 19.99 +20.0 20.06 -15.2 27.9 16.3 32.0 7 10 Alarm State:  0
Sat Jul 22 21:04:18 PDT 2017 ON: 19.99 +20.0 20.05 -15.3 27.8 16.4 32.0 7 10 Alarm State:  0
Sat Jul 22 21:03:17 PDT 2017 ON: 20.00 +20.0 20.05 -15.4 27.6 16.5 31.9 7 10 Alarm State:  0
Sat Jul 22 21:02:15 PDT 2017 ON: 20.00 +20.0 20.06 -15.3 27.8 16.4 32.0 7 10 Alarm State:  0
Sat Jul 22 21:01:14 PDT 2017 ON: 19.99 +20.0 20.06 -15.3 27.8 16.4 32.1 7 9 Alarm State:  0
Sat Jul 22 21:00:12 PDT 2017 ON: 19.99 +20.0 20.03 -15.2 27.9 16.3 32.0 7 10 Alarm State:  0
Sat Jul 22 20:59:11 PDT 2017 ON: 20.00 +20.0 20.07 -15.6 27.3 16.8 31.6 7 9 Alarm State:  0
Sat Jul 22 20:58:09 PDT 2017 ON: 19.99 +20.0 20.05 -14.9 28.3 16.1 32.1 7 10 Alarm State:  0
Sat Jul 22 20:57:08 PDT 2017 ON: 20.00 +20.0 20.04 -15.1 28.1 16.2 32.1 7 10 Alarm State:  0
Sat Jul 22 20:56:06 PDT 2017 ON: 20.00 +20.0 20.07 -15.3 27.7 16.5 31.9 7 9 Alarm State:  0
Sat Jul 22 20:55:05 PDT 2017 ON: 19.99 +20.0 20.05 -15.2 27.9 16.3 32.0 7 10 Alarm State:  0
Sat Jul 22 20:54:03 PDT 2017 ON: 19.99 +20.0 20.04 -15.1 28.0 16.3 32.0 7 10 Alarm State:  0
Sat Jul 22 20:53:02 PDT 2017 ON: 20.00 +20.0 20.05 -15.3 27.8 16.4 32.0 7 10 Alarm State:  0
Sat Jul 22 20:52:00 PDT 2017 ON: 19.99 +20.0 20.05 -15.3 27.8 16.4 32.1 7 10 Alarm State:  0
Sat Jul 22 20:50:59 PDT 2017 ON: 19.99 +20.0 20.04 -15.4 27.6 16.5 32.0 7 10 Alarm State:  0
Sat Jul 22 20:49:57 PDT 2017 ON: 19.99 +20.0 20.06 -15.5 27.4 16.7 31.8 7 9 Alarm State:  0
Sat Jul 22 20:48:56 PDT 2017 ON: 20.00 +20.0 20.05 -15.3 27.8 16.4 32.0 7 10 Alarm State:  0
Sat Jul 22 20:47:54 PDT 2017 ON: 20.00 +20.0 20.06 -15.5 27.5 16.6 32.0 7 9 Alarm State:  0
Sat Jul 22 20:46:53 PDT 2017 ON: 19.99 +20.0 20.05 -15.3 27.7 16.5 31.9 7 10 Alarm State:  0
Sat Jul 22 20:45:51 PDT 2017 ON: 20.00 +20.0 20.05 -15.3 27.7 16.5 32.0 7 9 Alarm State:  0
Sat Jul 22 20:44:50 PDT 2017 ON: 20.00 +20.0 20.07 -15.4 27.6 16.5 32.0 7 9 Alarm State:  0
Sat Jul 22 20:43:48 PDT 2017 ON: 19.99 +20.0 20.04 -15.0 28.2 16.1 32.1 7 10 Alarm State:  0
Sat Jul 22 20:42:47 PDT 2017 ON: 19.99 +20.0 20.05 -15.5 27.5 16.6 31.9 7 9 Alarm State:  0
Sat Jul 22 20:41:45 PDT 2017 ON: 20.00 +20.0 20.06 -15.4 27.6 16.5 32.0 7 9 Alarm State:  0
Sat Jul 22 20:40:44 PDT 2017 ON: 20.00 +20.0 20.06 -15.3 27.8 16.4 32.0 7 10 Alarm State:  0
Sat Jul 22 20:39:42 PDT 2017 ON: 19.99 +20.0 20.05 -15.1 28.0 16.3 32.1 7 10 Alarm State:  0
Sat Jul 22 20:38:41 PDT 2017 ON: 19.99 +20.0 20.05 -15.3 27.8 16.4 31.9 7 9 Alarm State:  0
Sat Jul 22 20:37:39 PDT 2017 ON: 20.00 +20.0 20.05 -15.5 27.4 16.7 31.8 7 10 Alarm State:  0
Sat Jul 22 20:36:38 PDT 2017 ON: 19.99 +20.0 20.04 -14.9 28.4 16.0 32.2 7 11 Alarm State:  0
Sat Jul 22 20:35:36 PDT 2017 ON: 19.99 +20.0 20.06 -15.3 27.7 16.5 32.0 7 9 Alarm State:  0
Sat Jul 22 20:34:35 PDT 2017 ON: 19.99 +20.0 20.04 -15.3 27.7 16.5 32.0 7 10 Alarm State:  0
Sat Jul 22 20:33:33 PDT 2017 ON: 20.00 +20.0 20.05 -15.4 27.6 16.5 32.0 7 9 Alarm State:  0
Sat Jul 22 20:32:32 PDT 2017 ON: 20.00 +20.0 20.06 -15.3 27.7 16.5 32.0 7 10 Alarm State:  0
Sat Jul 22 20:31:30 PDT 2017 ON: 19.99 +20.0 20.05 -14.9 28.3 16.1 32.2 7 10 Alarm State:  0
Sat Jul 22 20:30:29 PDT 2017 ON: 19.99 +20.0 20.04 -15.1 28.1 16.2 32.1 7 10 Alarm State:  0
Sat Jul 22 20:29:27 PDT 2017 ON: 20.00 +20.0 20.05 -14.9 28.3 16.1 32.1 7 9 Alarm State:  0
Sat Jul 22 20:28:26 PDT 2017 ON: 20.00 +20.0 20.06 -15.3 27.8 16.4 32.0 7 9 Alarm State:  0
Sat Jul 22 20:27:24 PDT 2017 ON: 19.99 +20.0 20.06 -15.5 27.5 16.6 31.9 7 9 Alarm State:  0
Sat Jul 22 20:26:23 PDT 2017 ON: 19.99 +20.0 20.05 -15.4 27.6 16.5 31.9 7 9 Alarm State:  0
Sat Jul 22 20:25:21 PDT 2017 ON: 20.00 +20.0 20.04 -15.3 27.7 16.5 31.7 7 10 Alarm State:  0
Sat Jul 22 20:24:20 PDT 2017 ON: 19.99 +20.0 20.07 -15.1 28.0 16.3 32.1 7 9 Alarm State:  0
Sat Jul 22 20:23:18 PDT 2017 ON: 20.00 +20.0 20.06 -15.4 27.6 16.5 31.9 7 9 Alarm State:  0
Sat Jul 22 20:22:17 PDT 2017 ON: 19.99 +20.0 20.03 -15.1 28.1 16.2 32.1 7 10 Alarm State:  0
Sat Jul 22 20:21:15 PDT 2017 ON: 20.00 +20.0 20.05 -15.4 27.6 16.5 31.9 7 10 Alarm State:  0
Sat Jul 22 20:20:14 PDT 2017 ON: 20.00 +20.0 20.06 -15.3 27.7 16.5 32.0 7 9 Alarm State:  0
Sat Jul 22 20:19:12 PDT 2017 ON: 20.00 +20.0 20.06 -15.5 27.5 16.6 31.9 8 9 Alarm State:  0
Sat Jul 22 20:18:11 PDT 2017 ON: 20.00 +20.0 20.05 -15.4 27.6 16.5 32.0 7 9 Alarm State:  0
Sat Jul 22 20:17:09 PDT 2017 ON: 20.00 +20.0 20.06 -15.3 27.7 16.5 32.0 7 9 Alarm State:  0
Sat Jul 22 20:16:08 PDT 2017 ON: 19.99 +20.0 20.06 -15.4 27.6 16.5 31.9 7 10 Alarm State:  0
Sat Jul 22 20:15:06 PDT 2017 ON: 19.99 +20.0 20.03 -15.0 28.2 16.1 32.1 7 10 Alarm State:  0
Sat Jul 22 20:14:05 PDT 2017 ON: 20.00 +20.0 20.05 -15.5 27.4 16.7 31.6 7 9 Alarm State:  0
Sat Jul 22 20:13:03 PDT 2017 ON: 20.00 +20.0 20.06 -14.9 28.3 16.1 32.1 7 10 Alarm State:  0
Sat Jul 22 20:12:02 PDT 2017 ON: 19.99 +20.0 20.05 -15.1 28.0 16.3 32.0 7 10 Alarm State:  0
Sat Jul 22 20:11:00 PDT 2017 ON: 19.99 +20.0 20.05 -15.1 28.1 16.2 32.1 7 9 Alarm State:  0
Sat Jul 22 20:09:59 PDT 2017 ON: 20.00 +20.0 20.05 -15.3 27.8 16.4 32.1 7 9 Alarm State:  0
Sat Jul 22 20:08:57 PDT 2017 ON: 20.00 +20.0 20.07 -15.4 27.6 16.5 31.9 7 9 Alarm State:  0
Sat Jul 22 20:07:56 PDT 2017 ON: 19.99 +20.0 20.05 -14.9 28.3 16.1 32.1 7 10 Alarm State:  0
Sat Jul 22 20:06:54 PDT 2017 ON: 19.99 +20.0 20.05 -15.5 27.4 16.7 31.9 7 9 Alarm State:  0
Sat Jul 22 20:05:53 PDT 2017 ON: 20.00 +20.0 20.06 -15.4 27.6 16.5 32.0 7 9 Alarm State:  0
Sat Jul 22 20:04:51 PDT 2017 ON: 20.00 +20.0 20.06 -15.3 27.8 16.4 31.9 7 10 Alarm State:  0
Sat Jul 22 20:03:50 PDT 2017 ON: 19.98 +20.0 20.04 -15.1 28.0 16.3 32.0 7 10 Alarm State:  0
Sat Jul 22 20:02:49 PDT 2017 ON: 20.00 +20.0 20.06 -15.5 27.5 16.6 31.9 7 9 Alarm State:  0
Sat Jul 22 20:01:47 PDT 2017 ON: 20.00 +20.0 20.07 -15.4 27.6 16.5 31.9 7 9 Alarm State:  0
Sat Jul 22 20:00:46 PDT 2017 ON: 20.00 +20.0 20.05 -15.1 28.0 16.3 32.0 7 10 Alarm State:  0
Sat Jul 22 19:59:44 PDT 2017 ON: 19.98 +20.0 20.04 -15.0 28.2 16.1 32.1 7 10 Alarm State:  0
Sat Jul 22 19:58:43 PDT 2017 ON: 20.00 +20.0 20.04 -15.1 28.1 16.2 32.1 7 10 Alarm State:  0
Sat Jul 22 19:57:41 PDT 2017 ON: 20.00 +20.0 20.06 -15.5 27.4 16.7 31.6 7 9 Alarm State:  0
Sat Jul 22 19:56:40 PDT 2017 ON: 19.99 +20.0 20.04 -15.0 28.2 16.1 32.1 7 10 Alarm State:  0
Sat Jul 22 19:55:38 PDT 2017 ON: 19.99 +20.0 20.05 -15.1 28.1 16.2 32.1 7 10 Alarm State:  0
Sat Jul 22 19:54:37 PDT 2017 ON: 19.99 +20.0 20.05 -15.5 27.5 16.6 31.8 8 10 Alarm State:  0
Sat Jul 22 19:53:35 PDT 2017 ON: 19.99 +20.0 20.06 -15.4 27.6 16.5 31.7 7 9 Alarm State:  0
Sat Jul 22 19:52:34 PDT 2017 ON: 20.00 +20.0 20.04 -15.3 27.8 16.4 32.0 7 10 Alarm State:  0
Sat Jul 22 19:51:32 PDT 2017 ON: 20.00 +20.0 20.06 -15.1 28.0 16.3 32.1 7 9 Alarm State:  0
Sat Jul 22 19:50:31 PDT 2017 ON: 20.00 +20.0 20.07 -15.1 28.0 16.3 32.1 7 9 Alarm State:  0
Sat Jul 22 19:49:29 PDT 2017 ON: 19.99 +20.0 20.05 -15.1 28.0 16.3 32.1 7 10 Alarm State:  0
Sat Jul 22 19:48:28 PDT 2017 ON: 20.00 +20.0 20.05 -15.5 27.5 16.6 31.9 7 9 Alarm State:  0
Sat Jul 22 19:47:26 PDT 2017 ON: 20.00 +20.0 20.06 -15.4 27.6 16.5 31.7 7 10 Alarm State:  0
Sat Jul 22 19:46:25 PDT 2017 ON: 19.99 +20.0 20.05 -15.0 28.2 16.1 32.1 7 10 Alarm State:  0
Sat Jul 22 19:45:23 PDT 2017 ON: 19.99 +20.0 20.05 -15.3 27.7 16.5 32.0 7 9 Alarm State:  0
Sat Jul 22 19:44:22 PDT 2017 ON: 20.00 +20.0 20.07 -15.3 27.7 16.5 32.0 7 8 Alarm State:  0
Sat Jul 22 19:43:20 PDT 2017 ON: 20.00 +20.0 20.05 -15.1 28.1 16.2 32.1 7 10 Alarm State:  0
Sat Jul 22 19:42:19 PDT 2017 ON: 19.99 +20.0 20.04 -15.1 28.0 16.3 32.1 7 10 Alarm State:  0
Sat Jul 22 19:41:17 PDT 2017 ON: 19.99 +20.0 20.02 -15.1 28.0 16.3 32.0 7 11 Alarm State:  0
Sat Jul 22 19:40:16 PDT 2017 ON: 20.00 +20.0 20.06 -15.4 27.6 16.5 31.9 7 9 Alarm State:  0
Sat Jul 22 19:39:14 PDT 2017 ON: 20.00 +20.0 20.07 -15.5 27.5 16.6 31.8 7 9 Alarm State:  0
Sat Jul 22 19:38:13 PDT 2017 ON: 19.99 +20.0 20.06 -15.1 28.0 16.3 32.1 7 10 Alarm State:  0
Sat Jul 22 19:37:11 PDT 2017 ON: 19.99 +20.0 20.05 -15.1 28.0 16.3 32.1 7 9 Alarm State:  0
Sat Jul 22 19:36:10 PDT 2017 ON: 20.00 +20.0 20.06 -15.4 27.6 16.5 31.9 7 9 Alarm State:  0
Sat Jul 22 19:35:08 PDT 2017 ON: 19.99 +20.0 20.05 -15.2 27.9 16.3 32.1 7 10 Alarm State:  0
Sat Jul 22 19:34:07 PDT 2017 ON: 19.99 +20.0 20.06 -15.2 27.9 16.3 32.0 7 9 Alarm State:  0
Sat Jul 22 19:33:05 PDT 2017 ON: 20.00 +20.0 20.05 -15.3 27.8 16.4 32.0 7 10 Alarm State:  0
Sat Jul 22 19:32:04 PDT 2017 ON: 19.99 +20.0 20.06 -15.3 27.7 16.5 32.0 7 9 Alarm State:  0
Sat Jul 22 19:31:02 PDT 2017 ON: 19.99 +20.0 20.06 -15.5 27.5 16.6 32.0 7 10 Alarm State:  0
Sat Jul 22 19:30:01 PDT 2017 ON: 19.99 +20.0 20.05 -15.3 27.8 16.4 32.1 7 9 Alarm State:  0
Sat Jul 22 19:28:59 PDT 2017 ON: 20.00 +20.0 20.05 -15.2 27.9 16.3 32.0 7 9 Alarm State:  0
Sat Jul 22 19:27:58 PDT 2017 ON: 20.00 +20.0 20.06 -15.3 27.8 16.4 32.0 7 10 Alarm State:  0
Sat Jul 22 19:26:56 PDT 2017 ON: 19.98 +20.0 20.05 -15.0 28.2 16.1 32.2 7 10 Alarm State:  0
Sat Jul 22 19:25:55 PDT 2017 ON: 19.99 +20.0 20.05 -15.1 28.0 16.3 32.1 7 9 Alarm State:  0
Sat Jul 22 19:24:53 PDT 2017 ON: 20.00 +20.0 20.06 -15.2 27.9 16.3 32.0 7 9 Alarm State:  0
Sat Jul 22 19:23:52 PDT 2017 ON: 20.00 +20.0 20.07 -15.4 27.6 16.5 31.9 8 9 Alarm State:  0
Sat Jul 22 19:22:50 PDT 2017 ON: 19.99 +20.0 20.06 -15.2 27.9 16.3 32.1 7 9 Alarm State:  0
Sat Jul 22 19:21:49 PDT 2017 ON: 19.99 +20.0 20.04 -15.4 27.6 16.5 32.0 7 10 Alarm State:  0
Sat Jul 22 19:20:47 PDT 2017 ON: 20.00 +20.0 20.06 -15.3 27.7 16.5 31.9 7 9 Alarm State:  0
Sat Jul 22 19:19:46 PDT 2017 ON: 19.98 +20.0 20.06 -15.2 27.9 16.3 32.1 7 10 Alarm State:  0
Sat Jul 22 19:18:44 PDT 2017 ON: 19.99 +20.0 20.04 -15.1 28.1 16.2 32.1 7 10 Alarm State:  0
Sat Jul 22 19:17:43 PDT 2017 ON: 20.00 +20.0 20.05 -15.3 27.7 16.5 32.0 7 9 Alarm State:  0
Sat Jul 22 19:16:41 PDT 2017 ON: 20.00 +20.0 20.06 -15.3 27.8 16.4 32.0 7 9 Alarm State:  0
Sat Jul 22 19:15:40 PDT 2017 ON: 19.99 +20.0 20.06 -15.2 27.9 16.3 32.1 7 10 Alarm State:  0
Sat Jul 22 19:14:38 PDT 2017 ON: 20.00 +20.0 20.06 -15.2 27.9 16.3 32.0 7 9 Alarm State:  0
Sat Jul 22 19:13:37 PDT 2017 ON: 20.00 +20.0 20.07 -15.3 27.7 16.5 32.0 7 9 Alarm State:  0
Sat Jul 22 19:12:35 PDT 2017 ON: 19.99 +20.0 20.05 -15.0 28.2 16.1 32.1 7 10 Alarm State:  0
Sat Jul 22 19:11:34 PDT 2017 ON: 19.99 +20.0 20.05 -15.2 27.9 16.3 32.0 7 10 Alarm State:  0
Sat Jul 22 19:10:32 PDT 2017 ON: 20.00 +20.0 20.05 -15.5 27.5 16.6 31.7 7 9 Alarm State:  0
Sat Jul 22 19:09:31 PDT 2017 ON: 20.00 +20.0 20.07 -15.5 27.4 16.7 31.8 7 9 Alarm State:  0
Sat Jul 22 19:08:29 PDT 2017 ON: 20.00 +20.0 20.06 -15.3 27.8 16.4 32.0 7 10 Alarm State:  0
Sat Jul 22 19:07:28 PDT 2017 ON: 19.99 +20.0 20.05 -14.9 28.3 16.1 32.1 7 10 Alarm State:  0
Sat Jul 22 19:06:26 PDT 2017 ON: 19.99 +20.0 20.05 -15.2 27.9 16.3 32.1 7 10 Alarm State:  0
Sat Jul 22 19:05:25 PDT 2017 ON: 20.00 +20.0 20.06 -15.4 27.6 16.5 31.9 7 9 Alarm State:  0
Sat Jul 22 19:04:23 PDT 2017 ON: 20.01 +20.0 20.07 -15.4 27.6 16.5 31.8 7 9 Alarm State:  0
Sat Jul 22 19:03:22 PDT 2017 ON: 19.99 +20.0 20.07 -15.5 27.5 16.6 31.9 7 9 Alarm State:  0
Sat Jul 22 19:02:20 PDT 2017 ON: 19.99 +20.0 20.05 -15.3 27.7 16.5 32.0 7 9 Alarm State:  0
Sat Jul 22 19:01:19 PDT 2017 ON: 20.00 +20.0 20.05 -15.2 27.9 16.3 32.0 7 10 Alarm State:  0
Sat Jul 22 19:00:17 PDT 2017 ON: 19.99 +20.0 20.07 -15.5 27.5 16.6 31.8 7 9 Alarm State:  0
Sat Jul 22 18:59:16 PDT 2017 ON: 20.00 +20.0 20.06 -15.1 28.0 16.3 32.1 7 9 Alarm State:  0
Sat Jul 22 18:58:14 PDT 2017 ON: 20.00 +20.0 20.05 -15.1 28.0 16.3 32.1 7 10 Alarm State:  0
Sat Jul 22 18:57:13 PDT 2017 ON: 19.99 +20.0 20.05 -15.1 28.0 16.3 32.1 7 10 Alarm State:  0
Sat Jul 22 18:56:11 PDT 2017 ON: 20.00 +20.0 20.05 -15.4 27.6 16.5 31.7 7 9 Alarm State:  0
Sat Jul 22 18:55:10 PDT 2017 ON: 20.00 +20.0 20.06 -15.4 27.6 16.5 31.9 7 9 Alarm State:  0
Sat Jul 22 18:54:08 PDT 2017 ON: 20.00 +20.0 20.07 -15.5 27.4 16.7 31.8 8 9 Alarm State:  0
Sat Jul 22 18:53:07 PDT 2017 ON: 19.99 +20.0 20.05 -15.0 28.2 16.1 32.1 7 10 Alarm State:  0
Sat Jul 22 18:52:05 PDT 2017 ON: 20.00 +20.0 20.05 -15.1 28.1 16.2 32.0 7 10 Alarm State:  0
Sat Jul 22 18:51:04 PDT 2017 ON: 20.00 +20.0 20.06 -15.3 27.7 16.5 32.0 7 9 Alarm State:  0
Sat Jul 22 18:50:02 PDT 2017 ON: 19.99 +20.0 20.06 -15.5 27.5 16.6 31.8 7 10 Alarm State:  0
Sat Jul 22 18:49:01 PDT 2017 ON: 20.00 +20.0 20.05 -15.2 27.9 16.3 32.1 7 9 Alarm State:  0
Sat Jul 22 18:47:59 PDT 2017 ON: 20.01 +20.0 20.06 -15.5 27.4 16.7 31.7 7 9 Alarm State:  0
Sat Jul 22 18:46:58 PDT 2017 ON: 20.00 +20.0 20.06 -15.1 28.0 16.3 32.0 7 10 Alarm State:  0
Sat Jul 22 18:45:56 PDT 2017 ON: 19.99 +20.0 20.06 -14.9 28.3 16.1 32.2 7 10 Alarm State:  0
Sat Jul 22 18:44:55 PDT 2017 ON: 19.98 +20.0 20.03 -14.9 28.4 16.0 32.2 7 11 Alarm State:  0
Sat Jul 22 18:43:53 PDT 2017 ON: 20.00 +20.0 20.04 -15.3 27.7 16.5 31.9 7 10 Alarm State:  0
Sat Jul 22 18:42:52 PDT 2017 ON: 20.00 +20.0 20.07 -15.5 27.5 16.6 31.8 8 9 Alarm State:  0
Sat Jul 22 18:41:50 PDT 2017 ON: 20.00 +20.0 20.07 -15.5 27.5 16.6 31.8 7 9 Alarm State:  0
Sat Jul 22 18:40:49 PDT 2017 ON: 19.99 +20.0 20.06 -15.4 27.6 16.5 31.9 7 10 Alarm State:  0
Sat Jul 22 18:39:47 PDT 2017 ON: 19.99 +20.0 20.04 -15.1 28.1 16.2 32.0 7 10 Alarm State:  0
Sat Jul 22 18:38:46 PDT 2017 ON: 20.00 +20.0 20.07 -15.5 27.4 16.7 31.7 7 8 Alarm State:  0
Sat Jul 22 18:37:44 PDT 2017 ON: 20.00 +20.0 20.08 -15.5 27.4 16.7 31.6 7 9 Alarm State:  0
Sat Jul 22 18:36:43 PDT 2017 ON: 19.99 +20.0 20.04 -15.3 27.8 16.4 32.0 7 10 Alarm State:  0
Sat Jul 22 18:35:41 PDT 2017 ON: 20.00 +20.0 20.05 -15.4 27.6 16.5 31.9 7 10 Alarm State:  0
Sat Jul 22 18:34:40 PDT 2017 ON: 19.99 +20.0 20.06 -15.3 27.7 16.5 32.0 7 10 Alarm State:  0
Sat Jul 22 18:33:38 PDT 2017 ON: 19.99 +20.0 20.06 -15.4 27.6 16.5 32.0 7 9 Alarm State:  0
Sat Jul 22 18:32:37 PDT 2017 ON: 20.00 +20.0 20.06 -15.5 27.4 16.7 31.7 7 9 Alarm State:  0
Sat Jul 22 18:31:35 PDT 2017 ON: 19.99 +20.0 20.05 -15.3 27.8 16.4 32.0 7 9 Alarm State:  0
Sat Jul 22 18:30:34 PDT 2017 ON: 20.00 +20.0 20.06 -15.5 27.4 16.7 31.9 7 9 Alarm State:  0
Sat Jul 22 18:29:32 PDT 2017 ON: 19.99 +20.0 20.06 -15.3 27.8 16.4 32.1 7 9 Alarm State:  0
Sat Jul 22 18:28:31 PDT 2017 ON: 19.99 +20.0 20.06 -15.1 28.0 16.3 32.1 7 9 Alarm State:  0
Sat Jul 22 18:27:30 PDT 2017 ON: 20.00 +20.0 20.05 -15.3 27.7 16.5 32.1 7 9 Alarm State:  0
Sat Jul 22 18:26:28 PDT 2017 ON: 20.00 +20.0 20.07 -15.3 27.8 16.4 32.1 7 9 Alarm State:  0
Sat Jul 22 18:25:27 PDT 2017 ON: 19.99 +20.0 20.07 -15.4 27.6 16.5 32.0 7 9 Alarm State:  0
Sat Jul 22 18:24:25 PDT 2017 ON: 20.00 +20.0 20.06 -15.2 27.9 16.3 32.0 7 9 Alarm State:  0
Sat Jul 22 18:23:24 PDT 2017 ON: 20.00 +20.0 20.06 -15.5 27.5 16.6 32.0 7 9 Alarm State:  0
Sat Jul 22 18:22:22 PDT 2017 ON: 19.99 +20.0 20.06 -15.5 27.5 16.6 32.0 7 9 Alarm State:  0
Sat Jul 22 18:21:21 PDT 2017 ON: 20.00 +20.0 20.06 -15.1 28.0 16.3 32.1 7 9 Alarm State:  0
Sat Jul 22 18:20:19 PDT 2017 ON: 19.99 +20.0 20.05 -15.3 27.7 16.5 32.0 7 10 Alarm State:  0
Sat Jul 22 18:19:18 PDT 2017 ON: 19.99 +20.0 20.06 -15.4 27.6 16.5 32.0 7 9 Alarm State:  0
Sat Jul 22 18:18:16 PDT 2017 ON: 20.00 +20.0 20.06 -15.3 27.8 16.4 32.0 7 9 Alarm State:  0
Sat Jul 22 18:17:15 PDT 2017 ON: 20.00 +20.0 20.05 -15.1 28.0 16.3 32.1 7 10 Alarm State:  0
Sat Jul 22 18:16:13 PDT 2017 ON: 19.99 +20.0 20.05 -15.3 27.8 16.4 32.0 7 10 Alarm State:  0
Sat Jul 22 18:15:12 PDT 2017 ON: 20.00 +20.0 20.06 -15.4 27.6 16.5 32.0 7 9 Alarm State:  0
Sat Jul 22 18:14:10 PDT 2017 ON: 20.00 +20.0 20.05 -15.1 28.0 16.3 32.1 7 10 Alarm State:  0
Sat Jul 22 18:13:09 PDT 2017 ON: 20.00 +20.0 20.06 -15.5 27.5 16.6 32.0 7 9 Alarm State:  0
Sat Jul 22 18:12:07 PDT 2017 ON: 19.99 +20.0 20.04 -15.5 27.5 16.6 32.0 7 10 Alarm State:  0
Sat Jul 22 18:11:06 PDT 2017 ON: 20.00 +20.0 20.05 -15.4 27.6 16.5 31.9 7 10 Alarm State:  0
Sat Jul 22 18:10:04 PDT 2017 ON: 20.00 +20.0 20.06 -15.3 27.8 16.4 32.0 7 9 Alarm State:  0
Sat Jul 22 18:09:03 PDT 2017 ON: 19.99 +20.0 20.05 -15.5 27.4 16.7 31.8 7 10 Alarm State:  0
Sat Jul 22 18:08:01 PDT 2017 ON: 20.00 +20.0 20.05 -15.3 27.8 16.4 32.1 7 9 Alarm State:  0
Sat Jul 22 18:07:00 PDT 2017 ON: 20.00 +20.0 20.07 -15.5 27.5 16.6 31.7 8 9 Alarm State:  0
Sat Jul 22 18:05:58 PDT 2017 ON: 19.99 +20.0 20.05 -15.1 28.0 16.3 32.1 7 10 Alarm State:  0
Sat Jul 22 18:04:57 PDT 2017 ON: 20.00 +20.0 20.05 -15.1 28.0 16.3 32.0 7 9 Alarm State:  0
Sat Jul 22 18:03:55 PDT 2017 ON: 20.00 +20.0 20.05 -15.1 28.1 16.2 32.1 7 10 Alarm State:  0
Sat Jul 22 18:02:54 PDT 2017 ON: 19.99 +20.0 20.06 -15.3 27.8 16.4 32.1 7 10 Alarm State:  0
Sat Jul 22 18:01:52 PDT 2017 ON: 19.99 +20.0 20.05 -15.4 27.6 16.5 32.0 7 9 Alarm State:  0
Sat Jul 22 18:00:51 PDT 2017 ON: 19.99 +20.0 20.05 -15.7 27.2 16.8 31.7 7 9 Alarm State:  0
Sat Jul 22 17:59:49 PDT 2017 ON: 20.00 +20.0 20.07 -15.4 27.6 16.5 31.9 7 9 Alarm State:  0
Sat Jul 22 17:58:48 PDT 2017 ON: 20.00 +20.0 20.06 -15.3 27.8 16.4 32.0 7 9 Alarm State:  0
Sat Jul 22 17:57:46 PDT 2017 ON: 19.99 +20.0 20.05 -15.3 27.7 16.5 32.1 7 10 Alarm State:  0
Sat Jul 22 17:56:45 PDT 2017 ON: 20.00 +20.0 20.05 -15.5 27.5 16.6 32.0 7 10 Alarm State:  0
Sat Jul 22 17:55:43 PDT 2017 ON: 19.99 +20.0 20.06 -15.3 27.8 16.4 32.0 7 9 Alarm State:  0
Sat Jul 22 17:54:42 PDT 2017 ON: 20.00 +20.0 20.06 -15.3 27.7 16.5 32.0 7 9 Alarm State:  0
Sat Jul 22 17:53:40 PDT 2017 ON: 19.99 +20.0 20.06 -15.2 27.9 16.3 32.1 7 10 Alarm State:  0
Sat Jul 22 17:52:39 PDT 2017 ON: 19.99 +20.0 20.03 -15.1 28.0 16.3 32.1 7 10 Alarm State:  0
Sat Jul 22 17:51:37 PDT 2017 ON: 20.00 +20.0 20.06 -15.5 27.4 16.7 31.7 7 9 Alarm State:  0
Sat Jul 22 17:50:36 PDT 2017 ON: 20.00 +20.0 20.05 -15.2 27.9 16.3 32.0 7 10 Alarm State:  0
Sat Jul 22 17:49:34 PDT 2017 ON: 19.99 +20.0 20.06 -15.3 27.7 16.5 32.0 7 9 Alarm State:  0
Sat Jul 22 17:48:33 PDT 2017 ON: 20.00 +20.0 20.03 -15.1 28.0 16.3 32.0 7 10 Alarm State:  0
Sat Jul 22 17:47:31 PDT 2017 ON: 20.00 +20.0 20.06 -15.4 27.6 16.5 31.8 7 9 Alarm State:  0
Sat Jul 22 17:46:30 PDT 2017 ON: 19.99 +20.0 20.05 -15.3 27.8 16.4 32.0 7 10 Alarm State:  0
Sat Jul 22 17:45:28 PDT 2017 ON: 19.99 +20.0 20.07 -15.7 27.1 16.9 31.6 8 9 Alarm State:  0
Sat Jul 22 17:44:27 PDT 2017 ON: 20.00 +20.0 20.04 -15.1 28.0 16.3 32.1 7 10 Alarm State:  0
Sat Jul 22 17:43:25 PDT 2017 ON: 20.00 +20.0 20.05 -15.3 27.8 16.4 32.0 7 10 Alarm State:  0
Sat Jul 22 17:42:24 PDT 2017 ON: 20.00 +20.0 20.07 -15.0 28.2 16.1 32.1 7 10 Alarm State:  0
Sat Jul 22 17:41:22 PDT 2017 ON: 19.99 +20.0 20.05 -15.0 28.2 16.1 32.2 7 10 Alarm State:  0
Sat Jul 22 17:40:21 PDT 2017 ON: 19.99 +20.0 20.05 -15.5 27.5 16.6 31.8 7 9 Alarm State:  0
Sat Jul 22 17:39:19 PDT 2017 ON: 20.00 +20.0 20.06 -15.5 27.5 16.6 31.7 7 9 Alarm State:  0
Sat Jul 22 17:38:18 PDT 2017 ON: 20.00 +20.0 20.06 -15.1 28.0 16.3 32.0 7 10 Alarm State:  0
Sat Jul 22 17:37:16 PDT 2017 ON: 19.99 +20.0 20.05 -15.0 28.2 16.1 32.2 7 10 Alarm State:  0
Sat Jul 22 17:36:15 PDT 2017 ON: 19.99 +20.0 20.06 -15.3 27.8 16.4 32.0 7 9 Alarm State:  0
Sat Jul 22 17:35:13 PDT 2017 ON: 20.00 +20.0 20.05 -15.2 27.9 16.3 32.0 7 10 Alarm State:  0
Sat Jul 22 17:34:12 PDT 2017 ON: 19.99 +20.0 20.06 -15.5 27.5 16.6 32.0 7 9 Alarm State:  0
Sat Jul 22 17:33:10 PDT 2017 ON: 19.99 +20.0 20.04 -15.3 27.8 16.4 32.1 7 10 Alarm State:  0
Sat Jul 22 17:32:09 PDT 2017 ON: 20.00 +20.0 20.05 -15.4 27.6 16.5 32.0 7 10 Alarm State:  0
Sat Jul 22 17:31:08 PDT 2017 ON: 19.99 +20.0 20.06 -15.5 27.4 16.7 31.9 8 10 Alarm State:  0
Sat Jul 22 17:30:06 PDT 2017 ON: 19.99 +20.0 20.05 -15.2 27.9 16.3 32.1 7 9 Alarm State:  0
Sat Jul 22 17:29:05 PDT 2017 ON: 20.00 +20.0 20.06 -15.2 27.9 16.3 32.1 7 9 Alarm State:  0
Sat Jul 22 17:28:03 PDT 2017 ON: 19.99 +20.0 20.05 -15.3 27.8 16.4 32.0 7 10 Alarm State:  0
Sat Jul 22 17:27:02 PDT 2017 ON: 20.00 +20.0 20.06 -15.1 28.0 16.3 32.1 7 9 Alarm State:  0
Sat Jul 22 17:26:00 PDT 2017 ON: 20.00 +20.0 20.06 -15.3 27.8 16.4 32.1 7 9 Alarm State:  0
Sat Jul 22 17:24:59 PDT 2017 ON: 20.00 +20.0 20.07 -15.6 27.3 16.8 31.7 7 9 Alarm State:  0
Sat Jul 22 17:23:57 PDT 2017 ON: 20.00 +20.0 20.05 -15.1 28.0 16.3 32.1 7 10 Alarm State:  0
Sat Jul 22 17:22:56 PDT 2017 ON: 20.00 +20.0 20.07 -15.1 28.0 16.3 32.0 7 9 Alarm State:  0
Sat Jul 22 17:21:54 PDT 2017 ON: 20.00 +20.0 20.06 -15.3 27.8 16.4 32.0 7 9 Alarm State:  0
Sat Jul 22 17:20:53 PDT 2017 ON: 19.99 +20.0 20.06 -15.4 27.6 16.5 32.0 7 9 Alarm State:  0
Sat Jul 22 17:19:51 PDT 2017 ON: 19.99 +20.0 20.04 -15.0 28.2 16.1 32.1 7 10 Alarm State:  0
Sat Jul 22 17:18:50 PDT 2017 ON: 20.00 +20.0 20.04 -15.1 28.0 16.3 32.0 7 10 Alarm State:  0
Sat Jul 22 17:17:48 PDT 2017 ON: 19.99 +20.0 20.05 -15.1 28.1 16.2 32.1 7 10 Alarm State:  0
Sat Jul 22 17:16:47 PDT 2017 ON: 19.99 +20.0 20.05 -15.1 28.0 16.3 32.1 7 10 Alarm State:  0
Sat Jul 22 17:15:45 PDT 2017 ON: 20.00 +20.0 20.05 -15.4 27.6 16.5 31.8 7 9 Alarm State:  0
Sat Jul 22 17:14:44 PDT 2017 ON: 20.00 +20.0 20.06 -15.3 27.8 16.4 32.0 7 9 Alarm State:  0
Sat Jul 22 17:13:42 PDT 2017 ON: 20.00 +20.0 20.06 -15.2 27.9 16.3 32.0 7 10 Alarm State:  0
Sat Jul 22 17:12:41 PDT 2017 ON: 19.98 +20.0 20.03 -14.7 28.6 15.9 32.2 7 11 Alarm State:  0
Sat Jul 22 17:11:39 PDT 2017 ON: 20.00 +20.0 20.04 -15.2 27.9 16.3 32.0 7 10 Alarm State:  0
Sat Jul 22 17:10:38 PDT 2017 ON: 20.00 +20.0 20.06 -15.4 27.6 16.5 32.0 7 9 Alarm State:  0
Sat Jul 22 17:09:36 PDT 2017 ON: 20.00 +20.0 20.06 -15.3 27.7 16.5 32.1 8 10 Alarm State:  0
Sat Jul 22 17:08:35 PDT 2017 ON: 19.99 +20.0 20.04 -15.1 28.0 16.3 32.1 7 10 Alarm State:  0
Sat Jul 22 17:07:33 PDT 2017 ON: 20.00 +20.0 20.05 -15.5 27.4 16.7 31.8 7 9 Alarm State:  0
Sat Jul 22 17:06:32 PDT 2017 ON: 20.00 +20.0 20.06 -15.4 27.6 16.5 31.8 7 10 Alarm State:  0
Sat Jul 22 17:05:30 PDT 2017 ON: 19.99 +20.0 20.05 -15.1 28.1 16.2 32.1 7 10 Alarm State:  0
Sat Jul 22 17:04:29 PDT 2017 ON: 19.99 +20.0 20.04 -15.1 28.0 16.3 32.1 7 10 Alarm State:  0
Sat Jul 22 17:03:27 PDT 2017 ON: 20.00 +20.0 20.06 -15.3 27.8 16.4 32.0 7 9 Alarm State:  0
Sat Jul 22 17:02:26 PDT 2017 ON: 19.99 +20.0 20.05 -15.1 28.0 16.3 32.0 7 10 Alarm State:  0
Sat Jul 22 17:01:24 PDT 2017 ON: 20.00 +20.0 20.05 -15.4 27.6 16.5 31.9 8 9 Alarm State:  0
Sat Jul 22 17:00:23 PDT 2017 ON: 20.01 +20.0 20.05 -15.1 28.0 16.3 32.0 7 10 Alarm State:  0
Sat Jul 22 16:59:21 PDT 2017 ON: 20.00 +20.0 20.07 -15.1 28.0 16.3 32.1 7 10 Alarm State:  0
Sat Jul 22 16:58:20 PDT 2017 ON: 19.99 +20.0 20.06 -15.2 27.9 16.3 32.0 7 10 Alarm State:  0
Sat Jul 22 16:57:18 PDT 2017 ON: 20.00 +20.0 20.06 -15.3 27.8 16.4 32.0 7 10 Alarm State:  0
Sat Jul 22 16:56:17 PDT 2017 ON: 19.99 +20.0 20.04 -15.1 28.0 16.3 32.0 7 10 Alarm State:  0
Sat Jul 22 16:55:15 PDT 2017 ON: 20.00 +20.0 20.07 -15.6 27.3 16.8 31.7 7 9 Alarm State:  0
Sat Jul 22 16:54:14 PDT 2017 ON: 20.00 +20.0 20.07 -15.2 27.9 16.3 32.0 7 9 Alarm State:  0
Sat Jul 22 16:53:12 PDT 2017 ON: 19.99 +20.0 20.05 -15.0 28.2 16.1 32.1 7 10 Alarm State:  0
Sat Jul 22 16:52:11 PDT 2017 ON: 19.99 +20.0 20.05 -15.0 28.2 16.1 32.2 7 10 Alarm State:  0
Sat Jul 22 16:51:09 PDT 2017 ON: 20.00 +20.0 20.04 -15.1 28.0 16.3 32.0 7 10 Alarm State:  0
Sat Jul 22 16:50:08 PDT 2017 ON: 20.00 +20.0 20.05 -15.3 27.7 16.5 31.9 7 10 Alarm State:  0
Sat Jul 22 16:49:06 PDT 2017 ON: 19.99 +20.0 20.04 -14.9 28.4 16.0 32.2 7 10 Alarm State:  0
Sat Jul 22 16:48:05 PDT 2017 ON: 20.00 +20.0 20.05 -15.2 27.9 16.3 32.0 7 10 Alarm State:  0
Sat Jul 22 16:47:03 PDT 2017 ON: 19.99 +20.0 20.07 -15.5 27.4 16.7 31.7 8 9 Alarm State:  0
Sat Jul 22 16:46:02 PDT 2017 ON: 20.00 +20.0 20.05 -15.4 27.6 16.5 31.9 7 10 Alarm State:  0
Sat Jul 22 16:45:00 PDT 2017 ON: 19.99 +20.0 20.06 -15.4 27.6 16.5 32.1 7 9 Alarm State:  0
Sat Jul 22 16:43:59 PDT 2017 ON: 20.00 +20.0 20.06 -15.2 27.9 16.3 32.0 7 9 Alarm State:  0
Sat Jul 22 16:42:57 PDT 2017 ON: 20.00 +20.0 20.06 -15.4 27.6 16.5 31.9 7 10 Alarm State:  0
Sat Jul 22 16:41:56 PDT 2017 ON: 19.99 +20.0 20.06 -15.1 28.0 16.3 32.0 7 10 Alarm State:  0
Sat Jul 22 16:40:55 PDT 2017 ON: 19.99 +20.0 20.04 -15.2 27.9 16.3 32.0 7 10 Alarm State:  0
Sat Jul 22 16:39:53 PDT 2017 ON: 20.00 +20.0 20.05 -15.3 27.7 16.5 31.7 7 9 Alarm State:  0
Sat Jul 22 16:38:52 PDT 2017 ON: 19.99 +20.0 20.06 -15.2 27.9 16.3 32.0 7 9 Alarm State:  0
Sat Jul 22 16:37:50 PDT 2017 ON: 20.00 +20.0 20.06 -15.4 27.6 16.5 32.0 7 9 Alarm State:  0
Sat Jul 22 16:36:49 PDT 2017 ON: 20.00 +20.0 20.05 -14.9 28.3 16.1 32.1 7 10 Alarm State:  0
Sat Jul 22 16:35:47 PDT 2017 ON: 20.00 +20.0 20.05 -15.2 27.9 16.3 32.0 7 10 Alarm State:  0
Sat Jul 22 16:34:46 PDT 2017 ON: 19.99 +20.0 20.07 -15.5 27.4 16.7 31.7 7 9 Alarm State:  0
Sat Jul 22 16:33:44 PDT 2017 ON: 20.00 +20.0 20.06 -15.5 27.5 16.6 31.9 8 9 Alarm State:  0
Sat Jul 22 16:32:43 PDT 2017 ON: 20.00 +20.0 20.06 -15.0 28.2 16.1 32.1 7 10 Alarm State:  0
Sat Jul 22 16:31:41 PDT 2017 ON: 19.99 +20.0 20.05 -15.0 28.2 16.1 32.1 7 10 Alarm State:  0
Sat Jul 22 16:30:40 PDT 2017 ON: 19.98 +20.0 20.06 -15.5 27.5 16.6 32.1 7 9 Alarm State:  0
Sat Jul 22 16:29:38 PDT 2017 ON: 20.00 +20.0 20.04 -15.5 27.5 16.6 31.9 7 10 Alarm State:  0
Sat Jul 22 16:28:37 PDT 2017 ON: 20.00 +20.0 20.05 -15.3 27.7 16.5 32.0 7 10 Alarm State:  0
Sat Jul 22 16:27:35 PDT 2017 ON: 19.99 +20.0 20.05 -15.4 27.6 16.5 32.0 7 10 Alarm State:  0
Sat Jul 22 16:26:34 PDT 2017 ON: 20.00 +20.0 20.06 -15.5 27.5 16.6 32.0 7 9 Alarm State:  0
Sat Jul 22 16:25:32 PDT 2017 ON: 20.00 +20.0 20.06 -15.4 27.6 16.5 31.8 7 10 Alarm State:  0
Sat Jul 22 16:24:31 PDT 2017 ON: 19.99 +20.0 20.06 -15.1 28.1 16.2 32.1 7 9 Alarm State:  0
Sat Jul 22 16:23:29 PDT 2017 ON: 20.00 +20.0 20.05 -15.1 28.0 16.3 32.0 7 10 Alarm State:  0
Sat Jul 22 16:22:28 PDT 2017 ON: 19.99 +20.0 20.06 -15.7 27.2 16.8 31.6 8 9 Alarm State:  0
Sat Jul 22 16:21:26 PDT 2017 ON: 20.00 +20.0 20.05 -15.0 28.2 16.1 32.2 7 9 Alarm State:  0
Sat Jul 22 16:20:25 PDT 2017 ON: 20.01 +20.0 20.07 -15.4 27.6 16.5 31.9 7 9 Alarm State:  0
Sat Jul 22 16:19:23 PDT 2017 ON: 19.99 +20.0 20.05 -15.3 27.8 16.4 32.0 7 11 Alarm State:  0
Sat Jul 22 16:18:22 PDT 2017 ON: 19.99 +20.0 20.05 -14.9 28.3 16.1 32.2 7 10 Alarm State:  0
Sat Jul 22 16:17:20 PDT 2017 ON: 19.99 +20.0 20.05 -15.5 27.4 16.7 31.9 8 9 Alarm State:  0
Sat Jul 22 16:16:19 PDT 2017 ON: 20.00 +20.0 20.06 -15.6 27.3 16.8 31.6 7 9 Alarm State:  0
Sat Jul 22 16:15:17 PDT 2017 ON: 20.00 +20.0 20.05 -15.0 28.2 16.1 32.1 7 10 Alarm State:  0
Sat Jul 22 16:14:16 PDT 2017 ON: 19.99 +20.0 20.06 -15.4 27.6 16.5 32.0 8 9 Alarm State:  0
Sat Jul 22 16:13:14 PDT 2017 ON: 19.99 +20.0 20.05 -15.5 27.5 16.6 32.0 7 9 Alarm State:  0
Sat Jul 22 16:12:13 PDT 2017 ON: 20.00 +20.0 20.05 -15.3 27.7 16.5 32.0 7 10 Alarm State:  0
Sat Jul 22 16:11:11 PDT 2017 ON: 20.00 +20.0 20.06 -15.0 28.2 16.1 32.1 7 10 Alarm State:  0
Sat Jul 22 16:10:10 PDT 2017 ON: 19.99 +20.0 20.06 -15.1 28.1 16.2 32.0 7 10 Alarm State:  0
Sat Jul 22 16:09:08 PDT 2017 ON: 19.99 +20.0 20.04 -15.0 28.2 16.1 32.1 7 10 Alarm State:  0
Sat Jul 22 16:08:07 PDT 2017 ON: 20.01 +20.0 20.06 -15.7 27.1 16.9 31.5 7 9 Alarm State:  0
Sat Jul 22 16:07:05 PDT 2017 ON: 20.00 +20.0 20.06 -15.1 28.0 16.3 32.1 7 9 Alarm State:  0
Sat Jul 22 16:06:04 PDT 2017 ON: 20.00 +20.0 20.08 -15.5 27.5 16.6 32.0 8 9 Alarm State:  0
Sat Jul 22 16:05:02 PDT 2017 ON: 19.99 +20.0 20.05 -15.1 28.0 16.3 32.1 7 10 Alarm State:  0
Sat Jul 22 16:04:01 PDT 2017 ON: 19.99 +20.0 20.05 -15.3 27.7 16.5 32.0 7 9 Alarm State:  0
Sat Jul 22 16:02:59 PDT 2017 ON: 20.00 +20.0 20.07 -15.5 27.5 16.6 31.7 7 9 Alarm State:  0
Sat Jul 22 16:01:58 PDT 2017 ON: 19.99 +20.0 20.07 -15.6 27.3 16.8 31.7 7 9 Alarm State:  0
Sat Jul 22 16:00:56 PDT 2017 ON: 19.99 +20.0 20.05 -15.1 28.0 16.3 32.1 7 10 Alarm State:  0
Sat Jul 22 15:59:55 PDT 2017 ON: 20.00 +20.0 20.06 -15.5 27.5 16.6 31.7 7 9 Alarm State:  0
Sat Jul 22 15:58:53 PDT 2017 ON: 19.99 +20.0 20.06 -15.2 27.9 16.3 32.1 7 10 Alarm State:  0
Sat Jul 22 15:57:52 PDT 2017 ON: 19.99 +20.0 20.05 -15.3 27.7 16.5 32.0 7 9 Alarm State:  0
Sat Jul 22 15:56:50 PDT 2017 ON: 20.00 +20.0 20.06 -15.5 27.4 16.7 31.8 7 9 Alarm State:  0
Sat Jul 22 15:55:49 PDT 2017 ON: 19.99 +20.0 20.04 -15.0 28.2 16.1 32.0 7 11 Alarm State:  0
Sat Jul 22 15:54:47 PDT 2017 ON: 19.99 +20.0 20.06 -15.5 27.5 16.6 31.7 7 9 Alarm State:  0
Sat Jul 22 15:53:46 PDT 2017 ON: 20.00 +20.0 20.06 -15.3 27.7 16.5 32.0 7 9 Alarm State:  0
Sat Jul 22 15:52:45 PDT 2017 ON: 19.99 +20.0 20.05 -15.4 27.6 16.5 32.0 7 10 Alarm State:  0
Sat Jul 22 15:51:43 PDT 2017 ON: 19.99 +20.0 20.04 -14.8 28.5 16.0 32.2 7 10 Alarm State:  0
Sat Jul 22 15:50:42 PDT 2017 ON: 20.00 +20.0 20.05 -15.3 27.8 16.4 32.0 7 10 Alarm State:  0
Sat Jul 22 15:49:40 PDT 2017 ON: 19.99 +20.0 20.04 -15.3 27.7 16.5 32.0 7 10 Alarm State:  0
Sat Jul 22 15:48:39 PDT 2017 ON: 20.00 +20.0 20.06 -15.3 27.7 16.5 32.0 7 9 Alarm State:  0
Sat Jul 22 15:47:37 PDT 2017 ON: 20.00 +20.0 20.05 -15.4 27.6 16.5 32.0 7 10 Alarm State:  0
Sat Jul 22 15:46:36 PDT 2017 ON: 19.99 +20.0 20.06 -14.9 28.3 16.1 32.1 7 10 Alarm State:  0
Sat Jul 22 15:45:34 PDT 2017 ON: 19.99 +20.0 20.04 -15.1 28.0 16.3 32.1 7 10 Alarm State:  0
Sat Jul 22 15:44:33 PDT 2017 ON: 20.00 +20.0 20.05 -15.3 27.8 16.4 31.9 7 10 Alarm State:  0
Sat Jul 22 15:43:31 PDT 2017 ON: 20.00 +20.0 20.05 -15.3 27.8 16.4 32.0 7 10 Alarm State:  0
Sat Jul 22 15:42:30 PDT 2017 ON: 20.00 +20.0 20.05 -15.3 27.8 16.4 31.9 7 10 Alarm State:  0
Sat Jul 22 15:41:28 PDT 2017 ON: 19.99 +20.0 20.05 -14.8 28.5 16.0 32.2 7 10 Alarm State:  0
Sat Jul 22 15:40:27 PDT 2017 ON: 20.00 +20.0 20.06 -15.5 27.5 16.6 31.9 7 9 Alarm State:  0
Sat Jul 22 15:39:25 PDT 2017 ON: 20.00 +20.0 20.05 -15.2 27.9 16.3 31.8 7 10 Alarm State:  0
Sat Jul 22 15:38:24 PDT 2017 ON: 19.99 +20.0 20.06 -15.5 27.4 16.7 31.9 8 9 Alarm State:  0
Sat Jul 22 15:37:22 PDT 2017 ON: 20.00 +20.0 20.06 -15.3 27.7 16.5 32.0 7 9 Alarm State:  0
Sat Jul 22 15:36:21 PDT 2017 ON: 20.00 +20.0 20.07 -15.3 27.8 16.4 32.1 7 9 Alarm State:  0
Sat Jul 22 15:35:19 PDT 2017 ON: 20.00 +20.0 20.05 -15.3 27.8 16.4 31.9 7 10 Alarm State:  0
Sat Jul 22 15:34:18 PDT 2017 ON: 19.99 +20.0 20.05 -15.1 28.1 16.2 32.1 7 9 Alarm State:  0
Sat Jul 22 15:33:16 PDT 2017 ON: 20.00 +20.0 20.06 -15.3 27.7 16.5 32.0 7 9 Alarm State:  0
Sat Jul 22 15:32:15 PDT 2017 ON: 20.00 +20.0 20.06 -15.1 28.0 16.3 32.1 7 10 Alarm State:  0
Sat Jul 22 15:31:13 PDT 2017 ON: 20.00 +20.0 20.05 -15.1 28.1 16.2 32.0 7 10 Alarm State:  0
Sat Jul 22 15:30:12 PDT 2017 ON: 19.99 +20.0 20.05 -15.2 27.9 16.3 31.8 7 10 Alarm State:  0
Sat Jul 22 15:29:10 PDT 2017 ON: 19.99 +20.0 20.05 -15.4 27.6 16.5 31.7 7 9 Alarm State:  0
Sat Jul 22 15:28:09 PDT 2017 ON: 20.00 +20.0 20.05 -15.3 27.7 16.5 31.7 7 10 Alarm State:  0
Sat Jul 22 15:27:07 PDT 2017 ON: 19.99 +20.0 20.06 -15.4 27.6 16.5 31.8 7 10 Alarm State:  0
Sat Jul 22 15:26:06 PDT 2017 ON: 19.99 +20.0 20.05 -15.3 27.8 16.4 31.9 7 10 Alarm State:  0
Sat Jul 22 15:25:04 PDT 2017 ON: 20.00 +20.0 20.05 -15.1 28.1 16.2 32.1 7 10 Alarm State:  0
Sat Jul 22 15:24:03 PDT 2017 ON: 19.99 +20.0 20.07 -15.7 27.2 16.8 31.6 7 9 Alarm State:  0
Sat Jul 22 15:23:01 PDT 2017 ON: 19.99 +20.0 20.05 -15.2 27.9 16.3 32.0 7 10 Alarm State:  0
Sat Jul 22 15:22:00 PDT 2017 ON: 20.00 +20.0 20.06 -15.2 27.9 16.3 32.0 7 9 Alarm State:  0
Sat Jul 22 15:20:58 PDT 2017 ON: 19.99 +20.0 20.05 -14.9 28.4 16.0 32.2 7 10 Alarm State:  0
Sat Jul 22 15:19:57 PDT 2017 ON: 20.00 +20.0 20.06 -15.4 27.6 16.5 31.9 7 10 Alarm State:  0
Sat Jul 22 15:18:55 PDT 2017 ON: 19.99 +20.0 20.04 -15.2 27.9 16.3 32.0 7 10 Alarm State:  0
Sat Jul 22 15:17:54 PDT 2017 ON: 20.00 +20.0 20.05 -15.4 27.6 16.5 32.0 7 10 Alarm State:  0
Sat Jul 22 15:16:52 PDT 2017 ON: 19.99 +20.0 20.05 -15.3 27.8 16.4 32.0 7 10 Alarm State:  0
Sat Jul 22 15:15:51 PDT 2017 ON: 19.99 +20.0 20.04 -15.3 27.8 16.4 32.1 7 10 Alarm State:  0
Sat Jul 22 15:14:49 PDT 2017 ON: 20.00 +20.0 20.05 -15.0 28.2 16.1 32.2 7 10 Alarm State:  0
Sat Jul 22 15:13:48 PDT 2017 ON: 19.99 +20.0 20.06 -15.3 27.8 16.4 32.0 7 10 Alarm State:  0
Sat Jul 22 15:12:46 PDT 2017 ON: 19.99 +20.0 20.05 -15.3 27.7 16.5 32.1 7 10 Alarm State:  0
Sat Jul 22 15:11:45 PDT 2017 ON: 20.00 +20.0 20.06 -15.3 27.7 16.5 32.0 7 9 Alarm State:  0
Sat Jul 22 15:10:43 PDT 2017 ON: 20.00 +20.0 20.06 -15.2 27.9 16.3 32.1 7 10 Alarm State:  0
Sat Jul 22 15:09:42 PDT 2017 ON: 19.98 +20.0 20.05 -14.9 28.4 16.0 32.2 7 10 Alarm State:  0
Sat Jul 22 15:08:40 PDT 2017 ON: 19.99 +20.0 20.05 -15.1 28.1 16.2 32.1 7 10 Alarm State:  0
Sat Jul 22 15:07:39 PDT 2017 ON: 20.00 +20.0 20.05 -15.2 27.9 16.3 32.1 7 9 Alarm State:  0
Sat Jul 22 15:06:37 PDT 2017 ON: 19.99 +20.0 20.05 -15.3 27.8 16.4 32.0 7 10 Alarm State:  0
Sat Jul 22 15:05:36 PDT 2017 ON: 20.00 +20.0 20.06 -15.3 27.7 16.5 31.9 7 10 Alarm State:  0
Sat Jul 22 15:04:34 PDT 2017 ON: 19.99 +20.0 20.06 -15.5 27.5 16.6 31.9 7 9 Alarm State:  0
Sat Jul 22 15:03:23 PDT 2017 ON: 20.00 +20.0 20.05 -15.1 28.0 16.3 32.1 7 9 Alarm State:  0
Sat Jul 22 15:02:21 PDT 2017 ON: 20.00 +20.0 20.06 -15.5 27.5 16.6 32.0 7 10 Alarm State:  0
Sat Jul 22 15:01:20 PDT 2017 ON: 19.99 +20.0 20.07 -15.2 27.9 16.3 32.1 7 9 Alarm State:  0
Sat Jul 22 15:00:18 PDT 2017 ON: 20.00 +20.0 20.05 -14.8 28.5 16.0 32.3 7 9 Alarm State:  0
Sat Jul 22 14:59:17 PDT 2017 ON: 20.00 +20.0 20.06 -15.4 27.6 16.5 32.0 7 10 Alarm State:  0
Sat Jul 22 14:58:15 PDT 2017 ON: 19.99 +20.0 20.06 -15.5 27.5 16.6 32.0 7 9 Alarm State:  0
Sat Jul 22 14:57:14 PDT 2017 ON: 19.99 +20.0 20.05 -15.2 27.9 16.3 32.1 7 9 Alarm State:  0
Sat Jul 22 14:56:12 PDT 2017 ON: 20.00 +20.0 20.06 -15.2 27.9 16.3 32.1 7 10 Alarm State:  0
Sat Jul 22 14:55:11 PDT 2017 ON: 19.99 +20.0 20.06 -15.0 28.2 16.1 32.1 7 10 Alarm State:  0
Sat Jul 22 14:54:09 PDT 2017 ON: 19.99 +20.0 20.05 -14.9 28.3 16.1 32.1 7 10 Alarm State:  0
Sat Jul 22 14:53:08 PDT 2017 ON: 19.99 +20.0 20.05 -15.3 27.7 16.5 31.9 7 10 Alarm State:  0
Sat Jul 22 14:52:06 PDT 2017 ON: 20.00 +20.0 20.06 -15.3 27.8 16.4 32.1 7 9 Alarm State:  0
Sat Jul 22 14:51:05 PDT 2017 ON: 20.00 +20.0 20.06 -15.3 27.7 16.5 31.9 7 10 Alarm State:  0
Sat Jul 22 14:50:03 PDT 2017 ON: 20.00 +20.0 20.06 -15.4 27.6 16.5 31.9 8 9 Alarm State:  0
Sat Jul 22 14:49:02 PDT 2017 ON: 19.99 +20.0 20.04 -15.4 27.6 16.5 31.8 7 10 Alarm State:  0
Sat Jul 22 14:48:00 PDT 2017 ON: 20.00 +20.0 20.05 -15.3 27.7 16.5 32.0 7 9 Alarm State:  0
Sat Jul 22 14:46:59 PDT 2017 ON: 20.00 +20.0 20.06 -15.3 27.8 16.4 31.8 7 10 Alarm State:  0
Sat Jul 22 14:45:57 PDT 2017 ON: 19.98 +20.0 20.04 -15.1 28.0 16.3 32.1 7 10 Alarm State:  0
Sat Jul 22 14:44:56 PDT 2017 ON: 20.00 +20.0 20.06 -15.4 27.6 16.5 32.0 7 9 Alarm State:  0
Sat Jul 22 14:43:54 PDT 2017 ON: 20.00 +20.0 20.05 -15.0 28.2 16.1 32.1 7 10 Alarm State:  0
Sat Jul 22 14:42:53 PDT 2017 ON: 19.99 +20.0 20.06 -15.5 27.5 16.6 32.0 7 9 Alarm State:  0
Sat Jul 22 14:41:51 PDT 2017 ON: 20.00 +20.0 20.05 -15.3 27.7 16.5 32.0 7 10 Alarm State:  0
Sat Jul 22 14:40:50 PDT 2017 ON: 20.00 +20.0 20.05 -15.1 28.1 16.2 32.1 7 10 Alarm State:  0
Sat Jul 22 14:39:48 PDT 2017 ON: 19.98 +20.0 20.04 -15.1 28.1 16.2 32.1 7 10 Alarm State:  0
Sat Jul 22 14:38:47 PDT 2017 ON: 20.00 +20.0 20.04 -15.3 27.7 16.5 32.0 7 10 Alarm State:  0
Sat Jul 22 14:37:45 PDT 2017 ON: 20.00 +20.0 20.06 -15.3 27.8 16.4 31.9 7 9 Alarm State:  0
Sat Jul 22 14:36:44 PDT 2017 ON: 19.99 +20.0 20.06 -15.1 28.1 16.2 32.1 7 10 Alarm State:  0
Sat Jul 22 14:35:42 PDT 2017 ON: 20.00 +20.0 20.06 -15.1 28.0 16.3 32.0 7 10 Alarm State:  0
Sat Jul 22 14:34:41 PDT 2017 ON: 19.99 +20.0 20.05 -15.5 27.4 16.7 31.7 7 10 Alarm State:  0
Sat Jul 22 14:33:39 PDT 2017 ON: 20.00 +20.0 20.06 -15.4 27.6 16.5 31.7 7 9 Alarm State:  0
Sat Jul 22 14:32:38 PDT 2017 ON: 20.00 +20.0 20.06 -15.4 27.6 16.5 32.0 7 9 Alarm State:  0
Sat Jul 22 14:31:36 PDT 2017 ON: 19.99 +20.0 20.06 -15.5 27.5 16.6 31.8 7 10 Alarm State:  0
Sat Jul 22 14:30:35 PDT 2017 ON: 19.99 +20.0 20.04 -15.2 27.9 16.3 32.0 7 10 Alarm State:  0
Sat Jul 22 14:29:33 PDT 2017 ON: 20.00 +20.0 20.06 -15.3 27.7 16.5 32.0 7 9 Alarm State:  0
Sat Jul 22 14:28:32 PDT 2017 ON: 20.00 +20.0 20.06 -15.4 27.6 16.5 31.9 7 10 Alarm State:  0
Sat Jul 22 14:27:30 PDT 2017 ON: 19.99 +20.0 20.04 -14.8 28.5 16.0 32.1 7 11 Alarm State:  0
Sat Jul 22 14:26:29 PDT 2017 ON: 19.99 +20.0 20.05 -15.3 27.7 16.5 32.0 7 9 Alarm State:  0
Sat Jul 22 14:25:27 PDT 2017 ON: 20.00 +20.0 20.07 -15.7 27.2 16.8 31.6 8 9 Alarm State:  0
Sat Jul 22 14:24:26 PDT 2017 ON: 20.00 +20.0 20.04 -14.8 28.5 16.0 32.2 7 10 Alarm State:  0
Sat Jul 22 14:23:24 PDT 2017 ON: 20.00 +20.0 20.06 -15.2 27.9 16.3 31.9 7 10 Alarm State:  0
Sat Jul 22 14:22:23 PDT 2017 ON: 19.99 +20.0 20.05 -15.2 27.9 16.3 32.0 7 10 Alarm State:  0
Sat Jul 22 14:21:21 PDT 2017 ON: 19.99 +20.0 20.04 -15.0 28.2 16.1 32.2 7 10 Alarm State:  0
Sat Jul 22 14:20:20 PDT 2017 ON: 20.00 +20.0 20.05 -15.3 27.7 16.5 31.9 7 10 Alarm State:  0
Sat Jul 22 14:19:18 PDT 2017 ON: 20.00 +20.0 20.05 -15.2 27.9 16.3 31.8 7 10 Alarm State:  0
Sat Jul 22 14:18:17 PDT 2017 ON: 19.99 +20.0 20.05 -15.3 27.8 16.4 32.0 7 10 Alarm State:  0
Sat Jul 22 14:17:15 PDT 2017 ON: 20.00 +20.0 20.06 -15.4 27.6 16.5 31.9 7 9 Alarm State:  0
Sat Jul 22 14:16:14 PDT 2017 ON: 19.99 +20.0 20.05 -15.4 27.6 16.5 32.0 7 9 Alarm State:  0
Sat Jul 22 14:15:12 PDT 2017 ON: 20.00 +20.0 20.06 -15.5 27.4 16.7 31.9 7 9 Alarm State:  0
Sat Jul 22 14:14:11 PDT 2017 ON: 20.00 +20.0 20.06 -15.3 27.7 16.5 32.0 7 10 Alarm State:  0
Sat Jul 22 14:13:09 PDT 2017 ON: 19.99 +20.0 20.06 -15.1 28.1 16.2 32.1 7 9 Alarm State:  0
Sat Jul 22 14:12:08 PDT 2017 ON: 20.00 +20.0 20.06 -15.1 28.1 16.2 32.1 7 10 Alarm State:  0
Sat Jul 22 14:11:06 PDT 2017 ON: 19.99 +20.0 20.05 -15.3 27.7 16.5 32.0 7 10 Alarm State:  0
Sat Jul 22 14:10:05 PDT 2017 ON: 20.00 +20.0 20.05 -15.3 27.8 16.4 32.1 7 9 Alarm State:  0
Sat Jul 22 14:09:03 PDT 2017 ON: 19.99 +20.0 20.07 -15.5 27.4 16.7 32.0 8 9 Alarm State:  0
Sat Jul 22 14:08:02 PDT 2017 ON: 19.99 +20.0 20.05 -15.3 27.7 16.5 32.1 7 10 Alarm State:  0
Sat Jul 22 14:07:00 PDT 2017 ON: 20.00 +20.0 20.06 -15.1 28.1 16.2 32.1 7 9 Alarm State:  0
Sat Jul 22 14:05:59 PDT 2017 ON: 19.99 +20.0 20.04 -15.1 28.1 16.2 32.0 7 10 Alarm State:  0
Sat Jul 22 14:04:57 PDT 2017 ON: 19.99 +20.0 20.06 -15.4 27.6 16.5 32.0 7 9 Alarm State:  0
Sat Jul 22 14:03:56 PDT 2017 ON: 20.00 +20.0 20.06 -15.3 27.7 16.5 32.0 8 9 Alarm State:  0
Sat Jul 22 14:02:54 PDT 2017 ON: 20.00 +20.0 20.06 -15.2 27.9 16.3 32.1 7 10 Alarm State:  0
Sat Jul 22 14:01:53 PDT 2017 ON: 20.00 +20.0 20.06 -15.4 27.6 16.5 32.0 7 9 Alarm State:  0
Sat Jul 22 14:00:51 PDT 2017 ON: 20.00 +20.0 20.05 -15.1 28.0 16.3 32.0 7 9 Alarm State:  0
Sat Jul 22 13:59:50 PDT 2017 ON: 20.00 +20.0 20.06 -15.1 28.0 16.3 32.2 7 10 Alarm State:  0
Sat Jul 22 13:58:49 PDT 2017 ON: 19.99 +20.0 20.04 -14.9 28.3 16.1 32.2 7 10 Alarm State:  0
Sat Jul 22 13:57:47 PDT 2017 ON: 19.99 +20.0 20.05 -15.3 27.8 16.4 32.1 7 10 Alarm State:  0
Sat Jul 22 13:56:45 PDT 2017 ON: 20.00 +20.0 20.05 -15.3 27.7 16.5 32.0 7 9 Alarm State:  0
Sat Jul 22 13:55:44 PDT 2017 ON: 20.00 +20.0 20.06 -15.5 27.5 16.6 31.9 7 9 Alarm State:  0
Sat Jul 22 13:54:43 PDT 2017 ON: 19.99 +20.0 20.06 -14.9 28.4 16.0 32.3 7 10 Alarm State:  0
Sat Jul 22 13:53:41 PDT 2017 ON: 19.99 +20.0 20.05 -15.2 27.9 16.3 32.1 7 10 Alarm State:  0
Sat Jul 22 13:52:40 PDT 2017 ON: 19.99 +20.0 20.05 -15.0 28.2 16.1 32.2 7 9 Alarm State:  0
Sat Jul 22 13:51:38 PDT 2017 ON: 20.00 +20.0 20.06 -15.3 27.8 16.4 32.1 7 9 Alarm State:  0
Sat Jul 22 13:50:37 PDT 2017 ON: 20.00 +20.0 20.07 -15.4 27.6 16.5 31.7 7 9 Alarm State:  0
Sat Jul 22 13:49:35 PDT 2017 ON: 19.99 +20.0 20.06 -15.1 28.0 16.3 32.2 7 10 Alarm State:  0
Sat Jul 22 13:48:34 PDT 2017 ON: 19.99 +20.0 20.05 -15.3 27.8 16.4 32.1 7 10 Alarm State:  0
Sat Jul 22 13:47:32 PDT 2017 ON: 20.00 +20.0 20.04 -14.9 28.3 16.1 32.2 7 10 Alarm State:  0
Sat Jul 22 13:46:31 PDT 2017 ON: 19.99 +20.0 20.05 -15.2 27.9 16.3 32.1 7 10 Alarm State:  0
Sat Jul 22 13:45:29 PDT 2017 ON: 19.99 +20.0 20.04 -15.4 27.6 16.5 32.0 7 10 Alarm State:  0
Sat Jul 22 13:44:28 PDT 2017 ON: 20.00 +20.0 20.08 -15.6 27.3 16.8 31.7 7 8 Alarm State:  0
Sat Jul 22 13:43:26 PDT 2017 ON: 19.99 +20.0 20.05 -15.1 28.0 16.3 32.1 7 10 Alarm State:  0
Sat Jul 22 13:42:25 PDT 2017 ON: 20.00 +20.0 20.07 -15.5 27.4 16.7 31.8 7 9 Alarm State:  0
Sat Jul 22 13:41:23 PDT 2017 ON: 20.00 +20.0 20.06 -15.1 28.1 16.2 32.1 7 9 Alarm State:  0
Sat Jul 22 13:40:22 PDT 2017 ON: 20.00 +20.0 20.06 -15.1 28.1 16.2 32.1 7 9 Alarm State:  0
Sat Jul 22 13:39:20 PDT 2017 ON: 19.99 +20.0 20.04 -14.9 28.3 16.1 32.2 7 11 Alarm State:  0
Sat Jul 22 13:38:19 PDT 2017 ON: 19.99 +20.0 20.04 -15.5 27.5 16.6 31.9 7 10 Alarm State:  0
Sat Jul 22 13:37:17 PDT 2017 ON: 20.00 +20.0 20.06 -15.3 27.8 16.4 32.0 7 9 Alarm State:  0
Sat Jul 22 13:36:16 PDT 2017 ON: 20.00 +20.0 20.06 -15.4 27.6 16.5 32.0 7 10 Alarm State:  0
Sat Jul 22 13:35:14 PDT 2017 ON: 19.99 +20.0 20.06 -15.1 28.1 16.2 32.1 7 10 Alarm State:  0
Sat Jul 22 13:34:13 PDT 2017 ON: 20.00 +20.0 20.06 -15.3 27.8 16.4 32.0 7 9 Alarm State:  0
Sat Jul 22 13:33:11 PDT 2017 ON: 19.99 +20.0 20.03 -15.2 27.9 16.3 32.0 7 11 Alarm State:  0
Sat Jul 22 13:32:10 PDT 2017 ON: 20.00 +20.0 20.05 -15.5 27.5 16.6 31.7 7 9 Alarm State:  0
Sat Jul 22 13:31:08 PDT 2017 ON: 20.00 +20.0 20.07 -15.3 27.7 16.5 32.0 7 9 Alarm State:  0
Sat Jul 22 13:30:07 PDT 2017 ON: 19.99 +20.0 20.05 -15.1 28.0 16.3 32.1 7 10 Alarm State:  0
Sat Jul 22 13:29:05 PDT 2017 ON: 19.99 +20.0 20.03 -14.9 28.3 16.1 32.1 7 10 Alarm State:  0
Sat Jul 22 13:28:04 PDT 2017 ON: 20.00 +20.0 20.05 -15.3 27.7 16.5 32.0 7 10 Alarm State:  0
Sat Jul 22 13:27:02 PDT 2017 ON: 20.00 +20.0 20.08 -15.5 27.4 16.7 31.7 7 9 Alarm State:  0
Sat Jul 22 13:26:01 PDT 2017 ON: 19.99 +20.0 20.05 -14.9 28.3 16.1 32.2 7 10 Alarm State:  0
Sat Jul 22 13:24:59 PDT 2017 ON: 19.99 +20.0 20.04 -15.2 27.9 16.3 32.1 7 10 Alarm State:  0
Sat Jul 22 13:23:58 PDT 2017 ON: 20.00 +20.0 20.05 -15.0 28.2 16.1 32.1 7 10 Alarm State:  0
Sat Jul 22 13:22:56 PDT 2017 ON: 19.99 +20.0 20.06 -15.3 27.8 16.4 32.1 7 10 Alarm State:  0
Sat Jul 22 13:21:55 PDT 2017 ON: 19.99 +20.0 20.05 -15.4 27.6 16.5 32.0 7 9 Alarm State:  0
Sat Jul 22 13:20:53 PDT 2017 ON: 20.00 +20.0 20.05 -15.2 27.9 16.3 32.0 7 10 Alarm State:  0
Sat Jul 22 13:19:52 PDT 2017 ON: 19.99 +20.0 20.07 -15.5 27.5 16.6 32.0 7 9 Alarm State:  0
Sat Jul 22 13:18:50 PDT 2017 ON: 19.99 +20.0 20.04 -15.1 28.1 16.2 32.1 7 10 Alarm State:  0
Sat Jul 22 13:17:49 PDT 2017 ON: 19.99 +20.0 20.04 -15.1 28.0 16.3 32.1 7 9 Alarm State:  0
Sat Jul 22 13:16:47 PDT 2017 ON: 20.00 +20.0 20.06 -15.3 27.7 16.5 31.9 7 9 Alarm State:  0
Sat Jul 22 13:15:46 PDT 2017 ON: 20.00 +20.0 20.06 -15.1 28.1 16.2 32.2 7 10 Alarm State:  0
Sat Jul 22 13:14:44 PDT 2017 ON: 19.99 +20.0 20.05 -14.9 28.3 16.1 32.2 7 10 Alarm State:  0
Sat Jul 22 13:13:43 PDT 2017 ON: 19.99 +20.0 20.04 -15.2 27.9 16.3 32.1 7 10 Alarm State:  0
Sat Jul 22 13:12:41 PDT 2017 ON: 20.00 +20.0 20.06 -14.9 28.3 16.1 32.2 7 9 Alarm State:  0
Sat Jul 22 13:11:40 PDT 2017 ON: 20.00 +20.0 20.07 -15.4 27.6 16.5 31.8 8 9 Alarm State:  0
Sat Jul 22 13:10:38 PDT 2017 ON: 19.99 +20.0 20.04 -15.0 28.2 16.1 32.2 7 10 Alarm State:  0
Sat Jul 22 13:09:37 PDT 2017 ON: 20.00 +20.0 20.05 -15.1 28.1 16.2 32.1 7 10 Alarm State:  0
Sat Jul 22 13:08:35 PDT 2017 ON: 19.99 +20.0 20.06 -15.3 27.7 16.5 32.0 7 10 Alarm State:  0
Sat Jul 22 13:07:34 PDT 2017 ON: 19.99 +20.0 20.04 -15.2 27.9 16.3 32.1 7 10 Alarm State:  0
Sat Jul 22 13:06:32 PDT 2017 ON: 19.99 +20.0 20.05 -15.3 27.7 16.5 32.0 7 10 Alarm State:  0
Sat Jul 22 13:05:31 PDT 2017 ON: 19.99 +20.0 20.04 -15.3 27.8 16.4 32.0 7 10 Alarm State:  0
Sat Jul 22 13:04:29 PDT 2017 ON: 20.00 +20.0 20.06 -15.2 27.9 16.3 32.0 7 9 Alarm State:  0
Sat Jul 22 13:03:28 PDT 2017 ON: 19.99 +20.0 20.06 -15.1 28.1 16.2 32.2 7 10 Alarm State:  0
Sat Jul 22 13:02:26 PDT 2017 ON: 19.99 +20.0 20.04 -14.9 28.4 16.0 32.2 7 10 Alarm State:  0
Sat Jul 22 13:01:25 PDT 2017 ON: 19.99 +20.0 20.06 -15.3 27.7 16.5 32.0 7 10 Alarm State:  0
Sat Jul 22 13:00:23 PDT 2017 ON: 19.99 +20.0 20.04 -15.3 27.7 16.5 32.0 7 10 Alarm State:  0
Sat Jul 22 12:59:22 PDT 2017 ON: 20.00 +20.0 20.04 -15.1 28.0 16.3 32.1 7 9 Alarm State:  0
Sat Jul 22 12:58:20 PDT 2017 ON: 20.00 +20.0 20.05 -15.4 27.6 16.5 32.0 7 9 Alarm State:  0
Sat Jul 22 12:57:19 PDT 2017 ON: 20.00 +20.0 20.03 -14.9 28.4 16.0 32.1 7 11 Alarm State:  0
Sat Jul 22 12:56:17 PDT 2017 ON: 20.00 +20.0 20.06 -15.3 27.7 16.5 32.0 7 10 Alarm State:  0
Sat Jul 22 12:55:16 PDT 2017 ON: 19.99 +20.0 20.04 -15.2 27.9 16.3 32.1 7 10 Alarm State:  0
Sat Jul 22 12:54:14 PDT 2017 ON: 20.00 +20.0 20.04 -15.5 27.5 16.6 31.9 7 10 Alarm State:  0
Sat Jul 22 12:53:13 PDT 2017 ON: 19.99 +20.0 20.06 -15.6 27.3 16.8 31.8 7 9 Alarm State:  0
Sat Jul 22 12:52:11 PDT 2017 ON: 20.00 +20.0 20.06 -15.1 28.0 16.3 32.0 7 9 Alarm State:  0
Sat Jul 22 12:51:10 PDT 2017 ON: 20.00 +20.0 20.06 -15.4 27.6 16.5 32.0 7 10 Alarm State:  0
Sat Jul 22 12:50:08 PDT 2017 ON: 19.98 +20.0 20.04 -14.9 28.4 16.0 32.2 7 10 Alarm State:  0
Sat Jul 22 12:49:07 PDT 2017 ON: 20.00 +20.0 20.05 -15.3 27.8 16.4 32.0 7 9 Alarm State:  0
Sat Jul 22 12:48:05 PDT 2017 ON: 20.00 +20.0 20.04 -15.1 28.0 16.3 32.1 7 10 Alarm State:  0
Sat Jul 22 12:47:04 PDT 2017 ON: 20.00 +20.0 20.05 -15.3 27.7 16.5 31.8 7 10 Alarm State:  0
Sat Jul 22 12:46:02 PDT 2017 ON: 19.99 +20.0 20.04 -15.1 28.0 16.3 32.1 7 10 Alarm State:  0
Sat Jul 22 12:45:01 PDT 2017 ON: 20.00 +20.0 20.05 -15.4 27.6 16.5 31.9 7 10 Alarm State:  0
Sat Jul 22 12:43:59 PDT 2017 ON: 19.99 +20.0 20.05 -15.3 27.8 16.4 31.9 7 10 Alarm State:  0
Sat Jul 22 12:42:58 PDT 2017 ON: 19.99 +20.0 20.04 -15.1 28.0 16.3 32.0 7 10 Alarm State:  0
Sat Jul 22 12:41:56 PDT 2017 ON: 20.00 +20.0 20.06 -15.5 27.5 16.6 31.7 7 9 Alarm State:  0
Sat Jul 22 12:40:55 PDT 2017 ON: 20.00 +20.0 20.05 -15.1 28.1 16.2 32.1 7 10 Alarm State:  0
Sat Jul 22 12:39:53 PDT 2017 ON: 19.99 +20.0 20.06 -15.6 27.3 16.8 31.6 7 10 Alarm State:  0
Sat Jul 22 12:38:52 PDT 2017 ON: 19.99 +20.0 20.05 -15.3 27.7 16.5 32.0 7 9 Alarm State:  0
Sat Jul 22 12:37:50 PDT 2017 ON: 20.00 +20.0 20.05 -15.4 27.6 16.5 31.9 7 9 Alarm State:  0
Sat Jul 22 12:36:49 PDT 2017 ON: 20.00 +20.0 20.06 -15.5 27.5 16.6 31.7 7 9 Alarm State:  0
Sat Jul 22 12:35:47 PDT 2017 ON: 19.99 +20.0 20.04 -15.2 27.9 16.3 32.1 7 11 Alarm State:  0
Sat Jul 22 12:34:46 PDT 2017 ON: 19.99 +20.0 20.05 -15.3 27.8 16.4 32.0 7 10 Alarm State:  0
Sat Jul 22 12:33:44 PDT 2017 ON: 19.99 +20.0 20.05 -15.3 27.7 16.5 32.0 7 9 Alarm State:  0
Sat Jul 22 12:32:43 PDT 2017 ON: 20.00 +20.0 20.05 -15.3 27.8 16.4 32.0 7 10 Alarm State:  0
Sat Jul 22 12:31:41 PDT 2017 ON: 20.00 +20.0 20.06 -15.1 28.1 16.2 32.1 7 10 Alarm State:  0
Sat Jul 22 12:30:40 PDT 2017 ON: 19.99 +20.0 20.06 -15.3 27.7 16.5 32.0 7 9 Alarm State:  0
Sat Jul 22 12:29:28 PDT 2017  Alarm State: 0
Sat Jul 22 12:29:28 PDT 2017 Chiller did not report ON, got this reading: 
Sat Jul 22 12:28:27 PDT 2017 ON: 20.00 +20.0 20.05 -15.3 27.7 16.5 32.0 7 9 Alarm State:  0
Sat Jul 22 12:27:25 PDT 2017 ON: 20.00 +20.0 20.06 -15.1 28.1 16.2 32.1 7 10 Alarm State:  0
Sat Jul 22 12:26:24 PDT 2017 ON: 19.99 +20.0 20.05 -14.9 28.4 16.0 32.2 7 10 Alarm State:  0
Sat Jul 22 12:25:22 PDT 2017 ON: 20.00 +20.0 20.03 -15.2 27.9 16.3 32.0 7 10 Alarm State:  0
Sat Jul 22 12:24:21 PDT 2017 ON: 19.99 +20.0 20.06 -15.5 27.4 16.7 31.7 7 10 Alarm State:  0
Sat Jul 22 12:23:19 PDT 2017 ON: 19.99 +20.0 20.05 -15.5 27.5 16.6 31.9 8 9 Alarm State:  0
Sat Jul 22 12:22:17 PDT 2017 ON: 20.00 +20.0 20.05 -15.3 27.7 16.5 32.0 7 9 Alarm State:  0
Sat Jul 22 12:21:16 PDT 2017 ON: 20.00 +20.0 20.07 -15.4 27.6 16.5 32.0 7 9 Alarm State:  0
Sat Jul 22 12:20:14 PDT 2017 ON: 19.99 +20.0 20.06 -15.2 27.9 16.3 32.0 7 10 Alarm State:  0
Sat Jul 22 12:19:13 PDT 2017 ON: 19.99 +20.0 20.04 -15.2 27.9 16.3 32.1 7 10 Alarm State:  0
Sat Jul 22 12:18:11 PDT 2017 ON: 20.00 +20.0 20.07 -15.3 27.8 16.4 32.0 7 8 Alarm State:  0
Sat Jul 22 12:17:10 PDT 2017 ON: 20.00 +20.0 20.06 -15.4 27.6 16.5 31.7 7 10 Alarm State:  0
Sat Jul 22 12:16:08 PDT 2017 ON: 19.99 +20.0 20.04 -15.1 28.1 16.2 32.1 7 10 Alarm State:  0
Sat Jul 22 12:15:07 PDT 2017 ON: 19.99 +20.0 20.05 -15.4 27.6 16.5 31.8 7 9 Alarm State:  0
Sat Jul 22 12:14:05 PDT 2017 ON: 20.00 +20.0 20.04 -15.3 27.7 16.5 31.9 7 10 Alarm State:  0
Sat Jul 22 12:13:04 PDT 2017 ON: 20.00 +20.0 20.05 -15.3 27.7 16.5 32.0 7 10 Alarm State:  0
Sat Jul 22 12:12:02 PDT 2017 ON: 19.99 +20.0 20.07 -15.5 27.5 16.6 31.9 7 9 Alarm State:  0
Sat Jul 22 12:11:01 PDT 2017 ON: 19.99 +20.0 20.06 -15.3 27.8 16.4 32.0 7 9 Alarm State:  0
Sat Jul 22 12:09:59 PDT 2017 ON: 20.00 +20.0 20.06 -15.4 27.6 16.5 31.8 7 9 Alarm State:  0
Sat Jul 22 12:08:58 PDT 2017 ON: 19.99 +20.0 20.05 -15.1 28.0 16.3 32.0 7 10 Alarm State:  0
Sat Jul 22 12:07:56 PDT 2017 ON: 20.00 +20.0 20.05 -15.1 28.0 16.3 32.0 7 10 Alarm State:  0
Sat Jul 22 12:06:55 PDT 2017 ON: 20.00 +20.0 20.06 -15.1 28.0 16.3 32.1 7 10 Alarm State:  0
Sat Jul 22 12:05:53 PDT 2017 ON: 19.99 +20.0 20.06 -15.3 27.7 16.5 32.0 7 9 Alarm State:  0
Sat Jul 22 12:04:42 PDT 2017  Alarm State: 0
Sat Jul 22 12:04:42 PDT 2017 Chiller did not report ON, got this reading: 
Sat Jul 22 12:03:41 PDT 2017 ON: 19.99 +20.0 20.05 -15.3 27.7 16.5 32.0 7 10 Alarm State:  0
Sat Jul 22 12:02:39 PDT 2017 ON: 19.99 +20.0 20.06 -15.4 27.6 16.5 32.0 8 9 Alarm State:  0
Sat Jul 22 12:01:38 PDT 2017 ON: 20.00 +20.0 20.04 -15.3 27.7 16.5 32.0 7 9 Alarm State:  0
Sat Jul 22 12:00:36 PDT 2017 ON: 20.01 +20.0 20.06 -15.6 27.3 16.8 31.7 7 9 Alarm State:  0
Sat Jul 22 11:59:35 PDT 2017 ON: 20.00 +20.0 20.06 -14.9 28.3 16.1 32.1 7 10 Alarm State:  0
Sat Jul 22 11:58:33 PDT 2017 ON: 19.99 +20.0 20.05 -14.9 28.4 16.0 32.0 7 10 Alarm State:  0
Sat Jul 22 11:57:32 PDT 2017 ON: 19.99 +20.0 20.04 -15.1 28.0 16.3 32.0 7 10 Alarm State:  0
Sat Jul 22 11:56:30 PDT 2017 ON: 20.00 +20.0 20.06 -15.4 27.6 16.5 31.9 7 9 Alarm State:  0
Sat Jul 22 11:55:29 PDT 2017 ON: 19.99 +20.0 20.05 -15.3 27.7 16.5 31.9 7 10 Alarm State:  0
Sat Jul 22 11:54:27 PDT 2017 ON: 20.00 +20.0 20.05 -15.2 27.9 16.3 31.9 7 10 Alarm State:  0
Sat Jul 22 11:53:26 PDT 2017 ON: 19.99 +20.0 20.05 -15.4 27.6 16.5 31.7 7 10 Alarm State:  0
Sat Jul 22 11:52:24 PDT 2017 ON: 19.99 +20.0 20.03 -15.2 27.9 16.3 32.0 7 10 Alarm State:  0
Sat Jul 22 11:51:23 PDT 2017 ON: 20.00 +20.0 20.05 -15.4 27.6 16.5 31.8 7 10 Alarm State:  0
Sat Jul 22 11:50:21 PDT 2017 ON: 19.99 +20.0 20.05 -15.1 28.0 16.3 32.0 7 10 Alarm State:  0
Sat Jul 22 11:49:20 PDT 2017 ON: 19.99 +20.0 20.04 -15.1 28.0 16.3 32.0 7 10 Alarm State:  0
Sat Jul 22 11:48:18 PDT 2017 ON: 20.00 +20.0 20.06 -15.5 27.4 16.7 31.6 7 9 Alarm State:  0
Sat Jul 22 11:47:17 PDT 2017 ON: 19.99 +20.0 20.06 -15.3 27.7 16.5 31.7 7 10 Alarm State:  0
Sat Jul 22 11:46:15 PDT 2017 ON: 19.99 +20.0 20.04 -14.9 28.3 16.1 32.1 7 10 Alarm State:  0
Sat Jul 22 11:45:14 PDT 2017 ON: 20.00 +20.0 20.07 -15.4 27.6 16.5 31.8 7 9 Alarm State:  0
Sat Jul 22 11:44:12 PDT 2017 ON: 19.99 +20.0 20.07 -15.2 27.9 16.3 32.0 7 9 Alarm State:  0
Sat Jul 22 11:43:11 PDT 2017 ON: 19.99 +20.0 20.05 -15.1 28.0 16.3 32.1 7 10 Alarm State:  0
Sat Jul 22 11:42:09 PDT 2017 ON: 20.00 +20.0 20.06 -15.4 27.6 16.5 32.0 7 9 Alarm State:  0
Sat Jul 22 11:41:08 PDT 2017 ON: 20.01 +20.0 20.05 -15.1 28.0 16.3 32.1 7 10 Alarm State:  0
Sat Jul 22 11:40:06 PDT 2017 ON: 19.99 +20.0 20.04 -14.9 28.3 16.1 32.1 7 11 Alarm State:  0
Sat Jul 22 11:39:05 PDT 2017 ON: 19.98 +20.0 20.05 -15.3 27.8 16.4 32.0 7 9 Alarm State:  0
Sat Jul 22 11:38:03 PDT 2017 ON: 20.00 +20.0 20.05 -15.5 27.4 16.7 31.9 8 9 Alarm State:  0
Sat Jul 22 11:37:02 PDT 2017 ON: 20.00 +20.0 20.04 -15.3 27.8 16.4 32.0 7 10 Alarm State:  0
Sat Jul 22 11:36:00 PDT 2017 ON: 19.99 +20.0 20.07 -15.3 27.8 16.4 32.0 7 9 Alarm State:  0
Sat Jul 22 11:34:59 PDT 2017 ON: 20.00 +20.0 20.04 -15.0 28.2 16.1 32.0 7 10 Alarm State:  0
Sat Jul 22 11:33:57 PDT 2017 ON: 20.00 +20.0 20.06 -15.2 27.9 16.3 32.1 7 9 Alarm State:  0
Sat Jul 22 11:32:56 PDT 2017 ON: 19.99 +20.0 20.05 -15.4 27.6 16.5 32.0 7 10 Alarm State:  0
Sat Jul 22 11:31:54 PDT 2017 ON: 20.00 +20.0 20.05 -15.3 27.8 16.4 32.1 7 9 Alarm State:  0
Sat Jul 22 11:30:53 PDT 2017 ON: 20.00 +20.0 20.05 -15.3 27.8 16.4 32.1 7 9 Alarm State:  0
Sat Jul 22 11:29:51 PDT 2017 ON: 19.99 +20.0 20.05 -15.1 28.0 16.3 32.2 7 10 Alarm State:  0
Sat Jul 22 11:28:50 PDT 2017 ON: 20.00 +20.0 20.06 -15.1 28.0 16.3 32.2 7 9 Alarm State:  0
Sat Jul 22 11:27:48 PDT 2017 ON: 20.00 +20.0 20.04 -14.7 28.6 15.9 32.3 7 10 Alarm State:  0
Sat Jul 22 11:26:47 PDT 2017 ON: 20.00 +20.0 20.06 -15.0 28.2 16.1 32.3 7 9 Alarm State:  0
Sat Jul 22 11:25:45 PDT 2017 ON: 20.00 +20.0 20.06 -15.3 27.8 16.4 32.1 7 9 Alarm State:  0
Sat Jul 22 11:24:44 PDT 2017 ON: 19.99 +20.0 20.05 -15.3 27.7 16.5 32.1 7 9 Alarm State:  0
Sat Jul 22 11:23:42 PDT 2017 ON: 20.00 +20.0 20.05 -15.4 27.6 16.5 32.0 7 10 Alarm State:  0
Sat Jul 22 11:22:41 PDT 2017 ON: 19.99 +20.0 20.05 -15.5 27.4 16.7 31.9 7 10 Alarm State:  0
Sat Jul 22 11:21:39 PDT 2017 ON: 20.00 +20.0 20.05 -15.1 28.0 16.3 32.2 7 9 Alarm State:  0
Sat Jul 22 11:20:38 PDT 2017 ON: 20.00 +20.0 20.07 -15.5 27.4 16.7 32.0 7 9 Alarm State:  0
Sat Jul 22 11:19:36 PDT 2017 ON: 20.00 +20.0 20.05 -14.9 28.4 16.0 32.2 7 10 Alarm State:  0
Sat Jul 22 11:18:35 PDT 2017 ON: 19.99 +20.0 20.03 -14.9 28.3 16.1 32.2 7 11 Alarm State:  0
Sat Jul 22 11:17:33 PDT 2017 ON: 19.99 +20.0 20.05 -15.4 27.6 16.5 32.1 7 9 Alarm State:  0
Sat Jul 22 11:16:32 PDT 2017 ON: 20.00 +20.0 20.07 -15.5 27.5 16.6 32.0 7 9 Alarm State:  0
Sat Jul 22 11:15:30 PDT 2017 ON: 20.00 +20.0 20.05 -15.1 28.1 16.2 32.2 7 10 Alarm State:  0
Sat Jul 22 11:14:29 PDT 2017 ON: 19.99 +20.0 20.04 -14.9 28.3 16.1 32.3 7 10 Alarm State:  0
Sat Jul 22 11:13:27 PDT 2017 ON: 20.00 +20.0 20.04 -15.3 27.7 16.5 32.1 7 10 Alarm State:  0
Sat Jul 22 11:12:26 PDT 2017 ON: 19.99 +20.0 20.05 -15.0 28.2 16.1 32.3 7 10 Alarm State:  0
Sat Jul 22 11:11:24 PDT 2017 ON: 19.99 +20.0 20.05 -15.0 28.2 16.1 32.2 7 10 Alarm State:  0
Sat Jul 22 11:10:23 PDT 2017 ON: 20.00 +20.0 20.06 -15.5 27.4 16.7 31.8 7 9 Alarm State:  0
Sat Jul 22 11:09:21 PDT 2017 ON: 19.99 +20.0 20.04 -15.2 27.9 16.3 32.1 7 10 Alarm State:  0
Sat Jul 22 11:08:20 PDT 2017 ON: 20.00 +20.0 20.04 -15.3 27.8 16.4 32.1 7 10 Alarm State:  0
Sat Jul 22 11:07:18 PDT 2017 ON: 20.00 +20.0 20.07 -15.5 27.4 16.7 32.0 7 9 Alarm State:  0
Sat Jul 22 11:06:17 PDT 2017 ON: 19.99 +20.0 20.06 -15.2 27.9 16.3 32.1 7 9 Alarm State:  0
Sat Jul 22 11:05:15 PDT 2017 ON: 20.00 +20.0 20.05 -15.1 28.1 16.2 32.1 7 9 Alarm State:  0
Sat Jul 22 11:04:14 PDT 2017 ON: 20.00 +20.0 20.06 -15.3 27.7 16.5 32.0 7 10 Alarm State:  0
Sat Jul 22 11:03:12 PDT 2017 ON: 19.99 +20.0 20.05 -15.1 28.0 16.3 32.0 7 10 Alarm State:  0
Sat Jul 22 11:02:11 PDT 2017 ON: 20.00 +20.0 20.05 -15.3 27.8 16.4 32.1 7 9 Alarm State:  0
Sat Jul 22 11:01:09 PDT 2017 ON: 20.00 +20.0 20.05 -15.3 27.7 16.5 32.0 7 10 Alarm State:  0
Sat Jul 22 11:00:08 PDT 2017 ON: 19.99 +20.0 20.05 -15.3 27.7 16.5 32.0 7 10 Alarm State:  0
Sat Jul 22 10:59:06 PDT 2017 ON: 20.00 +20.0 20.05 -15.2 27.9 16.3 32.1 7 9 Alarm State:  0
Sat Jul 22 10:58:05 PDT 2017 ON: 20.00 +20.0 20.06 -15.3 27.7 16.5 32.0 7 9 Alarm State:  0
Sat Jul 22 10:57:03 PDT 2017 ON: 19.99 +20.0 20.05 -14.8 28.5 16.0 32.2 7 10 Alarm State:  0
Sat Jul 22 10:56:02 PDT 2017 ON: 19.99 +20.0 20.05 -15.3 27.8 16.4 32.0 7 10 Alarm State:  0
Sat Jul 22 10:55:00 PDT 2017 ON: 20.00 +20.0 20.06 -15.5 27.5 16.6 31.9 7 9 Alarm State:  0
Sat Jul 22 10:53:59 PDT 2017 ON: 19.99 +20.0 20.06 -15.3 27.7 16.5 32.2 7 9 Alarm State:  0
Sat Jul 22 10:52:57 PDT 2017 ON: 19.99 +20.0 20.05 -15.3 27.8 16.4 32.1 7 10 Alarm State:  0
Sat Jul 22 10:51:56 PDT 2017 ON: 19.99 +20.0 20.06 -15.4 27.6 16.5 31.9 7 9 Alarm State:  0
Sat Jul 22 10:50:54 PDT 2017 ON: 20.00 +20.0 20.05 -14.9 28.3 16.1 32.1 7 9 Alarm State:  0
Sat Jul 22 10:49:53 PDT 2017 ON: 20.00 +20.0 20.06 -15.3 27.8 16.4 32.0 7 10 Alarm State:  0
Sat Jul 22 10:48:51 PDT 2017 ON: 19.98 +20.0 20.04 -15.3 27.7 16.5 32.0 7 10 Alarm State:  0
Sat Jul 22 10:47:50 PDT 2017 ON: 20.00 +20.0 20.05 -15.4 27.6 16.5 32.0 7 9 Alarm State:  0
Sat Jul 22 10:46:48 PDT 2017 ON: 20.00 +20.0 20.05 -15.1 28.1 16.2 32.2 7 10 Alarm State:  0
Sat Jul 22 10:45:47 PDT 2017 ON: 20.00 +20.0 20.07 -15.2 27.9 16.3 32.1 7 9 Alarm State:  0
Sat Jul 22 10:44:46 PDT 2017 ON: 19.99 +20.0 20.05 -15.0 28.2 16.1 32.2 7 10 Alarm State:  0
Sat Jul 22 10:43:44 PDT 2017 ON: 20.00 +20.0 20.04 -15.0 28.2 16.1 32.1 7 10 Alarm State:  0
Sat Jul 22 10:42:43 PDT 2017 ON: 20.00 +20.0 20.06 -15.3 27.8 16.4 32.1 7 9 Alarm State:  0
Sat Jul 22 10:41:41 PDT 2017 ON: 19.98 +20.0 20.06 -15.5 27.5 16.6 32.0 7 10 Alarm State:  0
Sat Jul 22 10:40:40 PDT 2017 ON: 19.98 +20.0 20.04 -15.1 28.0 16.3 32.1 7 10 Alarm State:  0
Sat Jul 22 10:39:38 PDT 2017 ON: 20.00 +20.0 20.05 -15.6 27.3 16.8 31.9 7 9 Alarm State:  0
Sat Jul 22 10:38:37 PDT 2017 ON: 20.00 +20.0 20.05 -15.3 27.7 16.5 32.0 7 10 Alarm State:  0
Sat Jul 22 10:37:35 PDT 2017 ON: 20.00 +20.0 20.07 -15.4 27.6 16.5 32.0 8 9 Alarm State:  0
Sat Jul 22 10:36:34 PDT 2017 ON: 19.99 +20.0 20.06 -15.1 28.0 16.3 32.2 7 10 Alarm State:  0
Sat Jul 22 10:35:32 PDT 2017 ON: 19.99 +20.0 20.05 -15.3 27.7 16.5 32.0 7 9 Alarm State:  0
Sat Jul 22 10:34:31 PDT 2017 ON: 20.00 +20.0 20.05 -15.3 27.7 16.5 32.0 7 9 Alarm State:  0
Sat Jul 22 10:33:29 PDT 2017 ON: 20.00 +20.0 20.05 -14.9 28.3 16.1 32.2 7 10 Alarm State:  0
Sat Jul 22 10:32:28 PDT 2017 ON: 19.99 +20.0 20.04 -15.0 28.2 16.1 32.2 7 10 Alarm State:  0
Sat Jul 22 10:31:26 PDT 2017 ON: 19.99 +20.0 20.05 -15.0 28.2 16.1 32.2 7 9 Alarm State:  0
Sat Jul 22 10:30:25 PDT 2017 ON: 20.00 +20.0 20.04 -15.3 27.7 16.5 32.0 7 10 Alarm State:  0
Sat Jul 22 10:29:23 PDT 2017 ON: 20.00 +20.0 20.06 -15.5 27.4 16.7 31.9 8 9 Alarm State:  0
Sat Jul 22 10:28:22 PDT 2017 ON: 19.99 +20.0 20.05 -15.3 27.8 16.4 32.1 7 9 Alarm State:  0
Sat Jul 22 10:27:20 PDT 2017 ON: 20.00 +20.0 20.04 -15.2 27.9 16.3 32.0 7 10 Alarm State:  0
Sat Jul 22 10:26:19 PDT 2017 ON: 20.00 +20.0 20.06 -15.3 27.8 16.4 32.1 7 9 Alarm State:  0
Sat Jul 22 10:25:17 PDT 2017 ON: 19.99 +20.0 20.05 -15.2 27.9 16.3 32.1 7 10 Alarm State:  0
Sat Jul 22 10:24:16 PDT 2017 ON: 19.99 +20.0 20.04 -15.1 28.0 16.3 32.1 7 10 Alarm State:  0
Sat Jul 22 10:23:14 PDT 2017 ON: 20.00 +20.0 20.05 -15.2 27.9 16.3 32.0 7 10 Alarm State:  0
Sat Jul 22 10:22:13 PDT 2017 ON: 19.99 +20.0 20.06 -15.3 27.8 16.4 32.0 7 10 Alarm State:  0
Sat Jul 22 10:21:11 PDT 2017 ON: 19.99 +20.0 20.05 -15.4 27.6 16.5 32.0 7 10 Alarm State:  0
Sat Jul 22 10:20:10 PDT 2017 ON: 20.00 +20.0 20.05 -15.3 27.8 16.4 32.0 7 9 Alarm State:  0
Sat Jul 22 10:19:08 PDT 2017 ON: 20.00 +20.0 20.06 -15.2 27.9 16.3 32.0 7 10 Alarm State:  0
Sat Jul 22 10:18:07 PDT 2017 ON: 19.99 +20.0 20.05 -15.1 28.0 16.3 32.0 7 10 Alarm State:  0
Sat Jul 22 10:17:05 PDT 2017 ON: 20.00 +20.0 20.04 -15.1 28.1 16.2 32.1 7 10 Alarm State:  0
Sat Jul 22 10:16:04 PDT 2017 ON: 20.01 +20.0 20.07 -15.7 27.2 16.8 31.5 8 9 Alarm State:  0
Sat Jul 22 10:15:02 PDT 2017 ON: 20.00 +20.0 20.06 -15.1 28.1 16.2 31.9 7 10 Alarm State:  0
Sat Jul 22 10:14:01 PDT 2017 ON: 19.99 +20.0 20.06 -15.0 28.2 16.1 32.1 7 10 Alarm State:  0
Sat Jul 22 10:12:59 PDT 2017 ON: 19.99 +20.0 20.04 -15.1 28.0 16.3 32.0 7 10 Alarm State:  0
Sat Jul 22 10:11:58 PDT 2017 ON: 20.00 +20.0 20.05 -15.3 27.8 16.4 31.7 7 9 Alarm State:  0
Sat Jul 22 10:10:56 PDT 2017 ON: 19.99 +20.0 20.06 -15.4 27.6 16.5 31.7 7 9 Alarm State:  0
Sat Jul 22 10:09:55 PDT 2017 ON: 19.99 +20.0 20.06 -15.3 27.7 16.5 31.9 7 9 Alarm State:  0
Sat Jul 22 10:08:53 PDT 2017 ON: 19.99 +20.0 20.06 -15.3 27.7 16.5 31.8 7 9 Alarm State:  0
Sat Jul 22 10:07:52 PDT 2017 ON: 19.99 +20.0 20.05 -15.3 27.7 16.5 31.6 7 10 Alarm State:  0
Sat Jul 22 10:06:50 PDT 2017 ON: 19.99 +20.0 20.03 -15.4 27.6 16.5 31.6 7 10 Alarm State:  0
Sat Jul 22 10:05:49 PDT 2017 ON: 20.00 +20.0 20.07 -15.5 27.5 16.6 31.5 7 8 Alarm State:  0
Sat Jul 22 10:04:47 PDT 2017 ON: 20.00 +20.0 20.07 -15.5 27.5 16.6 31.7 8 9 Alarm State:  0
Sat Jul 22 10:03:46 PDT 2017 ON: 19.99 +20.0 20.05 -14.9 28.3 16.1 32.1 7 10 Alarm State:  0
Sat Jul 22 10:02:44 PDT 2017 ON: 20.00 +20.0 20.05 -15.3 27.8 16.4 31.9 7 10 Alarm State:  0
Sat Jul 22 10:01:43 PDT 2017 ON: 20.00 +20.0 20.04 -15.5 27.5 16.6 31.7 7 10 Alarm State:  0
Sat Jul 22 10:00:41 PDT 2017 ON: 20.00 +20.0 20.06 -15.3 27.8 16.4 32.0 7 9 Alarm State:  0
Sat Jul 22 09:59:40 PDT 2017 ON: 19.99 +20.0 20.05 -15.3 27.8 16.4 32.1 7 10 Alarm State:  0
Sat Jul 22 09:58:38 PDT 2017 ON: 20.00 +20.0 20.05 -15.3 27.7 16.5 32.1 7 9 Alarm State:  0
Sat Jul 22 09:57:37 PDT 2017 ON: 20.00 +20.0 20.06 -15.5 27.5 16.6 32.2 7 9 Alarm State:  0
Sat Jul 22 09:56:35 PDT 2017 ON: 19.99 +20.0 20.05 -15.1 28.1 16.2 32.3 7 10 Alarm State:  0
Sat Jul 22 09:55:34 PDT 2017 ON: 19.99 +20.0 20.04 -15.1 28.0 16.3 32.2 7 10 Alarm State:  0
Sat Jul 22 09:54:32 PDT 2017 ON: 19.99 +20.0 20.05 -15.5 27.5 16.6 32.1 7 10 Alarm State:  0
Sat Jul 22 09:53:31 PDT 2017 ON: 19.99 +20.0 20.05 -15.1 28.1 16.2 32.4 7 10 Alarm State:  0
Sat Jul 22 09:52:29 PDT 2017 ON: 20.00 +20.0 20.07 -15.4 27.6 16.5 32.2 7 9 Alarm State:  0
Sat Jul 22 09:51:28 PDT 2017 ON: 19.99 +20.0 20.06 -15.4 27.6 16.5 32.2 7 10 Alarm State:  0
Sat Jul 22 09:50:27 PDT 2017 ON: 19.99 +20.0 20.05 -15.0 28.2 16.1 32.4 7 9 Alarm State:  0
Sat Jul 22 09:49:25 PDT 2017 ON: 19.99 +20.0 20.05 -15.3 27.7 16.5 32.3 7 9 Alarm State:  0
Sat Jul 22 09:48:24 PDT 2017 ON: 20.00 +20.0 20.06 -14.9 28.4 16.0 32.4 7 9 Alarm State:  0
Sat Jul 22 09:47:22 PDT 2017 ON: 20.00 +20.0 20.06 -15.5 27.5 16.6 32.2 7 10 Alarm State:  0
Sat Jul 22 09:46:21 PDT 2017 ON: 19.99 +20.0 20.04 -15.1 28.0 16.3 32.3 7 10 Alarm State:  0
Sat Jul 22 09:45:19 PDT 2017 ON: 20.00 +20.0 20.06 -15.3 27.8 16.4 32.2 7 9 Alarm State:  0
Sat Jul 22 09:44:18 PDT 2017 ON: 20.00 +20.0 20.07 -15.6 27.3 16.8 32.0 7 9 Alarm State:  0
Sat Jul 22 09:43:16 PDT 2017 ON: 19.99 +20.0 20.05 -15.1 28.1 16.2 32.2 7 10 Alarm State:  0
Sat Jul 22 09:42:15 PDT 2017 ON: 19.99 +20.0 20.04 -14.9 28.4 16.0 32.2 7 10 Alarm State:  0
Sat Jul 22 09:41:13 PDT 2017 ON: 19.99 +20.0 20.06 -15.5 27.4 16.7 32.0 7 9 Alarm State:  0
Sat Jul 22 09:40:12 PDT 2017 ON: 20.00 +20.0 20.05 -15.1 28.0 16.3 32.1 7 10 Alarm State:  0
Sat Jul 22 09:39:10 PDT 2017 ON: 20.00 +20.0 20.05 -14.9 28.3 16.1 32.1 7 10 Alarm State:  0
Sat Jul 22 09:38:09 PDT 2017 ON: 20.00 +20.0 20.06 -15.3 27.8 16.4 32.0 7 9 Alarm State:  0
Sat Jul 22 09:37:07 PDT 2017 ON: 19.99 +20.0 20.05 -15.5 27.4 16.7 32.0 8 9 Alarm State:  0
Sat Jul 22 09:36:06 PDT 2017 ON: 20.00 +20.0 20.05 -15.5 27.4 16.7 31.9 7 10 Alarm State:  0
Sat Jul 22 09:35:04 PDT 2017 ON: 20.00 +20.0 20.05 -14.9 28.3 16.1 32.1 7 10 Alarm State:  0
Sat Jul 22 09:34:03 PDT 2017 ON: 19.99 +20.0 20.04 -15.2 27.9 16.3 32.1 7 10 Alarm State:  0
Sat Jul 22 09:33:01 PDT 2017 ON: 19.99 +20.0 20.04 -15.4 27.6 16.5 32.0 7 10 Alarm State:  0
Sat Jul 22 09:32:00 PDT 2017 ON: 20.00 +20.0 20.06 -15.5 27.4 16.7 31.8 8 9 Alarm State:  0
Sat Jul 22 09:30:58 PDT 2017 ON: 20.00 +20.0 20.07 -15.3 27.7 16.5 32.0 7 9 Alarm State:  0
Sat Jul 22 09:29:57 PDT 2017 ON: 19.99 +20.0 20.05 -15.1 28.0 16.3 32.1 7 10 Alarm State:  0
Sat Jul 22 09:28:55 PDT 2017 ON: 20.00 +20.0 20.07 -15.3 27.7 16.5 32.0 8 9 Alarm State:  0
Sat Jul 22 09:27:54 PDT 2017 ON: 20.00 +20.0 20.07 -15.5 27.5 16.6 32.0 7 9 Alarm State:  0
Sat Jul 22 09:26:52 PDT 2017 ON: 19.99 +20.0 20.05 -15.4 27.6 16.5 31.9 7 10 Alarm State:  0
Sat Jul 22 09:25:51 PDT 2017 ON: 20.00 +20.0 20.05 -15.4 27.6 16.5 32.0 8 9 Alarm State:  0
Sat Jul 22 09:24:49 PDT 2017 ON: 20.00 +20.0 20.05 -15.4 27.6 16.5 32.0 7 10 Alarm State:  0
Sat Jul 22 09:23:48 PDT 2017 ON: 19.99 +20.0 20.06 -15.5 27.5 16.6 32.0 7 10 Alarm State:  0
Sat Jul 22 09:22:46 PDT 2017 ON: 19.99 +20.0 20.04 -15.0 28.2 16.1 32.1 7 10 Alarm State:  0
Sat Jul 22 09:21:45 PDT 2017 ON: 20.00 +20.0 20.06 -15.4 27.6 16.5 32.0 7 9 Alarm State:  0
Sat Jul 22 09:20:43 PDT 2017 ON: 20.00 +20.0 20.05 -15.3 27.8 16.4 32.0 7 10 Alarm State:  0
Sat Jul 22 09:19:42 PDT 2017 ON: 20.00 +20.0 20.05 -14.9 28.4 16.0 32.1 7 10 Alarm State:  0
Sat Jul 22 09:18:40 PDT 2017 ON: 19.99 +20.0 20.05 -15.1 28.0 16.3 32.0 7 9 Alarm State:  0
Sat Jul 22 09:17:39 PDT 2017 ON: 20.00 +20.0 20.06 -15.5 27.4 16.7 32.0 8 9 Alarm State:  0
Sat Jul 22 09:16:37 PDT 2017 ON: 19.99 +20.0 20.07 -15.3 27.7 16.5 32.0 7 9 Alarm State:  0
Sat Jul 22 09:15:36 PDT 2017 ON: 19.99 +20.0 20.05 -15.4 27.6 16.5 32.0 7 9 Alarm State:  0
Sat Jul 22 09:14:34 PDT 2017 ON: 20.00 +20.0 20.06 -15.4 27.6 16.5 32.0 7 8 Alarm State:  0
Sat Jul 22 09:13:33 PDT 2017 ON: 20.00 +20.0 20.06 -15.3 27.7 16.5 32.0 7 9 Alarm State:  0
Sat Jul 22 09:12:31 PDT 2017 ON: 20.00 +20.0 20.07 -15.3 27.8 16.4 32.0 7 9 Alarm State:  0
Sat Jul 22 09:11:30 PDT 2017 ON: 19.99 +20.0 20.05 -15.1 28.1 16.2 32.1 7 10 Alarm State:  0
Sat Jul 22 09:10:28 PDT 2017 ON: 19.99 +20.0 20.03 -15.1 28.0 16.3 32.1 7 10 Alarm State:  0
Sat Jul 22 09:09:27 PDT 2017 ON: 20.00 +20.0 20.04 -15.3 27.8 16.4 31.9 7 10 Alarm State:  0
Sat Jul 22 09:08:25 PDT 2017 ON: 20.00 +20.0 20.07 -15.4 27.6 16.5 32.0 7 9 Alarm State:  0
Sat Jul 22 09:07:24 PDT 2017 ON: 19.98 +20.0 20.04 -15.1 28.1 16.2 32.1 7 10 Alarm State:  0
Sat Jul 22 09:06:22 PDT 2017 ON: 19.98 +20.0 20.04 -15.1 28.0 16.3 32.1 7 10 Alarm State:  0
Sat Jul 22 09:05:21 PDT 2017 ON: 20.00 +20.0 20.05 -15.3 27.8 16.4 32.0 7 9 Alarm State:  0
Sat Jul 22 09:04:20 PDT 2017 ON: 20.00 +20.0 20.06 -15.4 27.6 16.5 32.1 7 9 Alarm State:  0
Sat Jul 22 09:03:18 PDT 2017 ON: 19.99 +20.0 20.05 -15.1 28.0 16.3 32.1 7 10 Alarm State:  0
Sat Jul 22 09:02:17 PDT 2017 ON: 19.99 +20.0 20.05 -15.3 27.8 16.4 32.1 7 9 Alarm State:  0
Sat Jul 22 09:01:15 PDT 2017 ON: 20.01 +20.0 20.05 -15.3 27.8 16.4 32.0 7 9 Alarm State:  0
Sat Jul 22 09:00:14 PDT 2017 ON: 20.00 +20.0 20.06 -15.3 27.8 16.4 32.1 7 10 Alarm State:  0
Sat Jul 22 08:59:12 PDT 2017 ON: 19.99 +20.0 20.05 -14.8 28.5 16.0 32.2 7 10 Alarm State:  0
Sat Jul 22 08:58:11 PDT 2017 ON: 19.99 +20.0 20.04 -15.1 28.0 16.3 32.1 7 10 Alarm State:  0
Sat Jul 22 08:57:09 PDT 2017 ON: 20.00 +20.0 20.05 -15.5 27.5 16.6 32.0 7 9 Alarm State:  0
Sat Jul 22 08:56:08 PDT 2017 ON: 19.99 +20.0 20.03 -15.0 28.2 16.1 32.2 7 10 Alarm State:  0
Sat Jul 22 08:55:06 PDT 2017 ON: 20.00 +20.0 20.07 -15.5 27.4 16.7 31.8 7 9 Alarm State:  0
Sat Jul 22 08:54:05 PDT 2017 ON: 19.99 +20.0 20.07 -15.5 27.5 16.6 32.0 7 9 Alarm State:  0
Sat Jul 22 08:53:03 PDT 2017 ON: 19.99 +20.0 20.04 -15.0 28.2 16.1 32.2 7 10 Alarm State:  0
Sat Jul 22 08:52:02 PDT 2017 ON: 19.99 +20.0 20.04 -15.3 27.8 16.4 32.0 7 9 Alarm State:  0
Sat Jul 22 08:51:00 PDT 2017 ON: 20.00 +20.0 20.05 -15.3 27.8 16.4 32.0 7 9 Alarm State:  0
Sat Jul 22 08:49:59 PDT 2017 ON: 20.00 +20.0 20.05 -15.2 27.9 16.3 32.0 7 10 Alarm State:  0
Sat Jul 22 08:48:47 PDT 2017 ON: 19.99 +20.0 20.06 -15.5 27.5 16.6 31.9 8 9 Alarm State:  0
Sat Jul 22 08:47:36 PDT 2017  Alarm State: 0
Sat Jul 22 08:47:36 PDT 2017 Chiller did not report ON, got this reading: 
Sat Jul 22 08:46:34 PDT 2017 ON: 20.00 +20.0 20.05 -15.4 27.6 16.5 31.9 7 9 Alarm State:  0
Sat Jul 22 08:45:33 PDT 2017 ON: 20.00 +20.0 20.05 -15.3 27.8 16.4 32.0 7 10 Alarm State:  0
Sat Jul 22 08:44:31 PDT 2017 ON: 19.99 +20.0 20.06 -15.3 27.7 16.5 32.1 7 9 Alarm State:  0
Sat Jul 22 08:43:30 PDT 2017 ON: 19.99 +20.0 20.04 -15.3 27.8 16.4 32.0 7 10 Alarm State:  0
Sat Jul 22 08:42:28 PDT 2017 ON: 19.99 +20.0 20.04 -15.3 27.7 16.5 32.0 7 10 Alarm State:  0
Sat Jul 22 08:41:27 PDT 2017 ON: 20.00 +20.0 20.06 -15.4 27.6 16.5 32.0 7 9 Alarm State:  0
Sat Jul 22 08:40:25 PDT 2017 ON: 20.00 +20.0 20.04 -15.1 28.1 16.2 32.1 7 10 Alarm State:  0
Sat Jul 22 08:39:24 PDT 2017 ON: 20.00 +20.0 20.06 -15.6 27.3 16.8 31.8 7 9 Alarm State:  0
Sat Jul 22 08:38:22 PDT 2017 ON: 19.99 +20.0 20.05 -15.2 27.9 16.3 32.1 7 9 Alarm State:  0
Sat Jul 22 08:37:21 PDT 2017 ON: 20.00 +20.0 20.06 -15.5 27.5 16.6 32.0 7 9 Alarm State:  0
Sat Jul 22 08:36:20 PDT 2017 ON: 20.00 +20.0 20.07 -15.3 27.7 16.5 32.0 7 9 Alarm State:  0
Sat Jul 22 08:35:18 PDT 2017 ON: 19.99 +20.0 20.04 -15.4 27.6 16.5 32.0 7 10 Alarm State:  0
Sat Jul 22 08:34:07 PDT 2017  Alarm State: 0
Sat Jul 22 08:34:07 PDT 2017 Chiller did not report ON, got this reading: 
Sat Jul 22 08:33:05 PDT 2017 ON: 20.00 +20.0 20.05 -15.1 28.0 16.3 32.1 7 9 Alarm State:  0
Sat Jul 22 08:32:04 PDT 2017 ON: 19.99 +20.0 20.07 -15.3 27.7 16.5 32.1 7 9 Alarm State:  0
Sat Jul 22 08:31:02 PDT 2017 ON: 19.99 +20.0 20.05 -15.3 27.7 16.5 32.0 7 9 Alarm State:  0
Sat Jul 22 08:30:01 PDT 2017 ON: 20.00 +20.0 20.06 -15.3 27.7 16.5 32.0 7 9 Alarm State:  0
Sat Jul 22 08:28:59 PDT 2017 ON: 20.00 +20.0 20.05 -15.3 27.8 16.4 31.9 7 10 Alarm State:  0
Sat Jul 22 08:27:58 PDT 2017 ON: 19.99 +20.0 20.05 -15.3 27.7 16.5 32.0 7 9 Alarm State:  0
Sat Jul 22 08:26:56 PDT 2017 ON: 19.99 +20.0 20.04 -15.3 27.7 16.5 32.0 7 10 Alarm State:  0
Sat Jul 22 08:25:55 PDT 2017 ON: 20.00 +20.0 20.04 -15.3 27.8 16.4 32.0 7 10 Alarm State:  0
Sat Jul 22 08:24:53 PDT 2017 ON: 19.99 +20.0 20.04 -15.2 27.9 16.3 32.1 7 10 Alarm State:  0
Sat Jul 22 08:23:52 PDT 2017 ON: 20.00 +20.0 20.05 -15.3 27.8 16.4 32.0 7 9 Alarm State:  0
Sat Jul 22 08:22:50 PDT 2017 ON: 20.00 +20.0 20.05 -15.3 27.7 16.5 31.9 7 10 Alarm State:  0
Sat Jul 22 08:21:49 PDT 2017 ON: 20.00 +20.0 20.05 -15.1 28.0 16.3 32.1 7 9 Alarm State:  0
Sat Jul 22 08:20:47 PDT 2017 ON: 19.99 +20.0 20.06 -15.5 27.5 16.6 32.1 7 9 Alarm State:  0
Sat Jul 22 08:19:46 PDT 2017 ON: 19.99 +20.0 20.05 -15.5 27.5 16.6 32.0 7 10 Alarm State:  0
Sat Jul 22 08:18:44 PDT 2017 ON: 20.00 +20.0 20.05 -15.3 27.8 16.4 32.0 7 9 Alarm State:  0
Sat Jul 22 08:17:43 PDT 2017 ON: 20.00 +20.0 20.07 -15.5 27.5 16.6 31.9 7 9 Alarm State:  0
Sat Jul 22 08:16:41 PDT 2017 ON: 20.00 +20.0 20.07 -15.3 27.7 16.5 31.9 7 9 Alarm State:  0
Sat Jul 22 08:15:40 PDT 2017 ON: 19.99 +20.0 20.06 -15.2 27.9 16.3 32.1 7 9 Alarm State:  0
Sat Jul 22 08:14:38 PDT 2017 ON: 19.99 +20.0 20.04 -15.1 28.0 16.3 32.1 7 9 Alarm State:  0
Sat Jul 22 08:13:37 PDT 2017 ON: 20.01 +20.0 20.06 -15.6 27.3 16.8 31.8 7 9 Alarm State:  0
Sat Jul 22 08:12:35 PDT 2017 ON: 20.01 +20.0 20.08 -16.0 26.7 17.1 31.4 8 8 Alarm State:  0
Sat Jul 22 08:11:34 PDT 2017 ON: 19.99 +20.0 20.05 -14.9 28.4 16.0 32.2 7 10 Alarm State:  0
Sat Jul 22 08:10:32 PDT 2017 ON: 19.99 +20.0 20.06 -15.3 27.8 16.4 32.1 7 9 Alarm State:  0
Sat Jul 22 08:09:31 PDT 2017 ON: 19.99 +20.0 20.04 -15.3 27.8 16.4 32.0 7 10 Alarm State:  0
Sat Jul 22 08:08:29 PDT 2017 ON: 20.00 +20.0 20.05 -15.3 27.7 16.5 32.0 7 9 Alarm State:  0
Sat Jul 22 08:07:28 PDT 2017 ON: 20.00 +20.0 20.06 -15.4 27.6 16.5 32.0 8 9 Alarm State:  0
Sat Jul 22 08:06:26 PDT 2017 ON: 19.99 +20.0 20.06 -15.5 27.5 16.6 32.0 7 9 Alarm State:  0
Sat Jul 22 08:05:25 PDT 2017 ON: 20.00 +20.0 20.05 -15.1 28.0 16.3 32.1 7 9 Alarm State:  0
Sat Jul 22 08:04:23 PDT 2017 ON: 20.00 +20.0 20.06 -15.4 27.6 16.5 32.0 7 9 Alarm State:  0
Sat Jul 22 08:03:22 PDT 2017 ON: 19.99 +20.0 20.05 -15.3 27.7 16.5 32.0 7 10 Alarm State:  0
Sat Jul 22 08:02:20 PDT 2017 ON: 20.00 +20.0 20.05 -15.3 27.8 16.4 32.1 7 9 Alarm State:  0
Sat Jul 22 08:01:19 PDT 2017 ON: 19.99 +20.0 20.05 -15.3 27.8 16.4 32.0 7 10 Alarm State:  0
Sat Jul 22 08:00:17 PDT 2017 ON: 19.99 +20.0 20.05 -15.6 27.3 16.8 31.9 7 9 Alarm State:  0
Sat Jul 22 07:59:16 PDT 2017 ON: 20.00 +20.0 20.06 -15.5 27.4 16.7 31.7 7 8 Alarm State:  0
Sat Jul 22 07:58:14 PDT 2017 ON: 20.00 +20.0 20.05 -15.1 28.0 16.3 32.1 7 10 Alarm State:  0
Sat Jul 22 07:57:13 PDT 2017 ON: 19.99 +20.0 20.06 -15.3 27.7 16.5 32.0 7 9 Alarm State:  0
Sat Jul 22 07:56:11 PDT 2017 ON: 19.99 +20.0 20.03 -15.0 28.2 16.1 32.1 7 10 Alarm State:  0
Sat Jul 22 07:55:10 PDT 2017 ON: 20.00 +20.0 20.05 -15.4 27.6 16.5 31.9 7 9 Alarm State:  0
Sat Jul 22 07:54:08 PDT 2017 ON: 19.99 +20.0 20.04 -15.2 27.9 16.3 32.0 7 10 Alarm State:  0
Sat Jul 22 07:53:07 PDT 2017 ON: 20.00 +20.0 20.05 -15.1 28.1 16.2 32.2 7 10 Alarm State:  0
Sat Jul 22 07:52:05 PDT 2017 ON: 19.99 +20.0 20.06 -15.3 27.8 16.4 32.1 7 9 Alarm State:  0
Sat Jul 22 07:51:04 PDT 2017 ON: 19.99 +20.0 20.06 -15.3 27.8 16.4 32.0 7 9 Alarm State:  0
Sat Jul 22 07:50:02 PDT 2017 ON: 20.00 +20.0 20.06 -15.4 27.6 16.5 32.0 7 9 Alarm State:  0
Sat Jul 22 07:49:01 PDT 2017 ON: 19.99 +20.0 20.05 -15.2 27.9 16.3 32.1 7 10 Alarm State:  0
Sat Jul 22 07:47:59 PDT 2017 ON: 19.99 +20.0 20.04 -15.1 28.1 16.2 32.1 7 10 Alarm State:  0
Sat Jul 22 07:46:58 PDT 2017 ON: 20.00 +20.0 20.06 -15.5 27.5 16.6 31.9 7 9 Alarm State:  0
Sat Jul 22 07:45:56 PDT 2017 ON: 19.99 +20.0 20.06 -15.1 28.0 16.3 32.1 7 9 Alarm State:  0
Sat Jul 22 07:44:55 PDT 2017 ON: 19.99 +20.0 20.05 -15.1 28.0 16.3 32.1 7 10 Alarm State:  0
Sat Jul 22 07:43:53 PDT 2017 ON: 19.99 +20.0 20.05 -15.3 27.7 16.5 32.1 7 10 Alarm State:  0
Sat Jul 22 07:42:52 PDT 2017 ON: 19.99 +20.0 20.05 -15.3 27.7 16.5 32.1 7 9 Alarm State:  0
Sat Jul 22 07:41:50 PDT 2017 ON: 20.00 +20.0 20.07 -15.6 27.3 16.8 31.8 7 9 Alarm State:  0
Sat Jul 22 07:40:49 PDT 2017 ON: 19.99 +20.0 20.06 -15.3 27.7 16.5 32.1 7 9 Alarm State:  0
Sat Jul 22 07:39:47 PDT 2017 ON: 19.99 +20.0 20.04 -15.3 27.7 16.5 32.1 7 10 Alarm State:  0
Sat Jul 22 07:38:46 PDT 2017 ON: 20.00 +20.0 20.06 -15.3 27.7 16.5 32.0 7 9 Alarm State:  0
Sat Jul 22 07:37:44 PDT 2017 ON: 19.99 +20.0 20.04 -15.3 27.8 16.4 32.0 7 10 Alarm State:  0
Sat Jul 22 07:36:43 PDT 2017 ON: 20.00 +20.0 20.07 -15.6 27.3 16.8 31.9 8 9 Alarm State:  0
Sat Jul 22 07:35:41 PDT 2017 ON: 19.99 +20.0 20.06 -15.2 27.9 16.3 32.1 7 9 Alarm State:  0
Sat Jul 22 07:34:40 PDT 2017 ON: 19.99 +20.0 20.05 -15.4 27.6 16.5 32.0 7 9 Alarm State:  0
Sat Jul 22 07:33:38 PDT 2017 ON: 19.99 +20.0 20.05 -15.6 27.3 16.8 31.7 7 9 Alarm State:  0
Sat Jul 22 07:32:37 PDT 2017 ON: 20.00 +20.0 20.07 -15.3 27.7 16.5 32.0 7 8 Alarm State:  0
Sat Jul 22 07:31:35 PDT 2017 ON: 19.99 +20.0 20.06 -15.4 27.6 16.5 32.0 7 9 Alarm State:  0
Sat Jul 22 07:30:34 PDT 2017 ON: 19.99 +20.0 20.05 -15.2 27.9 16.3 32.0 7 9 Alarm State:  0
Sat Jul 22 07:29:32 PDT 2017 ON: 20.00 +20.0 20.05 -15.3 27.8 16.4 32.1 7 9 Alarm State:  0
Sat Jul 22 07:28:31 PDT 2017 ON: 19.99 +20.0 20.05 -15.3 27.8 16.4 32.1 7 10 Alarm State:  0
Sat Jul 22 07:27:29 PDT 2017 ON: 20.00 +20.0 20.05 -15.3 27.8 16.4 32.0 7 9 Alarm State:  0
Sat Jul 22 07:26:28 PDT 2017 ON: 20.00 +20.0 20.05 -15.3 27.8 16.4 31.9 7 10 Alarm State:  0
Sat Jul 22 07:25:26 PDT 2017 ON: 19.99 +20.0 20.05 -15.3 27.7 16.5 32.0 7 9 Alarm State:  0
Sat Jul 22 07:24:25 PDT 2017 ON: 20.00 +20.0 20.06 -15.6 27.3 16.8 31.9 7 9 Alarm State:  0
Sat Jul 22 07:23:23 PDT 2017 ON: 20.00 +20.0 20.07 -15.5 27.4 16.7 31.8 7 9 Alarm State:  0
Sat Jul 22 07:22:22 PDT 2017 ON: 19.99 +20.0 20.04 -15.2 27.9 16.3 32.1 7 10 Alarm State:  0
Sat Jul 22 07:21:20 PDT 2017 ON: 19.99 +20.0 20.04 -15.4 27.6 16.5 31.9 7 9 Alarm State:  0
Sat Jul 22 07:20:19 PDT 2017 ON: 20.00 +20.0 20.07 -15.4 27.6 16.5 32.0 7 8 Alarm State:  0
Sat Jul 22 07:19:17 PDT 2017 ON: 19.99 +20.0 20.04 -15.2 27.9 16.3 32.0 7 10 Alarm State:  0
Sat Jul 22 07:18:16 PDT 2017 ON: 19.99 +20.0 20.04 -15.3 27.8 16.4 32.1 7 9 Alarm State:  0
Sat Jul 22 07:17:14 PDT 2017 ON: 20.01 +20.0 20.06 -15.6 27.3 16.8 31.8 7 9 Alarm State:  0
Sat Jul 22 07:16:13 PDT 2017 ON: 20.00 +20.0 20.07 -15.3 27.8 16.4 32.0 7 9 Alarm State:  0
Sat Jul 22 07:15:11 PDT 2017 ON: 19.99 +20.0 20.05 -15.1 28.0 16.3 32.1 7 10 Alarm State:  0
Sat Jul 22 07:14:10 PDT 2017 ON: 19.99 +20.0 20.05 -15.3 27.8 16.4 32.1 7 9 Alarm State:  0
Sat Jul 22 07:13:08 PDT 2017 ON: 19.99 +20.0 20.04 -15.3 27.7 16.5 32.1 7 9 Alarm State:  0
Sat Jul 22 07:12:07 PDT 2017 ON: 20.00 +20.0 20.05 -15.3 27.8 16.4 32.1 7 9 Alarm State:  0
Sat Jul 22 07:11:05 PDT 2017 ON: 20.00 +20.0 20.07 -15.3 27.8 16.4 31.9 7 9 Alarm State:  0
Sat Jul 22 07:10:04 PDT 2017 ON: 19.99 +20.0 20.05 -15.0 28.2 16.1 32.2 7 10 Alarm State:  0
Sat Jul 22 07:09:02 PDT 2017 ON: 20.00 +20.0 20.05 -15.3 27.7 16.5 32.0 7 9 Alarm State:  0
Sat Jul 22 07:08:01 PDT 2017 ON: 20.00 +20.0 20.06 -15.4 27.6 16.5 31.9 7 9 Alarm State:  0
Sat Jul 22 07:06:59 PDT 2017 ON: 19.99 +20.0 20.06 -15.5 27.4 16.7 32.0 7 9 Alarm State:  0
Sat Jul 22 07:05:58 PDT 2017 ON: 20.00 +20.0 20.06 -15.3 27.7 16.5 31.8 7 9 Alarm State:  0
Sat Jul 22 07:04:56 PDT 2017 ON: 20.00 +20.0 20.04 -15.2 27.9 16.3 32.0 7 10 Alarm State:  0
Sat Jul 22 07:03:55 PDT 2017 ON: 19.99 +20.0 20.05 -15.4 27.6 16.5 32.0 7 10 Alarm State:  0
Sat Jul 22 07:02:53 PDT 2017 ON: 19.99 +20.0 20.05 -15.3 27.7 16.5 32.1 7 10 Alarm State:  0
Sat Jul 22 07:01:52 PDT 2017 ON: 19.99 +20.0 20.05 -15.3 27.7 16.5 32.0 7 9 Alarm State:  0
Sat Jul 22 07:00:50 PDT 2017 ON: 20.00 +20.0 20.06 -15.3 27.7 16.5 32.0 7 9 Alarm State:  0
Sat Jul 22 06:59:49 PDT 2017 ON: 20.00 +20.0 20.06 -15.3 27.7 16.5 32.0 7 9 Alarm State:  0
Sat Jul 22 06:58:47 PDT 2017 ON: 20.00 +20.0 20.06 -15.2 27.9 16.3 32.1 7 9 Alarm State:  0
Sat Jul 22 06:57:46 PDT 2017 ON: 19.99 +20.0 20.06 -15.3 27.8 16.4 32.0 7 9 Alarm State:  0
Sat Jul 22 06:56:44 PDT 2017 ON: 19.98 +20.0 20.05 -15.5 27.5 16.6 32.1 7 9 Alarm State:  0
Sat Jul 22 06:55:43 PDT 2017 ON: 20.00 +20.0 20.06 -15.5 27.5 16.6 32.0 8 9 Alarm State:  0
Sat Jul 22 06:54:41 PDT 2017 ON: 20.00 +20.0 20.06 -15.4 27.6 16.5 32.1 7 9 Alarm State:  0
Sat Jul 22 06:53:40 PDT 2017 ON: 19.99 +20.0 20.06 -15.4 27.6 16.5 31.8 7 9 Alarm State:  0
Sat Jul 22 06:52:38 PDT 2017 ON: 19.98 +20.0 20.05 -15.0 28.2 16.1 32.1 7 9 Alarm State:  0
Sat Jul 22 06:51:37 PDT 2017 ON: 20.00 +20.0 20.07 -15.6 27.3 16.8 31.9 7 8 Alarm State:  0
Sat Jul 22 06:50:35 PDT 2017 ON: 20.00 +20.0 20.05 -15.3 27.7 16.5 32.0 7 10 Alarm State:  0
Sat Jul 22 06:49:34 PDT 2017 ON: 19.99 +20.0 20.05 -15.3 27.7 16.5 32.0 7 10 Alarm State:  0
Sat Jul 22 06:48:32 PDT 2017 ON: 20.00 +20.0 20.05 -15.3 27.8 16.4 32.0 7 9 Alarm State:  0
Sat Jul 22 06:47:31 PDT 2017 ON: 20.00 +20.0 20.05 -15.1 28.0 16.3 32.1 7 9 Alarm State:  0
Sat Jul 22 06:46:29 PDT 2017 ON: 20.00 +20.0 20.08 -15.7 27.2 16.8 31.6 7 9 Alarm State:  0
Sat Jul 22 06:45:28 PDT 2017 ON: 19.99 +20.0 20.05 -15.1 28.1 16.2 32.1 7 10 Alarm State:  0
Sat Jul 22 06:44:26 PDT 2017 ON: 20.00 +20.0 20.04 -15.3 27.8 16.4 32.0 7 10 Alarm State:  0
Sat Jul 22 06:43:25 PDT 2017 ON: 20.00 +20.0 20.05 -15.5 27.5 16.6 31.8 7 9 Alarm State:  0
Sat Jul 22 06:42:23 PDT 2017 ON: 19.99 +20.0 20.06 -15.5 27.5 16.6 31.8 7 9 Alarm State:  0
Sat Jul 22 06:41:22 PDT 2017 ON: 19.99 +20.0 20.05 -15.2 27.9 16.3 32.1 7 9 Alarm State:  0
Sat Jul 22 06:40:20 PDT 2017 ON: 20.01 +20.0 20.06 -15.3 27.7 16.5 32.0 7 9 Alarm State:  0
Sat Jul 22 06:39:19 PDT 2017 ON: 20.00 +20.0 20.08 -15.2 27.9 16.3 32.0 7 9 Alarm State:  0
Sat Jul 22 06:38:17 PDT 2017 ON: 19.99 +20.0 20.05 -15.0 28.2 16.1 32.2 7 10 Alarm State:  0
Sat Jul 22 06:37:16 PDT 2017 ON: 19.99 +20.0 20.05 -15.5 27.5 16.6 32.0 7 9 Alarm State:  0
Sat Jul 22 06:36:14 PDT 2017 ON: 20.00 +20.0 20.04 -15.4 27.6 16.5 31.9 7 9 Alarm State:  0
Sat Jul 22 06:35:13 PDT 2017 ON: 20.00 +20.0 20.06 -15.7 27.2 16.8 32.0 7 9 Alarm State:  0
Sat Jul 22 06:34:11 PDT 2017 ON: 19.99 +20.0 20.05 -15.1 28.1 16.2 32.2 7 10 Alarm State:  0
Sat Jul 22 06:33:10 PDT 2017 ON: 20.00 +20.0 20.05 -15.1 28.1 16.2 32.1 7 9 Alarm State:  0
Sat Jul 22 06:32:08 PDT 2017 ON: 20.00 +20.0 20.06 -15.5 27.4 16.7 32.0 7 9 Alarm State:  0
Sat Jul 22 06:31:07 PDT 2017 ON: 19.99 +20.0 20.05 -15.2 27.9 16.3 32.0 7 10 Alarm State:  0
Sat Jul 22 06:30:05 PDT 2017 ON: 19.99 +20.0 20.04 -14.9 28.3 16.1 32.2 7 10 Alarm State:  0
Sat Jul 22 06:29:04 PDT 2017 ON: 20.00 +20.0 20.05 -15.3 27.7 16.5 32.0 7 9 Alarm State:  0
Sat Jul 22 06:28:02 PDT 2017 ON: 20.00 +20.0 20.06 -15.3 27.8 16.4 32.0 7 9 Alarm State:  0
Sat Jul 22 06:27:01 PDT 2017 ON: 20.00 +20.0 20.04 -15.2 27.9 16.3 32.1 7 10 Alarm State:  0
Sat Jul 22 06:25:59 PDT 2017 ON: 20.00 +20.0 20.06 -15.5 27.4 16.7 31.8 7 9 Alarm State:  0
Sat Jul 22 06:24:58 PDT 2017 ON: 19.99 +20.0 20.04 -15.3 27.7 16.5 32.0 7 10 Alarm State:  0
Sat Jul 22 06:23:56 PDT 2017 ON: 20.00 +20.0 20.06 -15.3 27.7 16.5 32.0 7 9 Alarm State:  0
Sat Jul 22 06:22:55 PDT 2017 ON: 19.99 +20.0 20.05 -15.1 28.1 16.2 32.2 7 10 Alarm State:  0
Sat Jul 22 06:21:53 PDT 2017 ON: 19.99 +20.0 20.04 -15.1 28.0 16.3 32.2 7 10 Alarm State:  0
Sat Jul 22 06:20:52 PDT 2017 ON: 19.99 +20.0 20.05 -15.3 27.7 16.5 32.0 7 10 Alarm State:  0
Sat Jul 22 06:19:40 PDT 2017  Alarm State: 0
Sat Jul 22 06:19:40 PDT 2017 Chiller did not report ON, got this reading: 
Sat Jul 22 06:18:39 PDT 2017 ON: 20.00 +20.0 20.05 -15.3 27.7 16.5 32.0 7 9 Alarm State:  0
Sat Jul 22 06:17:37 PDT 2017 ON: 19.99 +20.0 20.06 -15.6 27.3 16.8 31.9 7 9 Alarm State:  0
Sat Jul 22 06:16:36 PDT 2017 ON: 19.99 +20.0 20.03 -15.1 28.0 16.3 32.1 7 10 Alarm State:  0
Sat Jul 22 06:15:35 PDT 2017 ON: 20.00 +20.0 20.06 -15.2 27.9 16.3 32.1 7 9 Alarm State:  0
Sat Jul 22 06:14:33 PDT 2017 ON: 19.99 +20.0 20.06 -15.5 27.5 16.6 32.0 7 10 Alarm State:  0
Sat Jul 22 06:13:32 PDT 2017 ON: 19.99 +20.0 20.04 -15.1 28.1 16.2 32.1 7 10 Alarm State:  0
Sat Jul 22 06:12:30 PDT 2017 ON: 20.00 +20.0 20.06 -15.3 27.8 16.4 32.0 7 9 Alarm State:  0
Sat Jul 22 06:11:28 PDT 2017 ON: 19.99 +20.0 20.05 -15.2 27.9 16.3 32.1 7 9 Alarm State:  0
Sat Jul 22 06:10:27 PDT 2017 ON: 19.99 +20.0 20.06 -15.4 27.6 16.5 32.0 7 9 Alarm State:  0
Sat Jul 22 06:09:25 PDT 2017 ON: 20.00 +20.0 20.05 -15.4 27.6 16.5 31.9 7 9 Alarm State:  0
Sat Jul 22 06:08:24 PDT 2017 ON: 20.00 +20.0 20.05 -15.3 27.7 16.5 31.9 7 10 Alarm State:  0
Sat Jul 22 06:07:22 PDT 2017 ON: 19.99 +20.0 20.06 -15.4 27.6 16.5 32.0 7 9 Alarm State:  0
Sat Jul 22 06:06:21 PDT 2017 ON: 19.99 +20.0 20.05 -15.3 27.7 16.5 32.0 7 9 Alarm State:  0
Sat Jul 22 06:05:19 PDT 2017 ON: 20.00 +20.0 20.05 -15.3 27.7 16.5 31.8 7 10 Alarm State:  0
Sat Jul 22 06:04:18 PDT 2017 ON: 19.99 +20.0 20.05 -15.4 27.6 16.5 31.9 7 10 Alarm State:  0
Sat Jul 22 06:03:17 PDT 2017 ON: 19.99 +20.0 20.05 -15.5 27.5 16.6 32.0 7 9 Alarm State:  0
Sat Jul 22 06:02:15 PDT 2017 ON: 20.00 +20.0 20.06 -15.6 27.3 16.8 31.7 7 9 Alarm State:  0
Sat Jul 22 06:01:14 PDT 2017 ON: 20.00 +20.0 20.05 -15.3 27.7 16.5 32.0 7 10 Alarm State:  0
Sat Jul 22 06:00:12 PDT 2017 ON: 19.99 +20.0 20.06 -15.4 27.6 16.5 32.1 7 9 Alarm State:  0
Sat Jul 22 05:59:11 PDT 2017 ON: 20.00 +20.0 20.07 -15.4 27.6 16.5 32.0 7 9 Alarm State:  0
Sat Jul 22 05:58:09 PDT 2017 ON: 19.99 +20.0 20.05 -15.2 27.9 16.3 32.1 7 9 Alarm State:  0
Sat Jul 22 05:57:08 PDT 2017 ON: 19.99 +20.0 20.05 -15.2 27.9 16.3 32.1 7 9 Alarm State:  0
Sat Jul 22 05:56:06 PDT 2017 ON: 20.00 +20.0 20.06 -15.5 27.4 16.7 31.9 7 9 Alarm State:  0
Sat Jul 22 05:55:05 PDT 2017 ON: 19.99 +20.0 20.05 -15.3 27.8 16.4 32.1 7 9 Alarm State:  0
Sat Jul 22 05:54:03 PDT 2017 ON: 20.00 +20.0 20.06 -15.5 27.5 16.6 32.0 8 9 Alarm State:  0
Sat Jul 22 05:53:02 PDT 2017 ON: 19.99 +20.0 20.04 -15.4 27.6 16.5 32.0 7 10 Alarm State:  0
Sat Jul 22 05:52:00 PDT 2017 ON: 20.00 +20.0 20.06 -15.6 27.3 16.8 32.0 7 8 Alarm State:  0
Sat Jul 22 05:50:59 PDT 2017 ON: 20.00 +20.0 20.06 -15.3 27.8 16.4 32.0 7 9 Alarm State:  0
Sat Jul 22 05:49:57 PDT 2017 ON: 19.99 +20.0 20.05 -15.5 27.5 16.6 32.0 7 10 Alarm State:  0
Sat Jul 22 05:48:56 PDT 2017 ON: 20.00 +20.0 20.05 -15.1 28.0 16.3 32.1 7 9 Alarm State:  0
Sat Jul 22 05:47:54 PDT 2017 ON: 20.00 +20.0 20.06 -15.3 27.8 16.4 32.0 7 9 Alarm State:  0
Sat Jul 22 05:46:52 PDT 2017 ON: 19.99 +20.0 20.06 -15.5 27.4 16.7 31.9 7 9 Alarm State:  0
Sat Jul 22 05:45:51 PDT 2017 ON: 19.99 +20.0 20.05 -15.4 27.6 16.5 31.9 7 9 Alarm State:  0
Sat Jul 22 05:44:49 PDT 2017 ON: 20.00 +20.0 20.06 -15.4 27.6 16.5 32.0 7 9 Alarm State:  0
Sat Jul 22 05:43:48 PDT 2017 ON: 20.00 +20.0 20.05 -15.3 27.7 16.5 31.9 7 10 Alarm State:  0
Sat Jul 22 05:42:47 PDT 2017 ON: 19.99 +20.0 20.05 -15.3 27.8 16.4 31.9 7 10 Alarm State:  0
Sat Jul 22 05:41:45 PDT 2017 ON: 19.99 +20.0 20.05 -15.4 27.6 16.5 32.0 7 9 Alarm State:  0
Sat Jul 22 05:40:44 PDT 2017 ON: 20.00 +20.0 20.05 -15.2 27.9 16.3 32.1 7 9 Alarm State:  0
Sat Jul 22 05:39:42 PDT 2017 ON: 20.00 +20.0 20.06 -15.1 28.0 16.3 32.0 7 9 Alarm State:  0
Sat Jul 22 05:38:41 PDT 2017 ON: 19.99 +20.0 20.05 -15.1 28.0 16.3 32.1 7 10 Alarm State:  0
Sat Jul 22 05:37:39 PDT 2017 ON: 19.99 +20.0 20.04 -15.3 27.7 16.5 32.1 7 9 Alarm State:  0
Sat Jul 22 05:36:38 PDT 2017 ON: 20.00 +20.0 20.04 -15.5 27.4 16.7 31.9 7 9 Alarm State:  0
Sat Jul 22 05:35:36 PDT 2017 ON: 20.00 +20.0 20.07 -15.5 27.4 16.7 31.9 7 8 Alarm State:  0
Sat Jul 22 05:34:35 PDT 2017 ON: 19.99 +20.0 20.05 -15.4 27.6 16.5 32.0 7 10 Alarm State:  0
Sat Jul 22 05:33:33 PDT 2017 ON: 19.99 +20.0 20.05 -15.5 27.5 16.6 32.0 7 9 Alarm State:  0
Sat Jul 22 05:32:32 PDT 2017 ON: 20.00 +20.0 20.05 -15.4 27.6 16.5 32.0 7 9 Alarm State:  0
Sat Jul 22 05:31:30 PDT 2017 ON: 20.00 +20.0 20.06 -15.3 27.7 16.5 32.0 7 9 Alarm State:  0
Sat Jul 22 05:30:29 PDT 2017 ON: 20.00 +20.0 20.08 -15.5 27.4 16.7 31.9 7 9 Alarm State:  0
Sat Jul 22 05:29:27 PDT 2017 ON: 19.99 +20.0 20.06 -15.3 27.8 16.4 32.0 8 10 Alarm State:  0
Sat Jul 22 05:28:26 PDT 2017 ON: 19.99 +20.0 20.06 -15.3 27.7 16.5 32.0 7 9 Alarm State:  0
Sat Jul 22 05:27:24 PDT 2017 ON: 19.99 +20.0 20.04 -15.3 27.7 16.5 32.0 7 9 Alarm State:  0
Sat Jul 22 05:26:23 PDT 2017 ON: 20.00 +20.0 20.06 -15.6 27.3 16.8 31.9 8 9 Alarm State:  0
Sat Jul 22 05:25:21 PDT 2017 ON: 20.00 +20.0 20.06 -15.3 27.8 16.4 32.1 7 10 Alarm State:  0
Sat Jul 22 05:24:20 PDT 2017 ON: 19.99 +20.0 20.05 -15.2 27.9 16.3 32.1 7 10 Alarm State:  0
Sat Jul 22 05:23:18 PDT 2017 ON: 19.99 +20.0 20.05 -15.4 27.6 16.5 32.0 7 9 Alarm State:  0
Sat Jul 22 05:22:17 PDT 2017 ON: 20.00 +20.0 20.07 -15.5 27.4 16.7 32.0 7 8 Alarm State:  0
Sat Jul 22 05:21:15 PDT 2017 ON: 19.99 +20.0 20.05 -15.1 28.1 16.2 32.2 7 10 Alarm State:  0
Sat Jul 22 05:20:14 PDT 2017 ON: 19.99 +20.0 20.04 -15.3 27.8 16.4 32.0 7 10 Alarm State:  0
Sat Jul 22 05:19:12 PDT 2017 ON: 20.00 +20.0 20.06 -15.4 27.6 16.5 32.0 7 9 Alarm State:  0
Sat Jul 22 05:18:11 PDT 2017 ON: 20.00 +20.0 20.07 -15.5 27.4 16.7 31.9 8 9 Alarm State:  0
Sat Jul 22 05:17:09 PDT 2017 ON: 19.99 +20.0 20.05 -15.1 28.1 16.2 32.1 7 10 Alarm State:  0
Sat Jul 22 05:16:08 PDT 2017 ON: 20.00 +20.0 20.05 -15.5 27.5 16.6 32.0 7 9 Alarm State:  0
Sat Jul 22 05:15:06 PDT 2017 ON: 20.00 +20.0 20.04 -15.3 27.8 16.4 32.1 7 10 Alarm State:  0
Sat Jul 22 05:14:05 PDT 2017 ON: 20.00 +20.0 20.05 -15.3 27.7 16.5 32.0 7 9 Alarm State:  0
Sat Jul 22 05:13:03 PDT 2017 ON: 19.99 +20.0 20.06 -15.5 27.4 16.7 31.7 7 9 Alarm State:  0
Sat Jul 22 05:12:02 PDT 2017 ON: 20.00 +20.0 20.06 -15.3 27.8 16.4 32.0 7 9 Alarm State:  0
Sat Jul 22 05:11:00 PDT 2017 ON: 19.99 +20.0 20.04 -15.3 27.7 16.5 32.0 7 10 Alarm State:  0
Sat Jul 22 05:09:59 PDT 2017 ON: 20.00 +20.0 20.06 -15.3 27.8 16.4 32.1 7 9 Alarm State:  0
Sat Jul 22 05:08:57 PDT 2017 ON: 19.99 +20.0 20.05 -15.3 27.7 16.5 32.0 7 10 Alarm State:  0
Sat Jul 22 05:07:56 PDT 2017 ON: 19.99 +20.0 20.05 -15.5 27.5 16.6 31.9 7 9 Alarm State:  0
Sat Jul 22 05:06:54 PDT 2017 ON: 20.00 +20.0 20.05 -15.3 27.8 16.4 31.9 7 9 Alarm State:  0
Sat Jul 22 05:05:53 PDT 2017 ON: 20.00 +20.0 20.06 -15.3 27.7 16.5 32.0 7 9 Alarm State:  0
Sat Jul 22 05:04:51 PDT 2017 ON: 20.00 +20.0 20.05 -15.3 27.8 16.4 32.0 7 10 Alarm State:  0
Sat Jul 22 05:03:50 PDT 2017 ON: 19.99 +20.0 20.05 -15.3 27.8 16.4 32.1 7 10 Alarm State:  0
Sat Jul 22 05:02:48 PDT 2017 ON: 19.99 +20.0 20.04 -15.3 27.8 16.4 32.1 7 9 Alarm State:  0
Sat Jul 22 05:01:47 PDT 2017 ON: 20.00 +20.0 20.06 -15.3 27.8 16.4 32.0 7 9 Alarm State:  0
Sat Jul 22 05:00:45 PDT 2017 ON: 19.99 +20.0 20.07 -15.7 27.2 16.8 31.8 7 9 Alarm State:  0
Sat Jul 22 04:59:44 PDT 2017 ON: 19.99 +20.0 20.04 -15.4 27.6 16.5 32.0 7 10 Alarm State:  0
Sat Jul 22 04:58:42 PDT 2017 ON: 20.00 +20.0 20.06 -15.5 27.4 16.7 31.8 7 8 Alarm State:  0
Sat Jul 22 04:57:41 PDT 2017 ON: 20.00 +20.0 20.05 -15.3 27.7 16.5 32.1 7 9 Alarm State:  0
Sat Jul 22 04:56:39 PDT 2017 ON: 20.00 +20.0 20.05 -15.1 28.0 16.3 32.1 7 10 Alarm State:  0
Sat Jul 22 04:55:38 PDT 2017 ON: 19.99 +20.0 20.04 -15.2 27.9 16.3 32.0 7 10 Alarm State:  0
Sat Jul 22 04:54:36 PDT 2017 ON: 19.99 +20.0 20.03 -15.2 27.9 16.3 32.0 7 10 Alarm State:  0
Sat Jul 22 04:53:35 PDT 2017 ON: 20.00 +20.0 20.06 -15.3 27.7 16.5 32.0 8 9 Alarm State:  0
Sat Jul 22 04:52:33 PDT 2017 ON: 19.99 +20.0 20.05 -15.2 27.9 16.3 32.1 7 10 Alarm State:  0
Sat Jul 22 04:51:32 PDT 2017 ON: 19.99 +20.0 20.04 -15.1 28.0 16.3 32.1 7 10 Alarm State:  0
Sat Jul 22 04:50:30 PDT 2017 ON: 20.00 +20.0 20.05 -15.2 27.9 16.3 32.1 7 9 Alarm State:  0
Sat Jul 22 04:49:29 PDT 2017 ON: 19.99 +20.0 20.05 -15.2 27.9 16.3 32.1 7 9 Alarm State:  0
Sat Jul 22 04:48:27 PDT 2017 ON: 20.00 +20.0 20.06 -15.3 27.7 16.5 32.0 8 9 Alarm State:  0
Sat Jul 22 04:47:26 PDT 2017 ON: 19.98 +20.0 20.04 -15.2 27.9 16.3 32.1 7 10 Alarm State:  0
Sat Jul 22 04:46:24 PDT 2017 ON: 19.99 +20.0 20.04 -15.5 27.5 16.6 32.0 7 9 Alarm State:  0
Sat Jul 22 04:45:23 PDT 2017 ON: 20.00 +20.0 20.05 -15.4 27.6 16.5 31.9 7 9 Alarm State:  0
Sat Jul 22 04:44:21 PDT 2017 ON: 19.99 +20.0 20.07 -15.5 27.4 16.7 31.9 7 9 Alarm State:  0
Sat Jul 22 04:43:20 PDT 2017 ON: 19.99 +20.0 20.04 -15.2 27.9 16.3 32.0 7 10 Alarm State:  0
Sat Jul 22 04:42:18 PDT 2017 ON: 20.00 +20.0 20.05 -15.4 27.6 16.5 31.8 7 9 Alarm State:  0
Sat Jul 22 04:41:17 PDT 2017 ON: 19.99 +20.0 20.06 -15.3 27.8 16.4 32.0 7 9 Alarm State:  0
Sat Jul 22 04:40:15 PDT 2017 ON: 20.00 +20.0 20.05 -15.3 27.7 16.5 32.0 7 9 Alarm State:  0
Sat Jul 22 04:39:14 PDT 2017 ON: 19.99 +20.0 20.06 -15.5 27.4 16.7 31.8 7 9 Alarm State:  0
Sat Jul 22 04:38:12 PDT 2017 ON: 19.99 +20.0 20.05 -15.5 27.5 16.6 31.7 7 9 Alarm State:  0
Sat Jul 22 04:37:11 PDT 2017 ON: 20.00 +20.0 20.05 -15.3 27.7 16.5 32.0 7 9 Alarm State:  0
Sat Jul 22 04:36:09 PDT 2017 ON: 20.00 +20.0 20.04 -15.1 28.0 16.3 32.1 7 10 Alarm State:  0
Sat Jul 22 04:35:08 PDT 2017 ON: 20.00 +20.0 20.05 -15.3 27.7 16.5 32.0 7 9 Alarm State:  0
Sat Jul 22 04:34:06 PDT 2017 ON: 20.00 +20.0 20.07 -15.6 27.3 16.8 31.9 8 8 Alarm State:  0
Sat Jul 22 04:33:05 PDT 2017 ON: 19.99 +20.0 20.04 -15.3 27.7 16.5 32.0 7 10 Alarm State:  0
Sat Jul 22 04:32:03 PDT 2017 ON: 20.00 +20.0 20.06 -15.5 27.5 16.6 32.0 7 9 Alarm State:  0
Sat Jul 22 04:31:02 PDT 2017 ON: 19.99 +20.0 20.05 -15.2 27.9 16.3 32.1 7 10 Alarm State:  0
Sat Jul 22 04:30:00 PDT 2017 ON: 20.00 +20.0 20.05 -15.3 27.8 16.4 32.0 7 9 Alarm State:  0
Sat Jul 22 04:28:59 PDT 2017 ON: 19.99 +20.0 20.06 -15.7 27.2 16.8 31.8 8 9 Alarm State:  0
Sat Jul 22 04:27:57 PDT 2017 ON: 20.00 +20.0 20.05 -15.1 28.0 16.3 32.1 7 9 Alarm State:  0
Sat Jul 22 04:26:56 PDT 2017 ON: 20.00 +20.0 20.05 -15.0 28.2 16.1 32.1 7 10 Alarm State:  0
Sat Jul 22 04:25:54 PDT 2017 ON: 19.99 +20.0 20.05 -15.2 27.9 16.3 32.1 7 10 Alarm State:  0
Sat Jul 22 04:24:53 PDT 2017 ON: 20.00 +20.0 20.06 -15.3 27.8 16.4 32.0 7 8 Alarm State:  0
Sat Jul 22 04:23:51 PDT 2017 ON: 20.00 +20.0 20.07 -15.4 27.6 16.5 32.0 7 9 Alarm State:  0
Sat Jul 22 04:22:50 PDT 2017 ON: 19.99 +20.0 20.05 -15.1 28.0 16.3 32.1 7 10 Alarm State:  0
Sat Jul 22 04:21:48 PDT 2017 ON: 19.99 +20.0 20.06 -15.5 27.5 16.6 32.0 7 9 Alarm State:  0
Sat Jul 22 04:20:47 PDT 2017 ON: 19.99 +20.0 20.05 -15.3 27.8 16.4 32.0 7 9 Alarm State:  0
Sat Jul 22 04:19:45 PDT 2017 ON: 20.00 +20.0 20.05 -15.3 27.8 16.4 32.0 7 9 Alarm State:  0
Sat Jul 22 04:18:44 PDT 2017 ON: 20.00 +20.0 20.06 -15.3 27.7 16.5 32.0 7 10 Alarm State:  0
Sat Jul 22 04:17:42 PDT 2017 ON: 19.99 +20.0 20.05 -15.1 28.0 16.3 32.1 8 10 Alarm State:  0
Sat Jul 22 04:16:41 PDT 2017 ON: 19.99 +20.0 20.04 -15.3 27.8 16.4 32.0 7 10 Alarm State:  0
Sat Jul 22 04:15:39 PDT 2017 ON: 19.99 +20.0 20.05 -15.3 27.7 16.5 32.0 7 10 Alarm State:  0
Sat Jul 22 04:14:38 PDT 2017 ON: 20.00 +20.0 20.05 -15.2 27.9 16.3 32.0 7 10 Alarm State:  0
Sat Jul 22 04:13:36 PDT 2017 ON: 19.99 +20.0 20.05 -15.5 27.4 16.7 32.0 7 9 Alarm State:  0
Sat Jul 22 04:12:35 PDT 2017 ON: 20.00 +20.0 20.06 -15.3 27.7 16.5 32.0 7 9 Alarm State:  0
Sat Jul 22 04:11:33 PDT 2017 ON: 20.00 +20.0 20.05 -15.4 27.6 16.5 32.0 7 10 Alarm State:  0
Sat Jul 22 04:10:32 PDT 2017 ON: 19.99 +20.0 20.04 -15.1 28.1 16.2 32.1 7 10 Alarm State:  0
Sat Jul 22 04:09:31 PDT 2017 ON: 20.00 +20.0 20.05 -15.2 27.9 16.3 32.0 7 10 Alarm State:  0
Sat Jul 22 04:08:29 PDT 2017 ON: 20.00 +20.0 20.04 -15.3 27.8 16.4 32.1 7 10 Alarm State:  0
Sat Jul 22 04:07:28 PDT 2017 ON: 19.99 +20.0 20.06 -15.5 27.5 16.6 31.8 7 9 Alarm State:  0
Sat Jul 22 04:06:26 PDT 2017 ON: 20.00 +20.0 20.06 -15.4 27.6 16.5 32.0 7 9 Alarm State:  0
Sat Jul 22 04:05:25 PDT 2017 ON: 20.00 +20.0 20.06 -15.1 28.0 16.3 32.1 7 9 Alarm State:  0
Sat Jul 22 04:04:23 PDT 2017 ON: 19.99 +20.0 20.06 -15.2 27.9 16.3 32.0 7 9 Alarm State:  0
Sat Jul 22 04:03:22 PDT 2017 ON: 19.99 +20.0 20.04 -15.3 27.8 16.4 32.0 7 10 Alarm State:  0
Sat Jul 22 04:02:20 PDT 2017 ON: 19.99 +20.0 20.04 -15.3 27.8 16.4 32.0 7 10 Alarm State:  0
Sat Jul 22 04:01:19 PDT 2017 ON: 20.00 +20.0 20.06 -15.3 27.7 16.5 31.9 8 9 Alarm State:  0
Sat Jul 22 04:00:17 PDT 2017 ON: 20.00 +20.0 20.06 -15.4 27.6 16.5 32.0 7 9 Alarm State:  0
Sat Jul 22 03:59:16 PDT 2017 ON: 19.99 +20.0 20.04 -15.3 27.8 16.4 32.0 7 10 Alarm State:  0
Sat Jul 22 03:58:14 PDT 2017 ON: 19.99 +20.0 20.06 -15.5 27.5 16.6 31.9 7 9 Alarm State:  0
Sat Jul 22 03:57:13 PDT 2017 ON: 19.99 +20.0 20.05 -15.3 27.8 16.4 32.0 7 9 Alarm State:  0
Sat Jul 22 03:56:11 PDT 2017 ON: 20.00 +20.0 20.06 -15.5 27.5 16.6 32.0 7 9 Alarm State:  0
Sat Jul 22 03:55:10 PDT 2017 ON: 19.99 +20.0 20.06 -15.3 27.7 16.5 32.0 7 9 Alarm State:  0
Sat Jul 22 03:54:08 PDT 2017 ON: 20.00 +20.0 20.07 -15.3 27.7 16.5 32.0 7 9 Alarm State:  0
Sat Jul 22 03:53:07 PDT 2017 ON: 19.99 +20.0 20.06 -15.4 27.6 16.5 32.0 7 9 Alarm State:  0
Sat Jul 22 03:52:05 PDT 2017 ON: 20.00 +20.0 20.05 -15.3 27.7 16.5 32.1 7 9 Alarm State:  0
Sat Jul 22 03:51:04 PDT 2017 ON: 20.00 +20.0 20.07 -15.5 27.5 16.6 32.0 7 9 Alarm State:  0
Sat Jul 22 03:50:02 PDT 2017 ON: 19.99 +20.0 20.06 -15.3 27.8 16.4 32.0 7 9 Alarm State:  0
Sat Jul 22 03:49:01 PDT 2017 ON: 19.99 +20.0 20.05 -15.4 27.6 16.5 32.0 7 9 Alarm State:  0
Sat Jul 22 03:47:59 PDT 2017 ON: 20.00 +20.0 20.06 -15.3 27.8 16.4 32.0 7 9 Alarm State:  0
Sat Jul 22 03:46:58 PDT 2017 ON: 19.99 +20.0 20.06 -15.5 27.5 16.6 31.9 7 9 Alarm State:  0
Sat Jul 22 03:45:56 PDT 2017 ON: 20.00 +20.0 20.06 -15.1 28.1 16.2 32.1 7 9 Alarm State:  0
Sat Jul 22 03:44:55 PDT 2017 ON: 19.99 +20.0 20.06 -15.4 27.6 16.5 32.0 7 9 Alarm State:  0
Sat Jul 22 03:43:53 PDT 2017 ON: 19.99 +20.0 20.04 -15.5 27.5 16.6 31.9 7 10 Alarm State:  0
Sat Jul 22 03:42:52 PDT 2017 ON: 20.00 +20.0 20.05 -15.3 27.7 16.5 31.9 7 9 Alarm State:  0
Sat Jul 22 03:41:50 PDT 2017 ON: 19.99 +20.0 20.06 -15.5 27.5 16.6 31.9 8 10 Alarm State:  0
Sat Jul 22 03:40:49 PDT 2017 ON: 19.99 +20.0 20.06 -15.5 27.5 16.6 31.9 7 9 Alarm State:  0
Sat Jul 22 03:39:47 PDT 2017 ON: 20.00 +20.0 20.04 -15.2 27.9 16.3 32.1 7 10 Alarm State:  0
Sat Jul 22 03:38:46 PDT 2017 ON: 20.00 +20.0 20.05 -15.1 28.1 16.2 32.0 7 10 Alarm State:  0
Sat Jul 22 03:37:44 PDT 2017 ON: 19.99 +20.0 20.06 -15.1 28.0 16.3 32.1 7 10 Alarm State:  0
Sat Jul 22 03:36:43 PDT 2017 ON: 19.99 +20.0 20.06 -15.2 27.9 16.3 32.0 7 9 Alarm State:  0
Sat Jul 22 03:35:41 PDT 2017 ON: 20.00 +20.0 20.05 -15.3 27.8 16.4 32.0 7 9 Alarm State:  0
Sat Jul 22 03:34:40 PDT 2017 ON: 20.00 +20.0 20.06 -15.6 27.3 16.8 31.6 7 10 Alarm State:  0
Sat Jul 22 03:33:38 PDT 2017 ON: 19.99 +20.0 20.04 -15.0 28.2 16.1 32.1 7 10 Alarm State:  0
Sat Jul 22 03:32:37 PDT 2017 ON: 20.00 +20.0 20.05 -15.3 27.7 16.5 32.0 7 9 Alarm State:  0
Sat Jul 22 03:31:35 PDT 2017 ON: 20.00 +20.0 20.06 -15.3 27.8 16.4 32.0 7 9 Alarm State:  0
Sat Jul 22 03:30:34 PDT 2017 ON: 19.99 +20.0 20.04 -15.2 27.9 16.3 32.0 7 10 Alarm State:  0
Sat Jul 22 03:29:32 PDT 2017 ON: 19.99 +20.0 20.04 -15.3 27.8 16.4 32.0 7 10 Alarm State:  0
Sat Jul 22 03:28:31 PDT 2017 ON: 20.00 +20.0 20.06 -15.4 27.6 16.5 32.0 7 9 Alarm State:  0
Sat Jul 22 03:27:29 PDT 2017 ON: 19.99 +20.0 20.06 -15.2 27.9 16.3 32.1 7 9 Alarm State:  0
Sat Jul 22 03:26:28 PDT 2017 ON: 20.00 +20.0 20.05 -15.4 27.6 16.5 31.9 7 10 Alarm State:  0
Sat Jul 22 03:25:26 PDT 2017 ON: 19.99 +20.0 20.05 -15.3 27.8 16.4 32.0 7 10 Alarm State:  0
Sat Jul 22 03:24:25 PDT 2017 ON: 20.00 +20.0 20.05 -15.1 28.1 16.2 32.1 7 9 Alarm State:  0
Sat Jul 22 03:23:24 PDT 2017 ON: 20.00 +20.0 20.07 -15.5 27.5 16.6 32.0 7 9 Alarm State:  0
Sat Jul 22 03:22:22 PDT 2017 ON: 19.99 +20.0 20.05 -15.5 27.5 16.6 31.8 7 10 Alarm State:  0
Sat Jul 22 03:21:21 PDT 2017 ON: 20.00 +20.0 20.04 -15.3 27.7 16.5 31.9 7 10 Alarm State:  0
Sat Jul 22 03:20:19 PDT 2017 ON: 20.00 +20.0 20.06 -15.4 27.6 16.5 32.1 8 9 Alarm State:  0
Sat Jul 22 03:19:18 PDT 2017 ON: 20.00 +20.0 20.07 -15.3 27.7 16.5 32.0 7 9 Alarm State:  0
Sat Jul 22 03:18:16 PDT 2017 ON: 19.99 +20.0 20.06 -15.4 27.6 16.5 32.1 7 9 Alarm State:  0
Sat Jul 22 03:17:15 PDT 2017 ON: 19.99 +20.0 20.05 -15.5 27.4 16.7 32.0 8 9 Alarm State:  0
Sat Jul 22 03:16:13 PDT 2017 ON: 20.00 +20.0 20.05 -15.2 27.9 16.3 32.1 7 9 Alarm State:  0
Sat Jul 22 03:15:12 PDT 2017 ON: 20.00 +20.0 20.05 -15.2 27.9 16.3 32.1 7 10 Alarm State:  0
Sat Jul 22 03:14:10 PDT 2017 ON: 19.99 +20.0 20.06 -15.4 27.6 16.5 32.0 7 9 Alarm State:  0
Sat Jul 22 03:13:09 PDT 2017 ON: 20.00 +20.0 20.05 -15.3 27.7 16.5 32.0 7 9 Alarm State:  0
Sat Jul 22 03:12:07 PDT 2017 ON: 20.00 +20.0 20.07 -15.5 27.5 16.6 32.0 8 9 Alarm State:  0
Sat Jul 22 03:11:06 PDT 2017 ON: 19.99 +20.0 20.05 -15.3 27.8 16.4 32.1 7 10 Alarm State:  0
Sat Jul 22 03:10:04 PDT 2017 ON: 19.99 +20.0 20.04 -15.3 27.8 16.4 32.1 7 10 Alarm State:  0
Sat Jul 22 03:09:03 PDT 2017 ON: 20.00 +20.0 20.05 -15.1 28.0 16.3 32.1 7 9 Alarm State:  0
Sat Jul 22 03:08:01 PDT 2017 ON: 19.99 +20.0 20.07 -15.7 27.2 16.8 31.8 7 9 Alarm State:  0
Sat Jul 22 03:07:00 PDT 2017 ON: 20.00 +20.0 20.06 -15.3 27.7 16.5 32.0 7 9 Alarm State:  0
Sat Jul 22 03:05:58 PDT 2017 ON: 19.99 +20.0 20.07 -15.3 27.7 16.5 32.0 7 9 Alarm State:  0
Sat Jul 22 03:04:57 PDT 2017 ON: 20.00 +20.0 20.06 -15.1 28.0 16.3 32.1 7 9 Alarm State:  0
Sat Jul 22 03:03:55 PDT 2017 ON: 19.99 +20.0 20.05 -15.4 27.6 16.5 31.8 7 10 Alarm State:  0
Sat Jul 22 03:02:54 PDT 2017 ON: 20.00 +20.0 20.05 -15.3 27.8 16.4 32.0 7 9 Alarm State:  0
Sat Jul 22 03:01:52 PDT 2017 ON: 20.00 +20.0 20.06 -15.5 27.4 16.7 31.9 7 9 Alarm State:  0
Sat Jul 22 03:00:51 PDT 2017 ON: 19.99 +20.0 20.05 -15.3 27.8 16.4 32.1 7 9 Alarm State:  0
Sat Jul 22 02:59:49 PDT 2017 ON: 20.00 +20.0 20.06 -15.4 27.6 16.5 32.1 7 9 Alarm State:  0
Sat Jul 22 02:58:48 PDT 2017 ON: 19.99 +20.0 20.06 -15.4 27.6 16.5 32.0 7 9 Alarm State:  0
Sat Jul 22 02:57:46 PDT 2017 ON: 19.99 +20.0 20.04 -15.3 27.8 16.4 32.1 7 10 Alarm State:  0
Sat Jul 22 02:56:45 PDT 2017 ON: 20.00 +20.0 20.05 -15.3 27.7 16.5 32.0 7 9 Alarm State:  0
Sat Jul 22 02:55:43 PDT 2017 ON: 20.00 +20.0 20.05 -15.3 27.8 16.4 32.0 7 9 Alarm State:  0
Sat Jul 22 02:54:42 PDT 2017 ON: 20.00 +20.0 20.06 -15.2 27.9 16.3 32.0 7 10 Alarm State:  0
Sat Jul 22 02:53:40 PDT 2017 ON: 19.99 +20.0 20.03 -14.9 28.3 16.1 32.2 7 11 Alarm State:  0
Sat Jul 22 02:52:39 PDT 2017 ON: 19.99 +20.0 20.05 -15.4 27.6 16.5 31.9 7 10 Alarm State:  0
Sat Jul 22 02:51:37 PDT 2017 ON: 19.99 +20.0 20.06 -15.4 27.6 16.5 31.9 7 9 Alarm State:  0
Sat Jul 22 02:50:36 PDT 2017 ON: 20.00 +20.0 20.06 -15.3 27.8 16.4 32.0 7 9 Alarm State:  0
Sat Jul 22 02:49:34 PDT 2017 ON: 19.99 +20.0 20.06 -15.5 27.4 16.7 31.9 8 9 Alarm State:  0
Sat Jul 22 02:48:33 PDT 2017 ON: 20.00 +20.0 20.05 -15.3 27.7 16.5 32.0 7 9 Alarm State:  0
Sat Jul 22 02:47:31 PDT 2017 ON: 20.00 +20.0 20.06 -15.4 27.6 16.5 32.0 7 9 Alarm State:  0
Sat Jul 22 02:46:30 PDT 2017 ON: 19.99 +20.0 20.06 -15.3 27.7 16.5 32.0 7 9 Alarm State:  0
Sat Jul 22 02:45:28 PDT 2017 ON: 20.00 +20.0 20.07 -15.5 27.4 16.7 31.9 7 8 Alarm State:  0
Sat Jul 22 02:44:27 PDT 2017 ON: 19.99 +20.0 20.06 -15.5 27.4 16.7 32.0 8 10 Alarm State:  0
Sat Jul 22 02:43:25 PDT 2017 ON: 19.99 +20.0 20.04 -15.3 27.7 16.5 32.0 7 10 Alarm State:  0
Sat Jul 22 02:42:24 PDT 2017 ON: 20.00 +20.0 20.06 -15.5 27.5 16.6 31.9 7 9 Alarm State:  0
Sat Jul 22 02:41:22 PDT 2017 ON: 19.99 +20.0 20.06 -15.4 27.6 16.5 32.0 7 9 Alarm State:  0
Sat Jul 22 02:40:21 PDT 2017 ON: 20.00 +20.0 20.05 -15.3 27.7 16.5 32.0 7 9 Alarm State:  0
Sat Jul 22 02:39:19 PDT 2017 ON: 19.99 +20.0 20.04 -15.2 27.9 16.3 32.1 7 10 Alarm State:  0
Sat Jul 22 02:38:18 PDT 2017 ON: 19.99 +20.0 20.05 -15.6 27.3 16.8 31.7 7 9 Alarm State:  0
Sat Jul 22 02:37:16 PDT 2017 ON: 19.99 +20.0 20.05 -15.5 27.5 16.6 31.8 7 9 Alarm State:  0
Sat Jul 22 02:36:15 PDT 2017 ON: 20.00 +20.0 20.06 -15.3 27.8 16.4 32.0 7 9 Alarm State:  0
Sat Jul 22 02:35:13 PDT 2017 ON: 20.00 +20.0 20.06 -15.3 27.7 16.5 32.0 7 10 Alarm State:  0
Sat Jul 22 02:34:12 PDT 2017 ON: 19.99 +20.0 20.05 -15.3 27.8 16.4 32.1 7 9 Alarm State:  0
Sat Jul 22 02:33:10 PDT 2017 ON: 20.00 +20.0 20.06 -15.3 27.8 16.4 32.0 7 9 Alarm State:  0
Sat Jul 22 02:32:09 PDT 2017 ON: 20.00 +20.0 20.06 -15.1 28.1 16.2 32.1 7 10 Alarm State:  0
Sat Jul 22 02:31:07 PDT 2017 ON: 19.99 +20.0 20.06 -15.1 28.0 16.3 32.1 7 9 Alarm State:  0
Sat Jul 22 02:30:06 PDT 2017 ON: 19.99 +20.0 20.04 -15.3 27.8 16.4 32.1 7 10 Alarm State:  0
Sat Jul 22 02:29:04 PDT 2017 ON: 20.00 +20.0 20.05 -15.5 27.5 16.6 32.0 7 9 Alarm State:  0
Sat Jul 22 02:28:03 PDT 2017 ON: 20.00 +20.0 20.08 -15.3 27.7 16.5 32.0 7 9 Alarm State:  0
Sat Jul 22 02:27:01 PDT 2017 ON: 19.99 +20.0 20.05 -15.2 27.9 16.3 32.1 7 10 Alarm State:  0
Sat Jul 22 02:26:00 PDT 2017 ON: 19.99 +20.0 20.04 -15.3 27.8 16.4 32.0 7 9 Alarm State:  0
Sat Jul 22 02:24:58 PDT 2017 ON: 20.00 +20.0 20.05 -15.4 27.6 16.5 31.9 7 9 Alarm State:  0
Sat Jul 22 02:23:57 PDT 2017 ON: 20.00 +20.0 20.06 -15.2 27.9 16.3 32.0 7 9 Alarm State:  0
Sat Jul 22 02:22:56 PDT 2017 ON: 19.99 +20.0 20.06 -15.3 27.7 16.5 32.0 7 9 Alarm State:  0
Sat Jul 22 02:21:54 PDT 2017 ON: 19.98 +20.0 20.03 -15.1 28.0 16.3 32.1 7 10 Alarm State:  0
Sat Jul 22 02:20:53 PDT 2017 ON: 20.00 +20.0 20.06 -15.8 27.0 16.9 31.7 7 9 Alarm State:  0
Sat Jul 22 02:19:51 PDT 2017 ON: 20.00 +20.0 20.08 -15.4 27.6 16.5 32.0 7 8 Alarm State:  0
Sat Jul 22 02:18:50 PDT 2017 ON: 19.99 +20.0 20.05 -15.1 28.0 16.3 32.1 7 10 Alarm State:  0
Sat Jul 22 02:17:48 PDT 2017 ON: 19.99 +20.0 20.05 -15.3 27.8 16.4 32.1 7 9 Alarm State:  0
Sat Jul 22 02:16:47 PDT 2017 ON: 20.00 +20.0 20.06 -15.3 27.8 16.4 32.0 7 9 Alarm State:  0
Sat Jul 22 02:15:45 PDT 2017 ON: 19.99 +20.0 20.04 -15.3 27.8 16.4 32.0 7 10 Alarm State:  0
Sat Jul 22 02:14:44 PDT 2017 ON: 20.00 +20.0 20.04 -15.1 28.1 16.2 32.1 7 10 Alarm State:  0
Sat Jul 22 02:13:42 PDT 2017 ON: 19.99 +20.0 20.06 -15.3 27.8 16.4 32.1 7 9 Alarm State:  0
Sat Jul 22 02:12:41 PDT 2017 ON: 20.00 +20.0 20.05 -15.4 27.6 16.5 31.9 7 9 Alarm State:  0
Sat Jul 22 02:11:39 PDT 2017 ON: 20.00 +20.0 20.05 -15.3 27.7 16.5 32.0 7 10 Alarm State:  0
Sat Jul 22 02:10:38 PDT 2017 ON: 19.99 +20.0 20.04 -15.2 27.9 16.3 32.0 7 10 Alarm State:  0
Sat Jul 22 02:09:36 PDT 2017 ON: 20.00 +20.0 20.05 -15.3 27.7 16.5 32.0 7 9 Alarm State:  0
Sat Jul 22 02:08:35 PDT 2017 ON: 20.00 +20.0 20.06 -15.1 28.1 16.2 32.1 7 10 Alarm State:  0
Sat Jul 22 02:07:33 PDT 2017 ON: 19.99 +20.0 20.03 -14.9 28.4 16.0 32.2 7 11 Alarm State:  0
Sat Jul 22 02:06:32 PDT 2017 ON: 19.99 +20.0 20.05 -15.5 27.5 16.6 31.7 7 9 Alarm State:  0
Sat Jul 22 02:05:30 PDT 2017 ON: 20.00 +20.0 20.06 -15.5 27.5 16.6 31.9 8 9 Alarm State:  0
Sat Jul 22 02:04:29 PDT 2017 ON: 19.99 +20.0 20.06 -15.3 27.8 16.4 32.1 7 9 Alarm State:  0
Sat Jul 22 02:03:27 PDT 2017 ON: 19.99 +20.0 20.05 -15.3 27.8 16.4 32.1 7 9 Alarm State:  0
Sat Jul 22 02:02:26 PDT 2017 ON: 20.00 +20.0 20.06 -15.4 27.6 16.5 32.0 7 10 Alarm State:  0
Sat Jul 22 02:01:24 PDT 2017 ON: 19.99 +20.0 20.04 -15.1 28.0 16.3 32.1 7 10 Alarm State:  0
Sat Jul 22 02:00:23 PDT 2017 ON: 19.99 +20.0 20.04 -15.1 28.1 16.2 32.1 7 9 Alarm State:  0
Sat Jul 22 01:59:21 PDT 2017 ON: 20.00 +20.0 20.04 -15.3 27.7 16.5 32.0 7 10 Alarm State:  0
Sat Jul 22 01:58:20 PDT 2017 ON: 20.00 +20.0 20.06 -15.2 27.9 16.3 32.0 7 10 Alarm State:  0
Sat Jul 22 01:57:18 PDT 2017 ON: 19.99 +20.0 20.04 -15.2 27.9 16.3 32.0 8 10 Alarm State:  0
Sat Jul 22 01:56:17 PDT 2017 ON: 20.00 +20.0 20.05 -15.0 28.2 16.1 32.2 7 9 Alarm State:  0
Sat Jul 22 01:55:15 PDT 2017 ON: 19.99 +20.0 20.04 -15.1 28.1 16.2 32.1 7 10 Alarm State:  0
Sat Jul 22 01:54:14 PDT 2017 ON: 19.99 +20.0 20.04 -15.0 28.2 16.1 32.1 7 10 Alarm State:  0
Sat Jul 22 01:53:12 PDT 2017 ON: 19.99 +20.0 20.06 -15.3 27.7 16.5 32.0 7 9 Alarm State:  0
Sat Jul 22 01:52:11 PDT 2017 ON: 19.99 +20.0 20.05 -15.3 27.7 16.5 32.0 8 9 Alarm State:  0
Sat Jul 22 01:51:09 PDT 2017 ON: 20.00 +20.0 20.05 -15.3 27.8 16.4 32.0 7 9 Alarm State:  0
Sat Jul 22 01:50:08 PDT 2017 ON: 20.00 +20.0 20.06 -15.3 27.8 16.4 32.0 7 10 Alarm State:  0
Sat Jul 22 01:49:06 PDT 2017 ON: 19.99 +20.0 20.06 -15.3 27.8 16.4 32.0 8 9 Alarm State:  0
Sat Jul 22 01:48:05 PDT 2017 ON: 19.99 +20.0 20.05 -15.4 27.6 16.5 32.0 7 9 Alarm State:  0
Sat Jul 22 01:47:03 PDT 2017 ON: 20.00 +20.0 20.06 -15.6 27.3 16.8 31.9 7 9 Alarm State:  0
Sat Jul 22 01:46:02 PDT 2017 ON: 19.99 +20.0 20.04 -15.2 27.9 16.3 32.0 7 10 Alarm State:  0
Sat Jul 22 01:45:00 PDT 2017 ON: 20.00 +20.0 20.06 -15.3 27.8 16.4 32.0 7 9 Alarm State:  0
Sat Jul 22 01:43:59 PDT 2017 ON: 20.00 +20.0 20.06 -15.0 28.2 16.1 32.1 7 10 Alarm State:  0
Sat Jul 22 01:42:57 PDT 2017 ON: 19.99 +20.0 20.05 -15.1 28.1 16.2 32.1 7 10 Alarm State:  0
Sat Jul 22 01:41:56 PDT 2017 ON: 19.99 +20.0 20.04 -15.1 28.1 16.2 32.1 7 10 Alarm State:  0
Sat Jul 22 01:40:54 PDT 2017 ON: 20.00 +20.0 20.06 -15.3 27.8 16.4 32.1 7 9 Alarm State:  0
Sat Jul 22 01:39:53 PDT 2017 ON: 20.00 +20.0 20.07 -15.2 27.9 16.3 32.1 7 9 Alarm State:  0
Sat Jul 22 01:38:51 PDT 2017 ON: 19.99 +20.0 20.06 -15.4 27.6 16.5 32.0 7 9 Alarm State:  0
Sat Jul 22 01:37:50 PDT 2017 ON: 19.99 +20.0 20.04 -15.4 27.6 16.5 32.0 7 9 Alarm State:  0
Sat Jul 22 01:36:48 PDT 2017 ON: 20.00 +20.0 20.05 -15.3 27.7 16.5 32.0 7 9 Alarm State:  0
Sat Jul 22 01:35:47 PDT 2017 ON: 20.01 +20.0 20.07 -15.5 27.5 16.6 32.0 7 9 Alarm State:  0
Sat Jul 22 01:34:45 PDT 2017 ON: 19.99 +20.0 20.05 -15.0 28.2 16.1 32.2 7 10 Alarm State:  0
Sat Jul 22 01:33:44 PDT 2017 ON: 19.99 +20.0 20.05 -15.1 28.1 16.2 32.1 7 10 Alarm State:  0
Sat Jul 22 01:32:42 PDT 2017 ON: 20.00 +20.0 20.05 -15.2 27.9 16.3 32.0 7 9 Alarm State:  0
Sat Jul 22 01:31:41 PDT 2017 ON: 20.00 +20.0 20.05 -15.1 28.1 16.2 32.1 7 10 Alarm State:  0
Sat Jul 22 01:30:39 PDT 2017 ON: 19.99 +20.0 20.06 -15.3 27.7 16.5 32.0 7 9 Alarm State:  0
Sat Jul 22 01:29:38 PDT 2017 ON: 19.99 +20.0 20.06 -15.5 27.5 16.6 31.9 7 9 Alarm State:  0
Sat Jul 22 01:28:36 PDT 2017 ON: 20.00 +20.0 20.05 -15.4 27.6 16.5 32.0 7 10 Alarm State:  0
Sat Jul 22 01:27:35 PDT 2017 ON: 19.99 +20.0 20.07 -15.4 27.6 16.5 32.0 7 9 Alarm State:  0
Sat Jul 22 01:26:33 PDT 2017 ON: 19.99 +20.0 20.05 -15.3 27.7 16.5 32.0 7 9 Alarm State:  0
Sat Jul 22 01:25:32 PDT 2017 ON: 20.00 +20.0 20.05 -15.1 28.0 16.3 32.0 7 9 Alarm State:  0
Sat Jul 22 01:24:30 PDT 2017 ON: 20.00 +20.0 20.07 -15.1 28.1 16.2 32.0 7 9 Alarm State:  0
Sat Jul 22 01:23:29 PDT 2017 ON: 19.99 +20.0 20.06 -15.3 27.8 16.4 32.0 7 9 Alarm State:  0
Sat Jul 22 01:22:27 PDT 2017 ON: 20.00 +20.0 20.05 -15.3 27.8 16.4 31.9 7 9 Alarm State:  0
Sat Jul 22 01:21:26 PDT 2017 ON: 20.00 +20.0 20.05 -15.1 28.0 16.3 32.1 7 10 Alarm State:  0
Sat Jul 22 01:20:24 PDT 2017 ON: 20.00 +20.0 20.05 -15.0 28.2 16.1 32.1 7 10 Alarm State:  0
Sat Jul 22 01:19:23 PDT 2017 ON: 19.99 +20.0 20.04 -15.2 27.9 16.3 32.0 7 10 Alarm State:  0
Sat Jul 22 01:18:21 PDT 2017 ON: 19.99 +20.0 20.04 -15.2 27.9 16.3 32.1 7 9 Alarm State:  0
Sat Jul 22 01:17:20 PDT 2017 ON: 20.00 +20.0 20.05 -15.3 27.7 16.5 32.0 7 9 Alarm State:  0
Sat Jul 22 01:16:18 PDT 2017 ON: 20.00 +20.0 20.06 -15.2 27.9 16.3 32.0 7 10 Alarm State:  0
Sat Jul 22 01:15:17 PDT 2017 ON: 19.98 +20.0 20.06 -15.2 27.9 16.3 32.1 7 9 Alarm State:  0
Sat Jul 22 01:14:15 PDT 2017 ON: 19.99 +20.0 20.03 -15.1 28.1 16.2 32.1 7 10 Alarm State:  0
Sat Jul 22 01:13:14 PDT 2017 ON: 20.00 +20.0 20.06 -15.5 27.4 16.7 31.7 7 9 Alarm State:  0
Sat Jul 22 01:12:12 PDT 2017 ON: 20.00 +20.0 20.07 -15.3 27.8 16.4 32.0 7 9 Alarm State:  0
Sat Jul 22 01:11:11 PDT 2017 ON: 19.99 +20.0 20.05 -15.3 27.7 16.5 32.0 8 10 Alarm State:  0
Sat Jul 22 01:10:09 PDT 2017 ON: 20.00 +20.0 20.05 -15.1 28.1 16.2 32.2 7 10 Alarm State:  0
Sat Jul 22 01:09:08 PDT 2017 ON: 19.99 +20.0 20.06 -15.4 27.6 16.5 32.0 7 9 Alarm State:  0
Sat Jul 22 01:08:06 PDT 2017 ON: 19.99 +20.0 20.04 -15.1 28.0 16.3 32.1 7 10 Alarm State:  0
Sat Jul 22 01:07:05 PDT 2017 ON: 20.00 +20.0 20.06 -15.3 27.7 16.5 32.0 7 9 Alarm State:  0
Sat Jul 22 01:06:03 PDT 2017 ON: 19.99 +20.0 20.07 -15.1 28.0 16.3 32.0 7 9 Alarm State:  0
Sat Jul 22 01:05:02 PDT 2017 ON: 19.99 +20.0 20.05 -15.5 27.5 16.6 31.9 7 9 Alarm State:  0
Sat Jul 22 01:04:00 PDT 2017 ON: 20.00 +20.0 20.06 -15.3 27.7 16.5 32.0 7 9 Alarm State:  0
Sat Jul 22 01:02:59 PDT 2017 ON: 20.00 +20.0 20.05 -15.1 28.0 16.3 32.0 7 10 Alarm State:  0
Sat Jul 22 01:01:57 PDT 2017 ON: 19.99 +20.0 20.05 -15.2 27.9 16.3 32.1 7 10 Alarm State:  0
Sat Jul 22 01:00:56 PDT 2017 ON: 20.00 +20.0 20.05 -15.4 27.6 16.5 32.0 7 9 Alarm State:  0
Sat Jul 22 00:59:54 PDT 2017 ON: 19.99 +20.0 20.05 -15.3 27.7 16.5 31.9 7 10 Alarm State:  0
Sat Jul 22 00:58:53 PDT 2017 ON: 19.99 +20.0 20.05 -15.1 28.0 16.3 32.1 7 10 Alarm State:  0
Sat Jul 22 00:57:51 PDT 2017 ON: 20.00 +20.0 20.04 -15.1 28.0 16.3 32.1 7 9 Alarm State:  0
Sat Jul 22 00:56:50 PDT 2017 ON: 20.00 +20.0 20.05 -15.1 28.0 16.3 32.0 7 10 Alarm State:  0
Sat Jul 22 00:55:48 PDT 2017 ON: 19.99 +20.0 20.07 -15.5 27.5 16.6 32.0 7 9 Alarm State:  0
Sat Jul 22 00:54:47 PDT 2017 ON: 19.99 +20.0 20.05 -14.9 28.3 16.1 32.2 7 10 Alarm State:  0
Sat Jul 22 00:53:45 PDT 2017 ON: 19.99 +20.0 20.06 -15.7 27.2 16.8 31.9 7 9 Alarm State:  0
Sat Jul 22 00:52:44 PDT 2017 ON: 20.00 +20.0 20.05 -15.4 27.6 16.5 31.9 7 9 Alarm State:  0
Sat Jul 22 00:51:42 PDT 2017 ON: 20.00 +20.0 20.06 -15.1 28.0 16.3 32.1 7 9 Alarm State:  0
Sat Jul 22 00:50:41 PDT 2017 ON: 20.00 +20.0 20.07 -15.4 27.6 16.5 32.0 7 9 Alarm State:  0
Sat Jul 22 00:49:39 PDT 2017 ON: 19.99 +20.0 20.05 -15.3 27.7 16.5 32.1 7 9 Alarm State:  0
Sat Jul 22 00:48:38 PDT 2017 ON: 20.00 +20.0 20.05 -15.4 27.6 16.5 32.0 7 9 Alarm State:  0
Sat Jul 22 00:47:36 PDT 2017 ON: 20.00 +20.0 20.06 -15.5 27.4 16.7 31.8 7 9 Alarm State:  0
Sat Jul 22 00:46:35 PDT 2017 ON: 19.99 +20.0 20.06 -15.1 28.1 16.2 32.1 7 9 Alarm State:  0
Sat Jul 22 00:45:33 PDT 2017 ON: 19.99 +20.0 20.04 -15.1 28.1 16.2 32.2 7 10 Alarm State:  0
Sat Jul 22 00:44:32 PDT 2017 ON: 19.99 +20.0 20.04 -15.2 27.9 16.3 32.1 7 10 Alarm State:  0
Sat Jul 22 00:43:30 PDT 2017 ON: 20.01 +20.0 20.07 -15.5 27.5 16.6 31.9 7 9 Alarm State:  0
Sat Jul 22 00:42:29 PDT 2017 ON: 19.99 +20.0 20.06 -15.4 27.6 16.5 31.9 7 9 Alarm State:  0
Sat Jul 22 00:41:27 PDT 2017 ON: 19.99 +20.0 20.05 -15.3 27.7 16.5 32.0 7 9 Alarm State:  0
Sat Jul 22 00:40:26 PDT 2017 ON: 20.00 +20.0 20.07 -15.6 27.3 16.8 31.7 7 8 Alarm State:  0
Sat Jul 22 00:39:24 PDT 2017 ON: 20.00 +20.0 20.06 -15.1 28.1 16.2 32.1 7 10 Alarm State:  0
Sat Jul 22 00:38:23 PDT 2017 ON: 20.00 +20.0 20.05 -15.0 28.2 16.1 32.1 7 10 Alarm State:  0
Sat Jul 22 00:37:21 PDT 2017 ON: 19.99 +20.0 20.05 -15.4 27.6 16.5 32.0 7 10 Alarm State:  0
Sat Jul 22 00:36:20 PDT 2017 ON: 20.00 +20.0 20.05 -15.3 27.8 16.4 32.1 7 9 Alarm State:  0
Sat Jul 22 00:35:18 PDT 2017 ON: 20.00 +20.0 20.07 -15.4 27.6 16.5 32.0 8 9 Alarm State:  0
Sat Jul 22 00:34:17 PDT 2017 ON: 19.99 +20.0 20.06 -15.5 27.5 16.6 32.0 7 9 Alarm State:  0
Sat Jul 22 00:33:15 PDT 2017 ON: 19.99 +20.0 20.03 -14.9 28.3 16.1 32.2 7 10 Alarm State:  0
Sat Jul 22 00:32:14 PDT 2017 ON: 20.00 +20.0 20.05 -15.4 27.6 16.5 31.9 7 10 Alarm State:  0
Sat Jul 22 00:31:12 PDT 2017 ON: 19.99 +20.0 20.05 -15.1 28.1 16.2 32.1 7 10 Alarm State:  0
Sat Jul 22 00:30:11 PDT 2017 ON: 20.00 +20.0 20.05 -15.1 28.1 16.2 32.1 7 9 Alarm State:  0
Sat Jul 22 00:29:09 PDT 2017 ON: 20.00 +20.0 20.06 -15.3 27.7 16.5 31.9 7 10 Alarm State:  0
Sat Jul 22 00:28:08 PDT 2017 ON: 19.99 +20.0 20.04 -14.9 28.4 16.0 32.1 7 10 Alarm State:  0
Sat Jul 22 00:27:06 PDT 2017 ON: 19.99 +20.0 20.06 -15.1 28.1 16.2 32.1 7 9 Alarm State:  0
Sat Jul 22 00:26:05 PDT 2017 ON: 20.00 +20.0 20.06 -15.5 27.5 16.6 31.9 7 10 Alarm State:  0
Sat Jul 22 00:25:03 PDT 2017 ON: 19.99 +20.0 20.06 -15.3 27.8 16.4 32.0 7 9 Alarm State:  0
Sat Jul 22 00:24:02 PDT 2017 ON: 20.00 +20.0 20.04 -15.3 27.8 16.4 32.0 7 10 Alarm State:  0
Sat Jul 22 00:23:00 PDT 2017 ON: 19.99 +20.0 20.06 -15.3 27.7 16.5 32.0 7 9 Alarm State:  0
Sat Jul 22 00:21:59 PDT 2017 ON: 20.00 +20.0 20.07 -15.3 27.7 16.5 32.0 7 9 Alarm State:  0
Sat Jul 22 00:20:57 PDT 2017 ON: 20.00 +20.0 20.05 -15.2 27.9 16.3 32.0 7 10 Alarm State:  0
Sat Jul 22 00:19:56 PDT 2017 ON: 20.00 +20.0 20.05 -15.3 27.7 16.5 32.0 7 10 Alarm State:  0
Sat Jul 22 00:18:54 PDT 2017 ON: 19.99 +20.0 20.06 -15.5 27.5 16.6 32.0 8 9 Alarm State:  0
Sat Jul 22 00:17:53 PDT 2017 ON: 19.99 +20.0 20.04 -15.3 27.7 16.5 32.0 7 10 Alarm State:  0
Sat Jul 22 00:16:51 PDT 2017 ON: 20.00 +20.0 20.05 -15.3 27.8 16.4 32.0 7 9 Alarm State:  0
Sat Jul 22 00:15:50 PDT 2017 ON: 20.01 +20.0 20.06 -15.5 27.5 16.6 31.9 7 9 Alarm State:  0
Sat Jul 22 00:14:48 PDT 2017 ON: 20.00 +20.0 20.06 -15.3 27.7 16.5 31.9 7 10 Alarm State:  0
Sat Jul 22 00:13:47 PDT 2017 ON: 19.99 +20.0 20.05 -15.1 28.1 16.2 32.1 7 10 Alarm State:  0
Sat Jul 22 00:12:45 PDT 2017 ON: 19.99 +20.0 20.04 -15.1 28.1 16.2 32.1 7 10 Alarm State:  0
Sat Jul 22 00:11:44 PDT 2017 ON: 20.00 +20.0 20.05 -15.3 27.7 16.5 32.0 7 10 Alarm State:  0
Sat Jul 22 00:10:42 PDT 2017 ON: 19.99 +20.0 20.06 -15.3 27.8 16.4 32.0 7 9 Alarm State:  0
Sat Jul 22 00:09:41 PDT 2017 ON: 20.00 +20.0 20.06 -15.3 27.7 16.5 32.1 7 9 Alarm State:  0
Sat Jul 22 00:08:39 PDT 2017 ON: 19.99 +20.0 20.06 -15.1 28.0 16.3 32.1 7 10 Alarm State:  0
Sat Jul 22 00:07:38 PDT 2017 ON: 19.99 +20.0 20.03 -15.2 27.9 16.3 32.0 7 10 Alarm State:  0
Sat Jul 22 00:06:36 PDT 2017 ON: 20.00 +20.0 20.05 -15.3 27.8 16.4 32.1 7 10 Alarm State:  0
Sat Jul 22 00:05:35 PDT 2017 ON: 19.99 +20.0 20.05 -15.1 28.1 16.2 32.1 7 10 Alarm State:  0
Sat Jul 22 00:04:33 PDT 2017 ON: 19.99 +20.0 20.04 -15.1 28.0 16.3 32.1 7 10 Alarm State:  0
Sat Jul 22 00:03:32 PDT 2017 ON: 20.00 +20.0 20.04 -15.4 27.6 16.5 31.8 7 9 Alarm State:  0
Sat Jul 22 00:02:30 PDT 2017 ON: 20.00 +20.0 20.06 -15.4 27.6 16.5 31.9 7 9 Alarm State:  0
Sat Jul 22 00:01:29 PDT 2017 ON: 20.00 +20.0 20.06 -15.1 28.1 16.2 32.1 7 10 Alarm State:  0
Sat Jul 22 00:00:27 PDT 2017 ON: 19.99 +20.0 20.05 -15.2 27.9 16.3 32.0 7 10 Alarm State:  0
Fri Jul 21 23:59:26 PDT 2017 ON: 19.99 +20.0 20.04 -15.1 28.1 16.2 32.0 7 10 Alarm State:  0
Fri Jul 21 23:58:24 PDT 2017 ON: 20.00 +20.0 20.06 -15.7 27.2 16.8 31.7 7 9 Alarm State:  0
Fri Jul 21 23:57:23 PDT 2017 ON: 20.00 +20.0 20.07 -15.5 27.5 16.6 32.0 8 9 Alarm State:  0
Fri Jul 21 23:56:21 PDT 2017 ON: 19.99 +20.0 20.05 -15.1 28.1 16.2 32.1 7 10 Alarm State:  0
Fri Jul 21 23:55:20 PDT 2017 ON: 19.99 +20.0 20.06 -15.1 28.0 16.3 32.1 7 9 Alarm State:  0
Fri Jul 21 23:54:18 PDT 2017 ON: 20.00 +20.0 20.05 -15.3 27.8 16.4 32.0 7 10 Alarm State:  0
Fri Jul 21 23:53:17 PDT 2017 ON: 19.99 +20.0 20.06 -15.2 27.9 16.3 32.1 7 10 Alarm State:  0
Fri Jul 21 23:52:15 PDT 2017 ON: 19.99 +20.0 20.05 -15.3 27.8 16.4 32.0 7 10 Alarm State:  0
Fri Jul 21 23:51:14 PDT 2017 ON: 20.00 +20.0 20.04 -15.3 27.7 16.5 32.0 7 9 Alarm State:  0
Fri Jul 21 23:50:12 PDT 2017 ON: 20.00 +20.0 20.05 -15.4 27.6 16.5 32.0 7 9 Alarm State:  0
Fri Jul 21 23:49:11 PDT 2017 ON: 20.00 +20.0 20.07 -15.2 27.9 16.3 32.1 7 9 Alarm State:  0
Fri Jul 21 23:48:09 PDT 2017 ON: 19.99 +20.0 20.06 -15.3 27.8 16.4 32.0 7 10 Alarm State:  0
Fri Jul 21 23:47:08 PDT 2017 ON: 19.98 +20.0 20.03 -14.9 28.3 16.1 32.2 7 11 Alarm State:  0
Fri Jul 21 23:46:06 PDT 2017 ON: 19.99 +20.0 20.04 -15.0 28.2 16.1 32.1 7 9 Alarm State:  0
Fri Jul 21 23:45:05 PDT 2017 ON: 20.00 +20.0 20.06 -15.7 27.1 16.9 31.7 7 9 Alarm State:  0
Fri Jul 21 23:44:03 PDT 2017 ON: 20.00 +20.0 20.05 -15.3 27.8 16.4 32.0 7 10 Alarm State:  0
Fri Jul 21 23:43:02 PDT 2017 ON: 19.99 +20.0 20.05 -15.1 28.1 16.2 32.1 7 10 Alarm State:  0
Fri Jul 21 23:42:00 PDT 2017 ON: 19.99 +20.0 20.05 -15.1 28.1 16.2 32.1 7 10 Alarm State:  0
Fri Jul 21 23:40:59 PDT 2017 ON: 20.00 +20.0 20.07 -15.5 27.5 16.6 32.0 7 9 Alarm State:  0
Fri Jul 21 23:39:57 PDT 2017 ON: 19.99 +20.0 20.04 -15.1 28.1 16.2 32.1 7 10 Alarm State:  0
Fri Jul 21 23:38:56 PDT 2017 ON: 20.00 +20.0 20.05 -15.3 27.8 16.4 32.1 7 10 Alarm State:  0
Fri Jul 21 23:37:54 PDT 2017 ON: 19.99 +20.0 20.05 -15.1 28.1 16.2 32.1 7 10 Alarm State:  0
Fri Jul 21 23:36:53 PDT 2017 ON: 19.99 +20.0 20.04 -15.4 27.6 16.5 32.0 7 10 Alarm State:  0
Fri Jul 21 23:35:51 PDT 2017 ON: 20.00 +20.0 20.06 -15.3 27.7 16.5 31.9 7 9 Alarm State:  0
Fri Jul 21 23:34:50 PDT 2017 ON: 20.00 +20.0 20.07 -15.4 27.6 16.5 32.0 7 9 Alarm State:  0
Fri Jul 21 23:33:48 PDT 2017 ON: 19.99 +20.0 20.05 -15.0 28.2 16.1 32.2 7 10 Alarm State:  0
Fri Jul 21 23:32:47 PDT 2017 ON: 20.00 +20.0 20.06 -15.4 27.6 16.5 32.1 7 9 Alarm State:  0
Fri Jul 21 23:31:45 PDT 2017 ON: 19.99 +20.0 20.05 -15.4 27.6 16.5 32.0 7 10 Alarm State:  0
Fri Jul 21 23:30:44 PDT 2017 ON: 20.00 +20.0 20.06 -15.2 27.9 16.3 32.0 7 9 Alarm State:  0
Fri Jul 21 23:29:42 PDT 2017 ON: 19.99 +20.0 20.06 -15.4 27.6 16.5 31.9 7 10 Alarm State:  0
Fri Jul 21 23:28:41 PDT 2017 ON: 19.99 +20.0 20.06 -15.1 28.0 16.3 32.0 7 9 Alarm State:  0
Fri Jul 21 23:27:39 PDT 2017 ON: 20.00 +20.0 20.05 -15.4 27.6 16.5 31.9 7 10 Alarm State:  0
Fri Jul 21 23:26:38 PDT 2017 ON: 19.99 +20.0 20.04 -15.0 28.2 16.1 32.2 7 10 Alarm State:  0
Fri Jul 21 23:25:36 PDT 2017 ON: 20.00 +20.0 20.06 -15.1 28.0 16.3 32.1 7 9 Alarm State:  0
Fri Jul 21 23:24:35 PDT 2017 ON: 20.00 +20.0 20.06 -15.5 27.5 16.6 31.9 7 10 Alarm State:  0
Fri Jul 21 23:23:33 PDT 2017 ON: 19.99 +20.0 20.05 -15.1 28.0 16.3 32.1 7 10 Alarm State:  0
Fri Jul 21 23:22:32 PDT 2017 ON: 20.00 +20.0 20.05 -15.4 27.6 16.5 32.0 7 9 Alarm State:  0
Fri Jul 21 23:21:30 PDT 2017 ON: 20.00 +20.0 20.07 -15.3 27.7 16.5 32.0 7 9 Alarm State:  0
Fri Jul 21 23:20:29 PDT 2017 ON: 20.00 +20.0 20.07 -15.3 27.8 16.4 32.0 7 9 Alarm State:  0
Fri Jul 21 23:19:28 PDT 2017 ON: 19.99 +20.0 20.05 -15.4 27.6 16.5 32.0 7 10 Alarm State:  0
Fri Jul 21 23:18:26 PDT 2017 ON: 19.99 +20.0 20.04 -15.3 27.8 16.4 32.0 7 10 Alarm State:  0
Fri Jul 21 23:17:25 PDT 2017 ON: 20.00 +20.0 20.06 -15.5 27.5 16.6 32.0 7 9 Alarm State:  0
Fri Jul 21 23:16:23 PDT 2017 ON: 20.00 +20.0 20.06 -15.4 27.6 16.5 32.0 7 10 Alarm State:  0
Fri Jul 21 23:15:22 PDT 2017 ON: 19.99 +20.0 20.05 -15.4 27.6 16.5 32.0 7 10 Alarm State:  0
Fri Jul 21 23:14:20 PDT 2017 ON: 20.00 +20.0 20.06 -15.3 27.8 16.4 32.0 7 9 Alarm State:  0
Fri Jul 21 23:13:19 PDT 2017 ON: 20.00 +20.0 20.06 -15.5 27.5 16.6 31.9 7 10 Alarm State:  0
Fri Jul 21 23:12:17 PDT 2017 ON: 19.98 +20.0 20.04 -14.9 28.4 16.0 32.2 7 10 Alarm State:  0
Fri Jul 21 23:11:16 PDT 2017 ON: 20.00 +20.0 20.05 -15.3 27.7 16.5 32.0 7 9 Alarm State:  0
Fri Jul 21 23:10:14 PDT 2017 ON: 20.00 +20.0 20.06 -15.3 27.7 16.5 31.9 7 9 Alarm State:  0
Fri Jul 21 23:09:12 PDT 2017 ON: 20.00 +20.0 20.05 -15.3 27.8 16.4 31.9 7 10 Alarm State:  0
Fri Jul 21 23:08:11 PDT 2017 ON: 19.99 +20.0 20.04 -15.0 28.2 16.1 32.2 7 10 Alarm State:  0
Fri Jul 21 23:07:09 PDT 2017 ON: 19.99 +20.0 20.04 -15.2 27.9 16.3 32.0 7 10 Alarm State:  0
Fri Jul 21 23:06:08 PDT 2017 ON: 20.01 +20.0 20.07 -15.5 27.4 16.7 31.7 7 9 Alarm State:  0
Fri Jul 21 23:05:06 PDT 2017 ON: 19.99 +20.0 20.06 -15.1 28.1 16.2 32.1 7 9 Alarm State:  0
Fri Jul 21 23:04:05 PDT 2017 ON: 20.00 +20.0 20.05 -15.1 28.0 16.3 32.1 7 9 Alarm State:  0
Fri Jul 21 23:03:03 PDT 2017 ON: 20.00 +20.0 20.06 -15.2 27.9 16.3 32.1 7 10 Alarm State:  0
Fri Jul 21 23:02:02 PDT 2017 ON: 19.99 +20.0 20.06 -15.7 27.1 16.9 31.7 7 9 Alarm State:  0
Fri Jul 21 23:01:00 PDT 2017 ON: 19.99 +20.0 20.05 -15.3 27.7 16.5 32.0 7 9 Alarm State:  0
Fri Jul 21 22:59:59 PDT 2017 ON: 20.00 +20.0 20.05 -15.5 27.5 16.6 32.0 7 9 Alarm State:  0
Fri Jul 21 22:58:57 PDT 2017 ON: 20.00 +20.0 20.05 -15.1 28.0 16.3 32.1 7 10 Alarm State:  0
Fri Jul 21 22:57:56 PDT 2017 ON: 19.98 +20.0 20.05 -15.1 28.0 16.3 32.1 7 10 Alarm State:  0
Fri Jul 21 22:56:55 PDT 2017 ON: 20.00 +20.0 20.05 -15.2 27.9 16.3 32.0 7 9 Alarm State:  0
Fri Jul 21 22:55:53 PDT 2017 ON: 20.00 +20.0 20.05 -15.3 27.8 16.4 31.9 7 10 Alarm State:  0
Fri Jul 21 22:54:52 PDT 2017 ON: 19.99 +20.0 20.06 -15.5 27.5 16.6 31.8 7 9 Alarm State:  0
Fri Jul 21 22:53:50 PDT 2017 ON: 20.00 +20.0 20.04 -15.0 28.2 16.1 32.1 7 10 Alarm State:  0
Fri Jul 21 22:52:49 PDT 2017 ON: 19.99 +20.0 20.05 -15.6 27.3 16.8 31.7 7 10 Alarm State:  0
Fri Jul 21 22:51:47 PDT 2017 ON: 19.99 +20.0 20.04 -15.3 27.8 16.4 32.0 7 10 Alarm State:  0
Fri Jul 21 22:50:46 PDT 2017 ON: 20.00 +20.0 20.06 -15.5 27.5 16.6 31.9 7 9 Alarm State:  0
Fri Jul 21 22:49:44 PDT 2017 ON: 19.99 +20.0 20.05 -15.2 27.9 16.3 32.1 7 10 Alarm State:  0
Fri Jul 21 22:48:43 PDT 2017 ON: 19.99 +20.0 20.04 -15.4 27.6 16.5 31.9 7 10 Alarm State:  0
Fri Jul 21 22:47:41 PDT 2017 ON: 20.00 +20.0 20.06 -15.4 27.6 16.5 32.0 7 9 Alarm State:  0
Fri Jul 21 22:46:40 PDT 2017 ON: 20.00 +20.0 20.07 -15.3 27.7 16.5 31.9 7 9 Alarm State:  0
Fri Jul 21 22:45:38 PDT 2017 ON: 19.99 +20.0 20.05 -15.3 27.8 16.4 32.0 7 10 Alarm State:  0
Fri Jul 21 22:44:36 PDT 2017 ON: 19.99 +20.0 20.04 -15.3 27.8 16.4 32.0 7 9 Alarm State:  0
Fri Jul 21 22:43:35 PDT 2017 ON: 20.00 +20.0 20.04 -15.3 27.8 16.4 32.0 7 10 Alarm State:  0
Fri Jul 21 22:42:33 PDT 2017 ON: 19.99 +20.0 20.06 -15.4 27.6 16.5 31.9 7 10 Alarm State:  0
Fri Jul 21 22:41:32 PDT 2017 ON: 19.99 +20.0 20.05 -15.5 27.5 16.6 31.9 7 10 Alarm State:  0
Fri Jul 21 22:40:30 PDT 2017 ON: 20.00 +20.0 20.05 -15.5 27.5 16.6 31.9 8 9 Alarm State:  0
Fri Jul 21 22:39:29 PDT 2017 ON: 20.00 +20.0 20.07 -15.4 27.6 16.5 31.9 7 9 Alarm State:  0
Fri Jul 21 22:38:27 PDT 2017 ON: 19.99 +20.0 20.04 -15.1 28.1 16.2 32.2 7 10 Alarm State:  0
Fri Jul 21 22:37:26 PDT 2017 ON: 19.99 +20.0 20.05 -15.3 27.8 16.4 32.0 7 9 Alarm State:  0
Fri Jul 21 22:36:25 PDT 2017 ON: 20.00 +20.0 20.06 -15.3 27.7 16.5 32.0 7 9 Alarm State:  0
Fri Jul 21 22:35:23 PDT 2017 ON: 20.00 +20.0 20.06 -15.1 28.0 16.3 32.1 7 10 Alarm State:  0
Fri Jul 21 22:34:22 PDT 2017 ON: 19.99 +20.0 20.05 -14.8 28.5 16.0 32.2 7 10 Alarm State:  0
Fri Jul 21 22:33:20 PDT 2017 ON: 20.00 +20.0 20.05 -15.2 27.9 16.3 32.1 7 10 Alarm State:  0
Fri Jul 21 22:32:19 PDT 2017 ON: 19.99 +20.0 20.05 -15.3 27.7 16.5 32.0 7 10 Alarm State:  0
Fri Jul 21 22:31:17 PDT 2017 ON: 20.00 +20.0 20.05 -15.3 27.7 16.5 31.9 7 9 Alarm State:  0
Fri Jul 21 22:30:16 PDT 2017 ON: 20.00 +20.0 20.06 -15.3 27.8 16.4 32.0 7 9 Alarm State:  0
Fri Jul 21 22:29:14 PDT 2017 ON: 19.99 +20.0 20.06 -15.1 28.1 16.2 32.1 7 10 Alarm State:  0
Fri Jul 21 22:28:13 PDT 2017 ON: 19.99 +20.0 20.04 -15.1 28.1 16.2 32.1 7 10 Alarm State:  0
Fri Jul 21 22:27:11 PDT 2017 ON: 19.99 +20.0 20.04 -15.1 28.0 16.3 32.1 7 10 Alarm State:  0
Fri Jul 21 22:26:10 PDT 2017 ON: 20.00 +20.0 20.05 -15.3 27.7 16.5 32.0 7 9 Alarm State:  0
Fri Jul 21 22:25:08 PDT 2017 ON: 20.01 +20.0 20.07 -15.8 27.0 16.9 31.5 7 9 Alarm State:  0
Fri Jul 21 22:24:07 PDT 2017 ON: 20.00 +20.0 20.07 -15.3 27.8 16.4 32.0 8 10 Alarm State:  0
Fri Jul 21 22:23:05 PDT 2017 ON: 19.99 +20.0 20.05 -15.0 28.2 16.1 32.1 7 10 Alarm State:  0
Fri Jul 21 22:22:04 PDT 2017 ON: 19.98 +20.0 20.05 -15.3 27.7 16.5 32.0 7 9 Alarm State:  0
Fri Jul 21 22:21:02 PDT 2017 ON: 20.00 +20.0 20.04 -15.2 27.9 16.3 32.0 7 10 Alarm State:  0
Fri Jul 21 22:20:01 PDT 2017 ON: 20.00 +20.0 20.05 -15.4 27.6 16.5 32.0 7 10 Alarm State:  0
Fri Jul 21 22:18:59 PDT 2017 ON: 20.00 +20.0 20.06 -15.3 27.8 16.4 32.0 7 10 Alarm State:  0
Fri Jul 21 22:17:58 PDT 2017 ON: 19.99 +20.0 20.05 -15.2 27.9 16.3 32.0 7 10 Alarm State:  0
Fri Jul 21 22:16:56 PDT 2017 ON: 20.00 +20.0 20.05 -15.0 28.2 16.1 32.1 7 10 Alarm State:  0
Fri Jul 21 22:15:55 PDT 2017 ON: 19.99 +20.0 20.05 -15.3 27.8 16.4 32.0 7 10 Alarm State:  0
Fri Jul 21 22:14:53 PDT 2017 ON: 19.99 +20.0 20.04 -15.2 27.9 16.3 32.0 7 10 Alarm State:  0
Fri Jul 21 22:13:52 PDT 2017 ON: 20.00 +20.0 20.05 -15.3 27.8 16.4 32.0 7 10 Alarm State:  0
Fri Jul 21 22:12:50 PDT 2017 ON: 19.99 +20.0 20.06 -15.3 27.7 16.5 32.0 7 9 Alarm State:  0
Fri Jul 21 22:11:49 PDT 2017 ON: 20.00 +20.0 20.06 -15.6 27.3 16.8 31.8 7 9 Alarm State:  0
Fri Jul 21 22:10:47 PDT 2017 ON: 19.99 +20.0 20.05 -15.2 27.9 16.3 32.1 7 10 Alarm State:  0
Fri Jul 21 22:09:46 PDT 2017 ON: 19.99 +20.0 20.04 -14.9 28.4 16.0 32.1 7 10 Alarm State:  0
Fri Jul 21 22:08:44 PDT 2017 ON: 20.00 +20.0 20.06 -15.4 27.6 16.5 31.8 7 9 Alarm State:  0
Fri Jul 21 22:07:43 PDT 2017 ON: 19.98 +20.0 20.04 -15.1 28.1 16.2 32.2 7 10 Alarm State:  0
Fri Jul 21 22:06:41 PDT 2017 ON: 20.00 +20.0 20.05 -15.1 28.0 16.3 32.1 7 10 Alarm State:  0
Fri Jul 21 22:05:40 PDT 2017 ON: 20.00 +20.0 20.06 -15.3 27.8 16.4 32.0 7 10 Alarm State:  0
Fri Jul 21 22:04:38 PDT 2017 ON: 19.99 +20.0 20.05 -15.0 28.2 16.1 32.1 7 10 Alarm State:  0
Fri Jul 21 22:03:37 PDT 2017 ON: 19.99 +20.0 20.05 -15.1 28.1 16.2 32.1 7 9 Alarm State:  0
Fri Jul 21 22:02:35 PDT 2017 ON: 20.00 +20.0 20.06 -15.7 27.2 16.8 31.6 7 9 Alarm State:  0
Fri Jul 21 22:01:34 PDT 2017 ON: 20.00 +20.0 20.06 -15.3 27.8 16.4 31.9 7 9 Alarm State:  0
Fri Jul 21 22:00:32 PDT 2017 ON: 19.99 +20.0 20.05 -15.2 27.9 16.3 32.0 7 10 Alarm State:  0
Fri Jul 21 21:59:31 PDT 2017 ON: 19.99 +20.0 20.04 -15.2 27.9 16.3 32.1 7 10 Alarm State:  0
Fri Jul 21 21:58:29 PDT 2017 ON: 20.00 +20.0 20.04 -15.3 27.8 16.4 31.9 7 10 Alarm State:  0
Fri Jul 21 21:57:28 PDT 2017 ON: 20.00 +20.0 20.06 -15.3 27.8 16.4 32.0 7 9 Alarm State:  0
Fri Jul 21 21:56:26 PDT 2017 ON: 19.99 +20.0 20.05 -15.3 27.8 16.4 32.0 7 10 Alarm State:  0
Fri Jul 21 21:55:25 PDT 2017 ON: 19.99 +20.0 20.05 -15.3 27.7 16.5 32.0 7 10 Alarm State:  0
Fri Jul 21 21:54:23 PDT 2017 ON: 19.99 +20.0 20.03 -15.0 28.2 16.1 32.1 7 10 Alarm State:  0
Fri Jul 21 21:53:22 PDT 2017 ON: 20.00 +20.0 20.06 -15.2 27.9 16.3 32.0 7 9 Alarm State:  0
Fri Jul 21 21:52:20 PDT 2017 ON: 19.99 +20.0 20.05 -15.3 27.8 16.4 32.0 7 10 Alarm State:  0
Fri Jul 21 21:51:19 PDT 2017 ON: 19.99 +20.0 20.05 -15.1 28.0 16.3 32.1 7 9 Alarm State:  0
Fri Jul 21 21:50:17 PDT 2017 ON: 20.00 +20.0 20.04 -15.3 27.8 16.4 32.0 7 10 Alarm State:  0
Fri Jul 21 21:49:16 PDT 2017 ON: 20.00 +20.0 20.04 -14.9 28.3 16.1 32.1 7 10 Alarm State:  0
Fri Jul 21 21:48:14 PDT 2017 ON: 19.99 +20.0 20.04 -14.9 28.3 16.1 32.2 7 10 Alarm State:  0
Fri Jul 21 21:47:13 PDT 2017 ON: 20.00 +20.0 20.05 -15.0 28.2 16.1 32.1 7 10 Alarm State:  0
Fri Jul 21 21:46:11 PDT 2017 ON: 19.99 +20.0 20.04 -15.3 27.7 16.5 32.0 7 10 Alarm State:  0
Fri Jul 21 21:45:10 PDT 2017 ON: 19.99 +20.0 20.05 -15.2 27.9 16.3 32.1 7 9 Alarm State:  0
Fri Jul 21 21:44:08 PDT 2017 ON: 20.00 +20.0 20.06 -15.7 27.2 16.8 31.8 7 9 Alarm State:  0
Fri Jul 21 21:43:07 PDT 2017 ON: 19.99 +20.0 20.05 -15.1 28.1 16.2 32.1 7 10 Alarm State:  0
Fri Jul 21 21:42:05 PDT 2017 ON: 20.00 +20.0 20.05 -15.1 28.0 16.3 32.1 7 9 Alarm State:  0
Fri Jul 21 21:41:04 PDT 2017 ON: 20.00 +20.0 20.06 -15.3 27.7 16.5 31.8 7 10 Alarm State:  0
Fri Jul 21 21:40:02 PDT 2017 ON: 19.99 +20.0 20.06 -15.3 27.8 16.4 32.0 7 9 Alarm State:  0
Fri Jul 21 21:39:01 PDT 2017 ON: 20.00 +20.0 20.06 -15.2 27.9 16.3 32.1 7 10 Alarm State:  0
Fri Jul 21 21:37:59 PDT 2017 ON: 19.99 +20.0 20.05 -15.3 27.8 16.4 32.0 7 9 Alarm State:  0
Fri Jul 21 21:36:58 PDT 2017 ON: 20.00 +20.0 20.05 -15.4 27.6 16.5 31.9 7 9 Alarm State:  0
Fri Jul 21 21:35:56 PDT 2017 ON: 20.00 +20.0 20.05 -15.3 27.8 16.4 32.0 7 10 Alarm State:  0
Fri Jul 21 21:34:55 PDT 2017 ON: 20.00 +20.0 20.06 -15.3 27.7 16.5 32.0 7 9 Alarm State:  0
Fri Jul 21 21:33:53 PDT 2017 ON: 20.00 +20.0 20.04 -14.9 28.3 16.1 32.1 7 10 Alarm State:  0
Fri Jul 21 21:32:52 PDT 2017 ON: 20.00 +20.0 20.05 -15.3 27.7 16.5 32.0 7 10 Alarm State:  0
Fri Jul 21 21:31:50 PDT 2017 ON: 19.99 +20.0 20.07 -15.4 27.6 16.5 32.0 7 9 Alarm State:  0
Fri Jul 21 21:30:49 PDT 2017 ON: 20.00 +20.0 20.05 -14.9 28.3 16.1 32.2 7 10 Alarm State:  0
Fri Jul 21 21:29:47 PDT 2017 ON: 19.99 +20.0 20.04 -15.1 28.0 16.3 32.0 7 11 Alarm State:  0
Fri Jul 21 21:28:46 PDT 2017 ON: 19.99 +20.0 20.04 -15.1 28.0 16.3 32.1 7 10 Alarm State:  0